<?xml version="1.0" encoding="UTF-8" standalone="no" ?>
<gpx xmlns="http://www.topografix.com/GPX/1/1" xmlns:xsi="http://www.w3.org/2001/XMLSchema-instance" xsi:schemaLocation="http://www.topografix.com/GPX/1/1 http://www.topografix.com/GPX/1/1/gpx.xsd" version="1.1" creator="VisuGPX - https://www.visugpx.com">
  <metadata>
    <name>Montagne de Jouère et Croix St. Jean</name>
    <desc><![CDATA[Boucle au départ de Reynier par le Passage de Palabiouse, la montagne de Jouère, la Croix St. Jean, Riou Froid et Dalmas.

Attention, le sentier entre la bergerie de Prémarché et Riou Froid est d'une visibilité très variable. Parfois très bien tracé, parfois complètement invisible. Il demande beaucoup d'attention pour ne pas le perdre.]]></desc>
  </metadata>
  <trk>
    <name><![CDATA[2024-05-11 16:15:24]]></name>
    <trkseg>
      <trkpt lat="44.30359" lon="6.11312">
        <ele>937.42</ele>
        <time>2024-05-11T07:08:38Z</time>
      </trkpt>
      <trkpt lat="44.30358" lon="6.11319">
        <ele>937.42</ele>
        <time>2024-05-11T07:08:54Z</time>
      </trkpt>
      <trkpt lat="44.30357" lon="6.11321">
        <ele>937.42</ele>
        <time>2024-05-11T07:08:56Z</time>
      </trkpt>
      <trkpt lat="44.30353" lon="6.11339">
        <ele>938.38</ele>
        <time>2024-05-11T07:09:09Z</time>
      </trkpt>
      <trkpt lat="44.30355" lon="6.11354">
        <ele>939.35</ele>
        <time>2024-05-11T07:09:22Z</time>
      </trkpt>
      <trkpt lat="44.30354" lon="6.1136">
        <ele>939.83</ele>
        <time>2024-05-11T07:09:36Z</time>
      </trkpt>
      <trkpt lat="44.30342" lon="6.11363">
        <ele>940.79</ele>
        <time>2024-05-11T07:09:52Z</time>
      </trkpt>
      <trkpt lat="44.30335" lon="6.11361">
        <ele>941.27</ele>
        <time>2024-05-11T07:10:04Z</time>
      </trkpt>
      <trkpt lat="44.30335" lon="6.11359">
        <ele>941.27</ele>
        <time>2024-05-11T07:10:35Z</time>
      </trkpt>
      <trkpt lat="44.30336" lon="6.11347">
        <ele>942.71</ele>
        <time>2024-05-11T07:10:48Z</time>
      </trkpt>
      <trkpt lat="44.30339" lon="6.11323">
        <ele>944.15</ele>
        <time>2024-05-11T07:11:11Z</time>
      </trkpt>
      <trkpt lat="44.30343" lon="6.11307">
        <ele>944.63</ele>
        <time>2024-05-11T07:11:25Z</time>
      </trkpt>
      <trkpt lat="44.30346" lon="6.11286">
        <ele>944.63</ele>
        <time>2024-05-11T07:11:41Z</time>
      </trkpt>
      <trkpt lat="44.30347" lon="6.11276">
        <ele>944.63</ele>
        <time>2024-05-11T07:12:27Z</time>
      </trkpt>
      <trkpt lat="44.30351" lon="6.11266">
        <ele>945.11</ele>
        <time>2024-05-11T07:12:42Z</time>
      </trkpt>
      <trkpt lat="44.30355" lon="6.11251">
        <ele>945.59</ele>
        <time>2024-05-11T07:12:56Z</time>
      </trkpt>
      <trkpt lat="44.30364" lon="6.11235">
        <ele>946.56</ele>
        <time>2024-05-11T07:13:11Z</time>
      </trkpt>
      <trkpt lat="44.30373" lon="6.1122">
        <ele>947.52</ele>
        <time>2024-05-11T07:13:25Z</time>
      </trkpt>
      <trkpt lat="44.30382" lon="6.11206">
        <ele>948.48</ele>
        <time>2024-05-11T07:13:36Z</time>
      </trkpt>
      <trkpt lat="44.30386" lon="6.11196">
        <ele>949.44</ele>
        <time>2024-05-11T07:13:43Z</time>
      </trkpt>
      <trkpt lat="44.30395" lon="6.11177">
        <ele>949.44</ele>
        <time>2024-05-11T07:13:58Z</time>
      </trkpt>
      <trkpt lat="44.304" lon="6.11148">
        <ele>949.44</ele>
        <time>2024-05-11T07:14:14Z</time>
      </trkpt>
      <trkpt lat="44.30404" lon="6.11136">
        <ele>949.44</ele>
        <time>2024-05-11T07:14:27Z</time>
      </trkpt>
      <trkpt lat="44.3041" lon="6.11124">
        <ele>949.92</ele>
        <time>2024-05-11T07:14:37Z</time>
      </trkpt>
      <trkpt lat="44.3042" lon="6.11112">
        <ele>951.36</ele>
        <time>2024-05-11T07:14:51Z</time>
      </trkpt>
      <trkpt lat="44.30424" lon="6.11108">
        <ele>951.36</ele>
        <time>2024-05-11T07:14:56Z</time>
      </trkpt>
      <trkpt lat="44.30435" lon="6.11086">
        <ele>951.84</ele>
        <time>2024-05-11T07:15:13Z</time>
      </trkpt>
      <trkpt lat="44.30436" lon="6.11078">
        <ele>952.32</ele>
        <time>2024-05-11T07:15:25Z</time>
      </trkpt>
      <trkpt lat="44.30436" lon="6.11077">
        <ele>951.84</ele>
        <time>2024-05-11T07:15:42Z</time>
      </trkpt>
      <trkpt lat="44.30436" lon="6.11069">
        <ele>952.32</ele>
        <time>2024-05-11T07:15:58Z</time>
      </trkpt>
      <trkpt lat="44.3044" lon="6.11058">
        <ele>952.32</ele>
        <time>2024-05-11T07:16:17Z</time>
      </trkpt>
      <trkpt lat="44.30443" lon="6.11033">
        <ele>952.32</ele>
        <time>2024-05-11T07:16:33Z</time>
      </trkpt>
      <trkpt lat="44.30442" lon="6.11027">
        <ele>952.8</ele>
        <time>2024-05-11T07:16:37Z</time>
      </trkpt>
      <trkpt lat="44.30439" lon="6.11017">
        <ele>953.77</ele>
        <time>2024-05-11T07:16:45Z</time>
      </trkpt>
      <trkpt lat="44.30435" lon="6.11003">
        <ele>953.77</ele>
        <time>2024-05-11T07:16:55Z</time>
      </trkpt>
      <trkpt lat="44.30425" lon="6.10988">
        <ele>953.77</ele>
        <time>2024-05-11T07:17:08Z</time>
      </trkpt>
      <trkpt lat="44.30424" lon="6.10985">
        <ele>953.77</ele>
        <time>2024-05-11T07:17:10Z</time>
      </trkpt>
      <trkpt lat="44.30424" lon="6.10976">
        <ele>953.77</ele>
        <time>2024-05-11T07:17:15Z</time>
      </trkpt>
      <trkpt lat="44.30424" lon="6.10964">
        <ele>952.32</ele>
        <time>2024-05-11T07:17:21Z</time>
      </trkpt>
      <trkpt lat="44.30432" lon="6.10945">
        <ele>952.32</ele>
        <time>2024-05-11T07:17:34Z</time>
      </trkpt>
      <trkpt lat="44.30433" lon="6.10919">
        <ele>952.32</ele>
        <time>2024-05-11T07:17:49Z</time>
      </trkpt>
      <trkpt lat="44.30434" lon="6.10892">
        <ele>952.32</ele>
        <time>2024-05-11T07:18:05Z</time>
      </trkpt>
      <trkpt lat="44.30434" lon="6.10881">
        <ele>952.32</ele>
        <time>2024-05-11T07:18:11Z</time>
      </trkpt>
      <trkpt lat="44.30429" lon="6.10857">
        <ele>952.32</ele>
        <time>2024-05-11T07:18:26Z</time>
      </trkpt>
      <trkpt lat="44.30425" lon="6.10834">
        <ele>952.32</ele>
        <time>2024-05-11T07:18:40Z</time>
      </trkpt>
      <trkpt lat="44.30425" lon="6.10829">
        <ele>953.28</ele>
        <time>2024-05-11T07:18:43Z</time>
      </trkpt>
      <trkpt lat="44.30423" lon="6.10821">
        <ele>953.28</ele>
        <time>2024-05-11T07:18:48Z</time>
      </trkpt>
      <trkpt lat="44.30423" lon="6.10818">
        <ele>953.28</ele>
        <time>2024-05-11T07:18:50Z</time>
      </trkpt>
      <trkpt lat="44.30436" lon="6.10813">
        <ele>954.25</ele>
        <time>2024-05-11T07:19:02Z</time>
      </trkpt>
      <trkpt lat="44.30442" lon="6.10815">
        <ele>954.73</ele>
        <time>2024-05-11T07:19:07Z</time>
      </trkpt>
      <trkpt lat="44.30445" lon="6.10816">
        <ele>954.73</ele>
        <time>2024-05-11T07:19:09Z</time>
      </trkpt>
      <trkpt lat="44.30449" lon="6.10818">
        <ele>954.73</ele>
        <time>2024-05-11T07:19:13Z</time>
      </trkpt>
      <trkpt lat="44.30465" lon="6.10816">
        <ele>956.17</ele>
        <time>2024-05-11T07:19:27Z</time>
      </trkpt>
      <trkpt lat="44.30473" lon="6.10809">
        <ele>958.09</ele>
        <time>2024-05-11T07:19:37Z</time>
      </trkpt>
      <trkpt lat="44.30488" lon="6.10806">
        <ele>959.53</ele>
        <time>2024-05-11T07:19:51Z</time>
      </trkpt>
      <trkpt lat="44.30501" lon="6.10801">
        <ele>960.01</ele>
        <time>2024-05-11T07:20:04Z</time>
      </trkpt>
      <trkpt lat="44.30512" lon="6.1079">
        <ele>960.01</ele>
        <time>2024-05-11T07:20:17Z</time>
      </trkpt>
      <trkpt lat="44.30519" lon="6.10775">
        <ele>961.94</ele>
        <time>2024-05-11T07:20:29Z</time>
      </trkpt>
      <trkpt lat="44.30521" lon="6.10773">
        <ele>962.42</ele>
        <time>2024-05-11T07:20:31Z</time>
      </trkpt>
      <trkpt lat="44.30535" lon="6.10761">
        <ele>963.38</ele>
        <time>2024-05-11T07:20:45Z</time>
      </trkpt>
      <trkpt lat="44.30547" lon="6.10752">
        <ele>963.86</ele>
        <time>2024-05-11T07:20:59Z</time>
      </trkpt>
      <trkpt lat="44.30549" lon="6.10749">
        <ele>963.86</ele>
        <time>2024-05-11T07:21:01Z</time>
      </trkpt>
      <trkpt lat="44.30553" lon="6.10741">
        <ele>964.82</ele>
        <time>2024-05-11T07:21:08Z</time>
      </trkpt>
      <trkpt lat="44.30565" lon="6.1073">
        <ele>967.22</ele>
        <time>2024-05-11T07:21:23Z</time>
      </trkpt>
      <trkpt lat="44.30573" lon="6.10718">
        <ele>968.67</ele>
        <time>2024-05-11T07:21:36Z</time>
      </trkpt>
      <trkpt lat="44.30577" lon="6.10701">
        <ele>970.59</ele>
        <time>2024-05-11T07:21:51Z</time>
      </trkpt>
      <trkpt lat="44.30582" lon="6.10685">
        <ele>972.51</ele>
        <time>2024-05-11T07:22:06Z</time>
      </trkpt>
      <trkpt lat="44.30589" lon="6.10668">
        <ele>972.51</ele>
        <time>2024-05-11T07:22:21Z</time>
      </trkpt>
      <trkpt lat="44.30591" lon="6.10663">
        <ele>972.51</ele>
        <time>2024-05-11T07:22:26Z</time>
      </trkpt>
      <trkpt lat="44.30596" lon="6.10649">
        <ele>973.47</ele>
        <time>2024-05-11T07:22:35Z</time>
      </trkpt>
      <trkpt lat="44.30597" lon="6.10644">
        <ele>973.47</ele>
        <time>2024-05-11T07:22:37Z</time>
      </trkpt>
      <trkpt lat="44.30605" lon="6.10627">
        <ele>975.88</ele>
        <time>2024-05-11T07:22:53Z</time>
      </trkpt>
      <trkpt lat="44.30608" lon="6.10604">
        <ele>977.32</ele>
        <time>2024-05-11T07:23:08Z</time>
      </trkpt>
      <trkpt lat="44.30615" lon="6.10593">
        <ele>978.28</ele>
        <time>2024-05-11T07:23:20Z</time>
      </trkpt>
      <trkpt lat="44.30624" lon="6.10581">
        <ele>979.72</ele>
        <time>2024-05-11T07:23:35Z</time>
      </trkpt>
      <trkpt lat="44.30628" lon="6.10568">
        <ele>981.64</ele>
        <time>2024-05-11T07:23:47Z</time>
      </trkpt>
      <trkpt lat="44.30632" lon="6.10557">
        <ele>983.57</ele>
        <time>2024-05-11T07:23:59Z</time>
      </trkpt>
      <trkpt lat="44.30634" lon="6.10541">
        <ele>985.97</ele>
        <time>2024-05-11T07:24:13Z</time>
      </trkpt>
      <trkpt lat="44.30633" lon="6.10537">
        <ele>987.41</ele>
        <time>2024-05-11T07:24:18Z</time>
      </trkpt>
      <trkpt lat="44.30628" lon="6.10538">
        <ele>987.89</ele>
        <time>2024-05-11T07:24:33Z</time>
      </trkpt>
      <trkpt lat="44.30626" lon="6.10543">
        <ele>987.89</ele>
        <time>2024-05-11T07:24:39Z</time>
      </trkpt>
      <trkpt lat="44.30625" lon="6.10546">
        <ele>987.89</ele>
        <time>2024-05-11T07:24:41Z</time>
      </trkpt>
      <trkpt lat="44.30611" lon="6.10556">
        <ele>988.85</ele>
        <time>2024-05-11T07:24:58Z</time>
      </trkpt>
      <trkpt lat="44.30598" lon="6.10565">
        <ele>990.78</ele>
        <time>2024-05-11T07:25:14Z</time>
      </trkpt>
      <trkpt lat="44.30586" lon="6.10574">
        <ele>993.18</ele>
        <time>2024-05-11T07:25:30Z</time>
      </trkpt>
      <trkpt lat="44.30576" lon="6.1058">
        <ele>994.62</ele>
        <time>2024-05-11T07:25:43Z</time>
      </trkpt>
      <trkpt lat="44.30568" lon="6.10584">
        <ele>994.62</ele>
        <time>2024-05-11T07:25:52Z</time>
      </trkpt>
      <trkpt lat="44.3056" lon="6.10591">
        <ele>996.06</ele>
        <time>2024-05-11T07:26:07Z</time>
      </trkpt>
      <trkpt lat="44.30558" lon="6.10592">
        <ele>996.54</ele>
        <time>2024-05-11T07:26:09Z</time>
      </trkpt>
      <trkpt lat="44.30556" lon="6.10593">
        <ele>996.54</ele>
        <time>2024-05-11T07:26:12Z</time>
      </trkpt>
      <trkpt lat="44.30546" lon="6.10602">
        <ele>997.51</ele>
        <time>2024-05-11T07:26:25Z</time>
      </trkpt>
      <trkpt lat="44.30542" lon="6.10593">
        <ele>999.43</ele>
        <time>2024-05-11T07:26:38Z</time>
      </trkpt>
      <trkpt lat="44.30552" lon="6.10579">
        <ele>1000.39</ele>
        <time>2024-05-11T07:26:54Z</time>
      </trkpt>
      <trkpt lat="44.30562" lon="6.10567">
        <ele>1002.79</ele>
        <time>2024-05-11T07:27:08Z</time>
      </trkpt>
      <trkpt lat="44.30558" lon="6.10556">
        <ele>1005.2</ele>
        <time>2024-05-11T07:27:21Z</time>
      </trkpt>
      <trkpt lat="44.30557" lon="6.10556">
        <ele>1005.2</ele>
        <time>2024-05-11T07:27:22Z</time>
      </trkpt>
      <trkpt lat="44.30546" lon="6.10556">
        <ele>1006.64</ele>
        <time>2024-05-11T07:27:34Z</time>
      </trkpt>
      <trkpt lat="44.30542" lon="6.10556">
        <ele>1007.6</ele>
        <time>2024-05-11T07:27:39Z</time>
      </trkpt>
      <trkpt lat="44.30531" lon="6.10556">
        <ele>1010</ele>
        <time>2024-05-11T07:27:52Z</time>
      </trkpt>
      <trkpt lat="44.30524" lon="6.10557">
        <ele>1011.93</ele>
        <time>2024-05-11T07:28:03Z</time>
      </trkpt>
      <trkpt lat="44.30514" lon="6.10565">
        <ele>1015.29</ele>
        <time>2024-05-11T07:28:20Z</time>
      </trkpt>
      <trkpt lat="44.30505" lon="6.1058">
        <ele>1017.21</ele>
        <time>2024-05-11T07:28:37Z</time>
      </trkpt>
      <trkpt lat="44.30503" lon="6.10582">
        <ele>1017.21</ele>
        <time>2024-05-11T07:28:39Z</time>
      </trkpt>
      <trkpt lat="44.30496" lon="6.10592">
        <ele>1017.21</ele>
        <time>2024-05-11T07:28:52Z</time>
      </trkpt>
      <trkpt lat="44.30494" lon="6.10593">
        <ele>1017.21</ele>
        <time>2024-05-11T07:28:55Z</time>
      </trkpt>
      <trkpt lat="44.30491" lon="6.10595">
        <ele>1017.21</ele>
        <time>2024-05-11T07:28:58Z</time>
      </trkpt>
      <trkpt lat="44.30471" lon="6.10598">
        <ele>1017.69</ele>
        <time>2024-05-11T07:29:15Z</time>
      </trkpt>
      <trkpt lat="44.30456" lon="6.10608">
        <ele>1019.62</ele>
        <time>2024-05-11T07:29:32Z</time>
      </trkpt>
      <trkpt lat="44.30445" lon="6.10613">
        <ele>1020.58</ele>
        <time>2024-05-11T07:29:43Z</time>
      </trkpt>
      <trkpt lat="44.30434" lon="6.10617">
        <ele>1023.46</ele>
        <time>2024-05-11T07:29:59Z</time>
      </trkpt>
      <trkpt lat="44.30426" lon="6.10615">
        <ele>1025.38</ele>
        <time>2024-05-11T07:30:12Z</time>
      </trkpt>
      <trkpt lat="44.30414" lon="6.10613">
        <ele>1028.27</ele>
        <time>2024-05-11T07:30:27Z</time>
      </trkpt>
      <trkpt lat="44.30404" lon="6.10611">
        <ele>1030.67</ele>
        <time>2024-05-11T07:30:41Z</time>
      </trkpt>
      <trkpt lat="44.30392" lon="6.10607">
        <ele>1033.55</ele>
        <time>2024-05-11T07:30:58Z</time>
      </trkpt>
      <trkpt lat="44.30383" lon="6.10601">
        <ele>1035.48</ele>
        <time>2024-05-11T07:31:12Z</time>
      </trkpt>
      <trkpt lat="44.30374" lon="6.10592">
        <ele>1037.88</ele>
        <time>2024-05-11T07:31:28Z</time>
      </trkpt>
      <trkpt lat="44.30365" lon="6.10582">
        <ele>1040.76</ele>
        <time>2024-05-11T07:31:44Z</time>
      </trkpt>
      <trkpt lat="44.30358" lon="6.10574">
        <ele>1043.65</ele>
        <time>2024-05-11T07:32:00Z</time>
      </trkpt>
      <trkpt lat="44.30363" lon="6.10564">
        <ele>1046.53</ele>
        <time>2024-05-11T07:32:14Z</time>
      </trkpt>
      <trkpt lat="44.30373" lon="6.10557">
        <ele>1048.45</ele>
        <time>2024-05-11T07:32:31Z</time>
      </trkpt>
      <trkpt lat="44.30377" lon="6.10552">
        <ele>1049.42</ele>
        <time>2024-05-11T07:32:39Z</time>
      </trkpt>
      <trkpt lat="44.30387" lon="6.10541">
        <ele>1051.34</ele>
        <time>2024-05-11T07:32:55Z</time>
      </trkpt>
      <trkpt lat="44.30395" lon="6.1053">
        <ele>1052.78</ele>
        <time>2024-05-11T07:33:10Z</time>
      </trkpt>
      <trkpt lat="44.30401" lon="6.10519">
        <ele>1054.22</ele>
        <time>2024-05-11T07:33:23Z</time>
      </trkpt>
      <trkpt lat="44.30396" lon="6.1051">
        <ele>1057.11</ele>
        <time>2024-05-11T07:33:39Z</time>
      </trkpt>
      <trkpt lat="44.3039" lon="6.10509">
        <ele>1058.07</ele>
        <time>2024-05-11T07:33:46Z</time>
      </trkpt>
      <trkpt lat="44.30378" lon="6.10509">
        <ele>1060.47</ele>
        <time>2024-05-11T07:34:01Z</time>
      </trkpt>
      <trkpt lat="44.30364" lon="6.10513">
        <ele>1062.87</ele>
        <time>2024-05-11T07:34:18Z</time>
      </trkpt>
      <trkpt lat="44.3036" lon="6.10517">
        <ele>1062.87</ele>
        <time>2024-05-11T07:34:23Z</time>
      </trkpt>
      <trkpt lat="44.30349" lon="6.10523">
        <ele>1062.87</ele>
        <time>2024-05-11T07:34:34Z</time>
      </trkpt>
      <trkpt lat="44.30338" lon="6.1052">
        <ele>1064.32</ele>
        <time>2024-05-11T07:34:46Z</time>
      </trkpt>
      <trkpt lat="44.30328" lon="6.10511">
        <ele>1066.24</ele>
        <time>2024-05-11T07:35:02Z</time>
      </trkpt>
      <trkpt lat="44.30328" lon="6.10497">
        <ele>1069.6</ele>
        <time>2024-05-11T07:35:16Z</time>
      </trkpt>
      <trkpt lat="44.30334" lon="6.10487">
        <ele>1072.01</ele>
        <time>2024-05-11T07:35:30Z</time>
      </trkpt>
      <trkpt lat="44.3034" lon="6.10475">
        <ele>1074.41</ele>
        <time>2024-05-11T07:35:46Z</time>
      </trkpt>
      <trkpt lat="44.30347" lon="6.10464">
        <ele>1075.85</ele>
        <time>2024-05-11T07:36:00Z</time>
      </trkpt>
      <trkpt lat="44.30358" lon="6.10455">
        <ele>1077.78</ele>
        <time>2024-05-11T07:36:16Z</time>
      </trkpt>
      <trkpt lat="44.30368" lon="6.10446">
        <ele>1080.18</ele>
        <time>2024-05-11T07:36:31Z</time>
      </trkpt>
      <trkpt lat="44.30379" lon="6.10438">
        <ele>1082.58</ele>
        <time>2024-05-11T07:36:48Z</time>
      </trkpt>
      <trkpt lat="44.30394" lon="6.10432">
        <ele>1083.54</ele>
        <time>2024-05-11T07:37:04Z</time>
      </trkpt>
      <trkpt lat="44.30403" lon="6.10422">
        <ele>1084.5</ele>
        <time>2024-05-11T07:37:19Z</time>
      </trkpt>
      <trkpt lat="44.30408" lon="6.10411">
        <ele>1085.47</ele>
        <time>2024-05-11T07:37:29Z</time>
      </trkpt>
      <trkpt lat="44.30405" lon="6.10405">
        <ele>1086.43</ele>
        <time>2024-05-11T07:37:38Z</time>
      </trkpt>
      <trkpt lat="44.3039" lon="6.10415">
        <ele>1087.39</ele>
        <time>2024-05-11T07:37:54Z</time>
      </trkpt>
      <trkpt lat="44.30381" lon="6.10416">
        <ele>1087.39</ele>
        <time>2024-05-11T07:38:02Z</time>
      </trkpt>
      <trkpt lat="44.30369" lon="6.1042">
        <ele>1087.87</ele>
        <time>2024-05-11T07:38:15Z</time>
      </trkpt>
      <trkpt lat="44.30351" lon="6.10423">
        <ele>1087.87</ele>
        <time>2024-05-11T07:38:31Z</time>
      </trkpt>
      <trkpt lat="44.3035" lon="6.10423">
        <ele>1087.87</ele>
        <time>2024-05-11T07:38:32Z</time>
      </trkpt>
      <trkpt lat="44.30334" lon="6.10425">
        <ele>1089.79</ele>
        <time>2024-05-11T07:38:47Z</time>
      </trkpt>
      <trkpt lat="44.3032" lon="6.10424">
        <ele>1092.2</ele>
        <time>2024-05-11T07:39:02Z</time>
      </trkpt>
      <trkpt lat="44.30306" lon="6.10422">
        <ele>1093.16</ele>
        <time>2024-05-11T07:39:17Z</time>
      </trkpt>
      <trkpt lat="44.30296" lon="6.10419">
        <ele>1094.12</ele>
        <time>2024-05-11T07:39:27Z</time>
      </trkpt>
      <trkpt lat="44.30286" lon="6.10419">
        <ele>1096.04</ele>
        <time>2024-05-11T07:39:39Z</time>
      </trkpt>
      <trkpt lat="44.30275" lon="6.10413">
        <ele>1098.44</ele>
        <time>2024-05-11T07:39:54Z</time>
      </trkpt>
      <trkpt lat="44.30263" lon="6.10408">
        <ele>1100.85</ele>
        <time>2024-05-11T07:40:08Z</time>
      </trkpt>
      <trkpt lat="44.30253" lon="6.10409">
        <ele>1101.81</ele>
        <time>2024-05-11T07:40:19Z</time>
      </trkpt>
      <trkpt lat="44.30242" lon="6.10409">
        <ele>1103.25</ele>
        <time>2024-05-11T07:40:33Z</time>
      </trkpt>
      <trkpt lat="44.30229" lon="6.10414">
        <ele>1105.65</ele>
        <time>2024-05-11T07:40:49Z</time>
      </trkpt>
      <trkpt lat="44.30228" lon="6.10414">
        <ele>1105.65</ele>
        <time>2024-05-11T07:40:50Z</time>
      </trkpt>
      <trkpt lat="44.30224" lon="6.10415">
        <ele>1106.13</ele>
        <time>2024-05-11T07:40:56Z</time>
      </trkpt>
      <trkpt lat="44.30212" lon="6.1042">
        <ele>1107.58</ele>
        <time>2024-05-11T07:41:10Z</time>
      </trkpt>
      <trkpt lat="44.30204" lon="6.10413">
        <ele>1109.02</ele>
        <time>2024-05-11T07:41:25Z</time>
      </trkpt>
      <trkpt lat="44.30208" lon="6.10396">
        <ele>1111.9</ele>
        <time>2024-05-11T07:41:40Z</time>
      </trkpt>
      <trkpt lat="44.30208" lon="6.10395">
        <ele>1111.9</ele>
        <time>2024-05-11T07:41:41Z</time>
      </trkpt>
      <trkpt lat="44.30212" lon="6.1038">
        <ele>1113.82</ele>
        <time>2024-05-11T07:41:54Z</time>
      </trkpt>
      <trkpt lat="44.30219" lon="6.10363">
        <ele>1115.75</ele>
        <time>2024-05-11T07:42:11Z</time>
      </trkpt>
      <trkpt lat="44.3023" lon="6.10351">
        <ele>1117.19</ele>
        <time>2024-05-11T07:42:27Z</time>
      </trkpt>
      <trkpt lat="44.30235" lon="6.1034">
        <ele>1118.63</ele>
        <time>2024-05-11T07:42:41Z</time>
      </trkpt>
      <trkpt lat="44.30241" lon="6.10331">
        <ele>1120.55</ele>
        <time>2024-05-11T07:42:56Z</time>
      </trkpt>
      <trkpt lat="44.3025" lon="6.10318">
        <ele>1121.52</ele>
        <time>2024-05-11T07:43:10Z</time>
      </trkpt>
      <trkpt lat="44.30257" lon="6.10304">
        <ele>1122.48</ele>
        <time>2024-05-11T07:43:24Z</time>
      </trkpt>
      <trkpt lat="44.30258" lon="6.10301">
        <ele>1122.96</ele>
        <time>2024-05-11T07:43:26Z</time>
      </trkpt>
      <trkpt lat="44.30258" lon="6.10295">
        <ele>1123.44</ele>
        <time>2024-05-11T07:43:33Z</time>
      </trkpt>
      <trkpt lat="44.30259" lon="6.10287">
        <ele>1124.4</ele>
        <time>2024-05-11T07:43:45Z</time>
      </trkpt>
      <trkpt lat="44.30259" lon="6.10278">
        <ele>1125.84</ele>
        <time>2024-05-11T07:44:00Z</time>
      </trkpt>
      <trkpt lat="44.30258" lon="6.10275">
        <ele>1126.8</ele>
        <time>2024-05-11T07:44:19Z</time>
      </trkpt>
      <trkpt lat="44.30256" lon="6.1027">
        <ele>1128.73</ele>
        <time>2024-05-11T07:47:14Z</time>
      </trkpt>
      <trkpt lat="44.30254" lon="6.10265">
        <ele>1129.69</ele>
        <time>2024-05-11T07:47:35Z</time>
      </trkpt>
      <trkpt lat="44.30256" lon="6.10252">
        <ele>1132.09</ele>
        <time>2024-05-11T07:47:50Z</time>
      </trkpt>
      <trkpt lat="44.30262" lon="6.10242">
        <ele>1134.01</ele>
        <time>2024-05-11T07:48:03Z</time>
      </trkpt>
      <trkpt lat="44.30271" lon="6.10232">
        <ele>1134.97</ele>
        <time>2024-05-11T07:48:18Z</time>
      </trkpt>
      <trkpt lat="44.30284" lon="6.10215">
        <ele>1133.05</ele>
        <time>2024-05-11T07:48:35Z</time>
      </trkpt>
      <trkpt lat="44.30292" lon="6.10203">
        <ele>1133.05</ele>
        <time>2024-05-11T07:48:45Z</time>
      </trkpt>
      <trkpt lat="44.30299" lon="6.10193">
        <ele>1134.49</ele>
        <time>2024-05-11T07:48:54Z</time>
      </trkpt>
      <trkpt lat="44.30303" lon="6.10186">
        <ele>1135.45</ele>
        <time>2024-05-11T07:49:02Z</time>
      </trkpt>
      <trkpt lat="44.30316" lon="6.10175">
        <ele>1135.94</ele>
        <time>2024-05-11T07:49:17Z</time>
      </trkpt>
      <trkpt lat="44.30325" lon="6.10166">
        <ele>1136.9</ele>
        <time>2024-05-11T07:49:31Z</time>
      </trkpt>
      <trkpt lat="44.30333" lon="6.10151">
        <ele>1138.82</ele>
        <time>2024-05-11T07:49:44Z</time>
      </trkpt>
      <trkpt lat="44.30341" lon="6.10141">
        <ele>1140.74</ele>
        <time>2024-05-11T07:49:57Z</time>
      </trkpt>
      <trkpt lat="44.30349" lon="6.10135">
        <ele>1142.18</ele>
        <time>2024-05-11T07:50:10Z</time>
      </trkpt>
      <trkpt lat="44.30361" lon="6.10126">
        <ele>1142.66</ele>
        <time>2024-05-11T07:50:23Z</time>
      </trkpt>
      <trkpt lat="44.30369" lon="6.10114">
        <ele>1144.11</ele>
        <time>2024-05-11T07:50:35Z</time>
      </trkpt>
      <trkpt lat="44.30375" lon="6.10107">
        <ele>1145.07</ele>
        <time>2024-05-11T07:50:45Z</time>
      </trkpt>
      <trkpt lat="44.30379" lon="6.10094">
        <ele>1146.03</ele>
        <time>2024-05-11T07:51:00Z</time>
      </trkpt>
      <trkpt lat="44.30381" lon="6.1008">
        <ele>1147.95</ele>
        <time>2024-05-11T07:51:12Z</time>
      </trkpt>
      <trkpt lat="44.30389" lon="6.10066">
        <ele>1149.39</ele>
        <time>2024-05-11T07:51:29Z</time>
      </trkpt>
      <trkpt lat="44.30392" lon="6.1005">
        <ele>1151.32</ele>
        <time>2024-05-11T07:51:44Z</time>
      </trkpt>
      <trkpt lat="44.30396" lon="6.10031">
        <ele>1152.28</ele>
        <time>2024-05-11T07:51:59Z</time>
      </trkpt>
      <trkpt lat="44.30398" lon="6.10018">
        <ele>1152.76</ele>
        <time>2024-05-11T07:52:10Z</time>
      </trkpt>
      <trkpt lat="44.30399" lon="6.10003">
        <ele>1153.72</ele>
        <time>2024-05-11T07:52:23Z</time>
      </trkpt>
      <trkpt lat="44.304" lon="6.09986">
        <ele>1156.12</ele>
        <time>2024-05-11T07:52:37Z</time>
      </trkpt>
      <trkpt lat="44.30401" lon="6.09969">
        <ele>1158.53</ele>
        <time>2024-05-11T07:52:52Z</time>
      </trkpt>
      <trkpt lat="44.30398" lon="6.09954">
        <ele>1160.45</ele>
        <time>2024-05-11T07:53:08Z</time>
      </trkpt>
      <trkpt lat="44.30389" lon="6.09947">
        <ele>1163.33</ele>
        <time>2024-05-11T07:53:24Z</time>
      </trkpt>
      <trkpt lat="44.30378" lon="6.09945">
        <ele>1165.74</ele>
        <time>2024-05-11T07:53:41Z</time>
      </trkpt>
      <trkpt lat="44.30366" lon="6.09942">
        <ele>1168.62</ele>
        <time>2024-05-11T07:54:00Z</time>
      </trkpt>
      <trkpt lat="44.30358" lon="6.09942">
        <ele>1170.06</ele>
        <time>2024-05-11T07:54:15Z</time>
      </trkpt>
      <trkpt lat="44.30347" lon="6.09938">
        <ele>1172.95</ele>
        <time>2024-05-11T07:54:30Z</time>
      </trkpt>
      <trkpt lat="44.30334" lon="6.09935">
        <ele>1174.87</ele>
        <time>2024-05-11T07:54:46Z</time>
      </trkpt>
      <trkpt lat="44.30321" lon="6.09933">
        <ele>1178.23</ele>
        <time>2024-05-11T07:55:03Z</time>
      </trkpt>
      <trkpt lat="44.3031" lon="6.0993">
        <ele>1180.16</ele>
        <time>2024-05-11T07:55:19Z</time>
      </trkpt>
      <trkpt lat="44.30297" lon="6.09932">
        <ele>1182.08</ele>
        <time>2024-05-11T07:55:35Z</time>
      </trkpt>
      <trkpt lat="44.3029" lon="6.09931">
        <ele>1183.04</ele>
        <time>2024-05-11T07:55:43Z</time>
      </trkpt>
      <trkpt lat="44.30279" lon="6.09931">
        <ele>1184.48</ele>
        <time>2024-05-11T07:55:58Z</time>
      </trkpt>
      <trkpt lat="44.30263" lon="6.09934">
        <ele>1184.48</ele>
        <time>2024-05-11T07:56:14Z</time>
      </trkpt>
      <trkpt lat="44.30248" lon="6.09942">
        <ele>1184.96</ele>
        <time>2024-05-11T07:56:30Z</time>
      </trkpt>
      <trkpt lat="44.30236" lon="6.09952">
        <ele>1185.44</ele>
        <time>2024-05-11T07:56:44Z</time>
      </trkpt>
      <trkpt lat="44.30225" lon="6.0996">
        <ele>1187.37</ele>
        <time>2024-05-11T07:57:00Z</time>
      </trkpt>
      <trkpt lat="44.30212" lon="6.09966">
        <ele>1189.77</ele>
        <time>2024-05-11T07:57:15Z</time>
      </trkpt>
      <trkpt lat="44.30201" lon="6.09966">
        <ele>1191.69</ele>
        <time>2024-05-11T07:57:30Z</time>
      </trkpt>
      <trkpt lat="44.30192" lon="6.09962">
        <ele>1194.09</ele>
        <time>2024-05-11T07:57:44Z</time>
      </trkpt>
      <trkpt lat="44.30179" lon="6.09967">
        <ele>1196.98</ele>
        <time>2024-05-11T07:58:02Z</time>
      </trkpt>
      <trkpt lat="44.30168" lon="6.09973">
        <ele>1199.38</ele>
        <time>2024-05-11T07:58:17Z</time>
      </trkpt>
      <trkpt lat="44.30158" lon="6.0998">
        <ele>1200.82</ele>
        <time>2024-05-11T07:58:33Z</time>
      </trkpt>
      <trkpt lat="44.30146" lon="6.09988">
        <ele>1203.23</ele>
        <time>2024-05-11T07:58:49Z</time>
      </trkpt>
      <trkpt lat="44.30137" lon="6.09991">
        <ele>1206.11</ele>
        <time>2024-05-11T07:59:04Z</time>
      </trkpt>
      <trkpt lat="44.30124" lon="6.09996">
        <ele>1207.55</ele>
        <time>2024-05-11T07:59:20Z</time>
      </trkpt>
      <trkpt lat="44.30109" lon="6.10006">
        <ele>1208.03</ele>
        <time>2024-05-11T07:59:36Z</time>
      </trkpt>
      <trkpt lat="44.30098" lon="6.10018">
        <ele>1209.48</ele>
        <time>2024-05-11T07:59:51Z</time>
      </trkpt>
      <trkpt lat="44.30095" lon="6.10022">
        <ele>1209.96</ele>
        <time>2024-05-11T07:59:56Z</time>
      </trkpt>
      <trkpt lat="44.30083" lon="6.10034">
        <ele>1210.92</ele>
        <time>2024-05-11T08:00:12Z</time>
      </trkpt>
      <trkpt lat="44.30071" lon="6.10043">
        <ele>1212.36</ele>
        <time>2024-05-11T08:00:27Z</time>
      </trkpt>
      <trkpt lat="44.30061" lon="6.1005">
        <ele>1213.32</ele>
        <time>2024-05-11T08:00:41Z</time>
      </trkpt>
      <trkpt lat="44.30047" lon="6.10051">
        <ele>1215.24</ele>
        <time>2024-05-11T08:00:57Z</time>
      </trkpt>
      <trkpt lat="44.30033" lon="6.10051">
        <ele>1217.65</ele>
        <time>2024-05-11T08:01:12Z</time>
      </trkpt>
      <trkpt lat="44.30018" lon="6.10053">
        <ele>1218.13</ele>
        <time>2024-05-11T08:01:28Z</time>
      </trkpt>
      <trkpt lat="44.30006" lon="6.10054">
        <ele>1220.05</ele>
        <time>2024-05-11T08:01:43Z</time>
      </trkpt>
      <trkpt lat="44.29994" lon="6.10056">
        <ele>1222.93</ele>
        <time>2024-05-11T08:01:59Z</time>
      </trkpt>
      <trkpt lat="44.29981" lon="6.10058">
        <ele>1224.86</ele>
        <time>2024-05-11T08:02:15Z</time>
      </trkpt>
      <trkpt lat="44.29968" lon="6.10058">
        <ele>1227.26</ele>
        <time>2024-05-11T08:02:31Z</time>
      </trkpt>
      <trkpt lat="44.29966" lon="6.10046">
        <ele>1229.66</ele>
        <time>2024-05-11T08:02:48Z</time>
      </trkpt>
      <trkpt lat="44.29971" lon="6.1003">
        <ele>1231.11</ele>
        <time>2024-05-11T08:03:01Z</time>
      </trkpt>
      <trkpt lat="44.29975" lon="6.10013">
        <ele>1232.55</ele>
        <time>2024-05-11T08:03:16Z</time>
      </trkpt>
      <trkpt lat="44.29974" lon="6.10005">
        <ele>1233.51</ele>
        <time>2024-05-11T08:03:22Z</time>
      </trkpt>
      <trkpt lat="44.2998" lon="6.09987">
        <ele>1235.91</ele>
        <time>2024-05-11T08:03:36Z</time>
      </trkpt>
      <trkpt lat="44.29988" lon="6.09971">
        <ele>1236.39</ele>
        <time>2024-05-11T08:03:50Z</time>
      </trkpt>
      <trkpt lat="44.29988" lon="6.09961">
        <ele>1237.83</ele>
        <time>2024-05-11T08:03:58Z</time>
      </trkpt>
      <trkpt lat="44.29992" lon="6.09952">
        <ele>1239.28</ele>
        <time>2024-05-11T08:04:13Z</time>
      </trkpt>
      <trkpt lat="44.29993" lon="6.09949">
        <ele>1240.24</ele>
        <time>2024-05-11T08:04:16Z</time>
      </trkpt>
      <trkpt lat="44.29996" lon="6.09929">
        <ele>1242.16</ele>
        <time>2024-05-11T08:04:32Z</time>
      </trkpt>
      <trkpt lat="44.3" lon="6.09917">
        <ele>1244.08</ele>
        <time>2024-05-11T08:04:44Z</time>
      </trkpt>
      <trkpt lat="44.30001" lon="6.09903">
        <ele>1246.49</ele>
        <time>2024-05-11T08:04:58Z</time>
      </trkpt>
      <trkpt lat="44.30006" lon="6.09888">
        <ele>1248.41</ele>
        <time>2024-05-11T08:05:14Z</time>
      </trkpt>
      <trkpt lat="44.30008" lon="6.09875">
        <ele>1250.81</ele>
        <time>2024-05-11T08:05:28Z</time>
      </trkpt>
      <trkpt lat="44.30011" lon="6.09855">
        <ele>1252.74</ele>
        <time>2024-05-11T08:05:45Z</time>
      </trkpt>
      <trkpt lat="44.30011" lon="6.09855">
        <ele>1253.22</ele>
        <time>2024-05-11T08:05:46Z</time>
      </trkpt>
      <trkpt lat="44.30016" lon="6.09841">
        <ele>1255.14</ele>
        <time>2024-05-11T08:06:00Z</time>
      </trkpt>
      <trkpt lat="44.30019" lon="6.09826">
        <ele>1258.02</ele>
        <time>2024-05-11T08:06:16Z</time>
      </trkpt>
      <trkpt lat="44.30022" lon="6.09811">
        <ele>1260.43</ele>
        <time>2024-05-11T08:06:32Z</time>
      </trkpt>
      <trkpt lat="44.30026" lon="6.09795">
        <ele>1263.31</ele>
        <time>2024-05-11T08:06:49Z</time>
      </trkpt>
      <trkpt lat="44.30029" lon="6.0978">
        <ele>1265.23</ele>
        <time>2024-05-11T08:07:04Z</time>
      </trkpt>
      <trkpt lat="44.30033" lon="6.09764">
        <ele>1267.64</ele>
        <time>2024-05-11T08:07:21Z</time>
      </trkpt>
      <trkpt lat="44.30038" lon="6.09749">
        <ele>1271</ele>
        <time>2024-05-11T08:07:39Z</time>
      </trkpt>
      <trkpt lat="44.30042" lon="6.09737">
        <ele>1272.92</ele>
        <time>2024-05-11T08:07:54Z</time>
      </trkpt>
      <trkpt lat="44.30048" lon="6.09723">
        <ele>1275.33</ele>
        <time>2024-05-11T08:08:09Z</time>
      </trkpt>
      <trkpt lat="44.3005" lon="6.09711">
        <ele>1277.25</ele>
        <time>2024-05-11T08:08:24Z</time>
      </trkpt>
      <trkpt lat="44.30054" lon="6.09698">
        <ele>1280.13</ele>
        <time>2024-05-11T08:08:39Z</time>
      </trkpt>
      <trkpt lat="44.30054" lon="6.09686">
        <ele>1282.54</ele>
        <time>2024-05-11T08:08:55Z</time>
      </trkpt>
      <trkpt lat="44.30053" lon="6.09683">
        <ele>1283.98</ele>
        <time>2024-05-11T08:09:10Z</time>
      </trkpt>
      <trkpt lat="44.30051" lon="6.0968">
        <ele>1283.98</ele>
        <time>2024-05-11T08:09:24Z</time>
      </trkpt>
      <trkpt lat="44.30049" lon="6.0968">
        <ele>1283.98</ele>
        <time>2024-05-11T08:09:27Z</time>
      </trkpt>
      <trkpt lat="44.3004" lon="6.09676">
        <ele>1285.42</ele>
        <time>2024-05-11T08:09:42Z</time>
      </trkpt>
      <trkpt lat="44.30031" lon="6.09673">
        <ele>1288.78</ele>
        <time>2024-05-11T08:09:59Z</time>
      </trkpt>
      <trkpt lat="44.30028" lon="6.09667">
        <ele>1289.75</ele>
        <time>2024-05-11T08:10:14Z</time>
      </trkpt>
      <trkpt lat="44.30029" lon="6.09666">
        <ele>1290.23</ele>
        <time>2024-05-11T08:10:39Z</time>
      </trkpt>
      <trkpt lat="44.30028" lon="6.09665">
        <ele>1290.23</ele>
        <time>2024-05-11T08:11:03Z</time>
      </trkpt>
      <trkpt lat="44.30028" lon="6.09664">
        <ele>1290.23</ele>
        <time>2024-05-11T08:11:40Z</time>
      </trkpt>
      <trkpt lat="44.30028" lon="6.09651">
        <ele>1288.3</ele>
        <time>2024-05-11T08:11:50Z</time>
      </trkpt>
      <trkpt lat="44.30035" lon="6.09642">
        <ele>1285.9</ele>
        <time>2024-05-11T08:12:01Z</time>
      </trkpt>
      <trkpt lat="44.3005" lon="6.09633">
        <ele>1285.42</ele>
        <time>2024-05-11T08:12:16Z</time>
      </trkpt>
      <trkpt lat="44.30049" lon="6.09631">
        <ele>1284.94</ele>
        <time>2024-05-11T08:12:25Z</time>
      </trkpt>
      <trkpt lat="44.30048" lon="6.09624">
        <ele>1283.5</ele>
        <time>2024-05-11T08:12:39Z</time>
      </trkpt>
      <trkpt lat="44.30054" lon="6.09621">
        <ele>1280.61</ele>
        <time>2024-05-11T08:12:53Z</time>
      </trkpt>
      <trkpt lat="44.30054" lon="6.0961">
        <ele>1282.54</ele>
        <time>2024-05-11T08:13:03Z</time>
      </trkpt>
      <trkpt lat="44.30056" lon="6.096">
        <ele>1283.98</ele>
        <time>2024-05-11T08:13:16Z</time>
      </trkpt>
      <trkpt lat="44.3006" lon="6.09591">
        <ele>1284.94</ele>
        <time>2024-05-11T08:13:28Z</time>
      </trkpt>
      <trkpt lat="44.30063" lon="6.09579">
        <ele>1286.86</ele>
        <time>2024-05-11T08:13:40Z</time>
      </trkpt>
      <trkpt lat="44.30068" lon="6.09564">
        <ele>1288.78</ele>
        <time>2024-05-11T08:13:56Z</time>
      </trkpt>
      <trkpt lat="44.30074" lon="6.09551">
        <ele>1290.71</ele>
        <time>2024-05-11T08:14:10Z</time>
      </trkpt>
      <trkpt lat="44.30081" lon="6.0954">
        <ele>1292.63</ele>
        <time>2024-05-11T08:14:23Z</time>
      </trkpt>
      <trkpt lat="44.30092" lon="6.0953">
        <ele>1294.07</ele>
        <time>2024-05-11T08:14:41Z</time>
      </trkpt>
      <trkpt lat="44.301" lon="6.09525">
        <ele>1295.03</ele>
        <time>2024-05-11T08:14:54Z</time>
      </trkpt>
      <trkpt lat="44.30108" lon="6.09516">
        <ele>1296.48</ele>
        <time>2024-05-11T08:15:07Z</time>
      </trkpt>
      <trkpt lat="44.30116" lon="6.09502">
        <ele>1297.92</ele>
        <time>2024-05-11T08:15:22Z</time>
      </trkpt>
      <trkpt lat="44.30126" lon="6.0949">
        <ele>1298.88</ele>
        <time>2024-05-11T08:15:36Z</time>
      </trkpt>
      <trkpt lat="44.30129" lon="6.09488">
        <ele>1299.36</ele>
        <time>2024-05-11T08:15:41Z</time>
      </trkpt>
      <trkpt lat="44.30141" lon="6.09479">
        <ele>1300.32</ele>
        <time>2024-05-11T08:15:56Z</time>
      </trkpt>
      <trkpt lat="44.30151" lon="6.09469">
        <ele>1301.28</ele>
        <time>2024-05-11T08:16:10Z</time>
      </trkpt>
      <trkpt lat="44.3016" lon="6.09456">
        <ele>1301.76</ele>
        <time>2024-05-11T08:16:24Z</time>
      </trkpt>
      <trkpt lat="44.30161" lon="6.09454">
        <ele>1301.76</ele>
        <time>2024-05-11T08:16:26Z</time>
      </trkpt>
      <trkpt lat="44.30165" lon="6.0945">
        <ele>1301.76</ele>
        <time>2024-05-11T08:16:30Z</time>
      </trkpt>
      <trkpt lat="44.3017" lon="6.09434">
        <ele>1302.24</ele>
        <time>2024-05-11T08:16:44Z</time>
      </trkpt>
      <trkpt lat="44.3017" lon="6.09429">
        <ele>1302.24</ele>
        <time>2024-05-11T08:16:57Z</time>
      </trkpt>
      <trkpt lat="44.30164" lon="6.09423">
        <ele>1303.69</ele>
        <time>2024-05-11T08:17:13Z</time>
      </trkpt>
      <trkpt lat="44.30163" lon="6.09422">
        <ele>1303.69</ele>
        <time>2024-05-11T08:17:14Z</time>
      </trkpt>
      <trkpt lat="44.30156" lon="6.09421">
        <ele>1304.65</ele>
        <time>2024-05-11T08:17:27Z</time>
      </trkpt>
      <trkpt lat="44.30148" lon="6.0942">
        <ele>1305.61</ele>
        <time>2024-05-11T08:17:39Z</time>
      </trkpt>
      <trkpt lat="44.30136" lon="6.09425">
        <ele>1308.01</ele>
        <time>2024-05-11T08:17:54Z</time>
      </trkpt>
      <trkpt lat="44.30127" lon="6.09421">
        <ele>1309.93</ele>
        <time>2024-05-11T08:18:06Z</time>
      </trkpt>
      <trkpt lat="44.30125" lon="6.09422">
        <ele>1310.41</ele>
        <time>2024-05-11T08:18:09Z</time>
      </trkpt>
      <trkpt lat="44.30116" lon="6.09423">
        <ele>1311.38</ele>
        <time>2024-05-11T08:18:21Z</time>
      </trkpt>
      <trkpt lat="44.30103" lon="6.09424">
        <ele>1313.3</ele>
        <time>2024-05-11T08:18:36Z</time>
      </trkpt>
      <trkpt lat="44.30103" lon="6.09422">
        <ele>1314.26</ele>
        <time>2024-05-11T08:18:49Z</time>
      </trkpt>
      <trkpt lat="44.30106" lon="6.09419">
        <ele>1314.26</ele>
        <time>2024-05-11T08:18:53Z</time>
      </trkpt>
      <trkpt lat="44.3011" lon="6.09414">
        <ele>1312.82</ele>
        <time>2024-05-11T08:19:00Z</time>
      </trkpt>
      <trkpt lat="44.30111" lon="6.09413">
        <ele>1312.82</ele>
        <time>2024-05-11T08:19:01Z</time>
      </trkpt>
      <trkpt lat="44.30112" lon="6.09409">
        <ele>1313.3</ele>
        <time>2024-05-11T08:19:05Z</time>
      </trkpt>
      <trkpt lat="44.30118" lon="6.09397">
        <ele>1314.74</ele>
        <time>2024-05-11T08:19:20Z</time>
      </trkpt>
      <trkpt lat="44.3012" lon="6.09385">
        <ele>1315.7</ele>
        <time>2024-05-11T08:19:34Z</time>
      </trkpt>
      <trkpt lat="44.30118" lon="6.09378">
        <ele>1318.1</ele>
        <time>2024-05-11T08:19:48Z</time>
      </trkpt>
      <trkpt lat="44.30118" lon="6.09364">
        <ele>1321.47</ele>
        <time>2024-05-11T08:20:04Z</time>
      </trkpt>
      <trkpt lat="44.30116" lon="6.09359">
        <ele>1323.87</ele>
        <time>2024-05-11T08:20:17Z</time>
      </trkpt>
      <trkpt lat="44.30113" lon="6.09351">
        <ele>1325.31</ele>
        <time>2024-05-11T08:20:31Z</time>
      </trkpt>
      <trkpt lat="44.30107" lon="6.09346">
        <ele>1328.2</ele>
        <time>2024-05-11T08:20:46Z</time>
      </trkpt>
      <trkpt lat="44.30104" lon="6.09338">
        <ele>1331.08</ele>
        <time>2024-05-11T08:21:02Z</time>
      </trkpt>
      <trkpt lat="44.30099" lon="6.0933">
        <ele>1333.97</ele>
        <time>2024-05-11T08:21:21Z</time>
      </trkpt>
      <trkpt lat="44.30094" lon="6.09312">
        <ele>1336.85</ele>
        <time>2024-05-11T08:21:37Z</time>
      </trkpt>
      <trkpt lat="44.30092" lon="6.09307">
        <ele>1338.29</ele>
        <time>2024-05-11T08:21:53Z</time>
      </trkpt>
      <trkpt lat="44.3009" lon="6.09301">
        <ele>1339.73</ele>
        <time>2024-05-11T08:22:09Z</time>
      </trkpt>
      <trkpt lat="44.30089" lon="6.09289">
        <ele>1343.1</ele>
        <time>2024-05-11T08:22:27Z</time>
      </trkpt>
      <trkpt lat="44.30091" lon="6.09278">
        <ele>1345.5</ele>
        <time>2024-05-11T08:22:43Z</time>
      </trkpt>
      <trkpt lat="44.3009" lon="6.0927">
        <ele>1348.39</ele>
        <time>2024-05-11T08:22:56Z</time>
      </trkpt>
      <trkpt lat="44.30094" lon="6.09258">
        <ele>1350.31</ele>
        <time>2024-05-11T08:23:12Z</time>
      </trkpt>
      <trkpt lat="44.301" lon="6.09248">
        <ele>1353.19</ele>
        <time>2024-05-11T08:23:28Z</time>
      </trkpt>
      <trkpt lat="44.30108" lon="6.09244">
        <ele>1354.15</ele>
        <time>2024-05-11T08:23:41Z</time>
      </trkpt>
      <trkpt lat="44.30108" lon="6.09243">
        <ele>1354.15</ele>
        <time>2024-05-11T08:23:42Z</time>
      </trkpt>
      <trkpt lat="44.30116" lon="6.09233">
        <ele>1355.6</ele>
        <time>2024-05-11T08:23:57Z</time>
      </trkpt>
      <trkpt lat="44.30121" lon="6.09222">
        <ele>1357.52</ele>
        <time>2024-05-11T08:24:12Z</time>
      </trkpt>
      <trkpt lat="44.30117" lon="6.09218">
        <ele>1358.96</ele>
        <time>2024-05-11T08:24:21Z</time>
      </trkpt>
      <trkpt lat="44.30107" lon="6.09213">
        <ele>1361.36</ele>
        <time>2024-05-11T08:24:38Z</time>
      </trkpt>
      <trkpt lat="44.30104" lon="6.09204">
        <ele>1364.25</ele>
        <time>2024-05-11T08:24:52Z</time>
      </trkpt>
      <trkpt lat="44.30099" lon="6.09198">
        <ele>1366.65</ele>
        <time>2024-05-11T08:25:09Z</time>
      </trkpt>
      <trkpt lat="44.30092" lon="6.0919">
        <ele>1369.05</ele>
        <time>2024-05-11T08:25:26Z</time>
      </trkpt>
      <trkpt lat="44.30086" lon="6.09184">
        <ele>1371.94</ele>
        <time>2024-05-11T08:25:42Z</time>
      </trkpt>
      <trkpt lat="44.30079" lon="6.09176">
        <ele>1373.86</ele>
        <time>2024-05-11T08:25:57Z</time>
      </trkpt>
      <trkpt lat="44.30076" lon="6.09167">
        <ele>1376.75</ele>
        <time>2024-05-11T08:26:14Z</time>
      </trkpt>
      <trkpt lat="44.30072" lon="6.09153">
        <ele>1379.63</ele>
        <time>2024-05-11T08:26:30Z</time>
      </trkpt>
      <trkpt lat="44.30071" lon="6.09149">
        <ele>1382.03</ele>
        <time>2024-05-11T08:26:44Z</time>
      </trkpt>
      <trkpt lat="44.30069" lon="6.09137">
        <ele>1384.92</ele>
        <time>2024-05-11T08:27:00Z</time>
      </trkpt>
      <trkpt lat="44.30066" lon="6.09127">
        <ele>1388.28</ele>
        <time>2024-05-11T08:27:19Z</time>
      </trkpt>
      <trkpt lat="44.30063" lon="6.09118">
        <ele>1390.68</ele>
        <time>2024-05-11T08:27:36Z</time>
      </trkpt>
      <trkpt lat="44.30063" lon="6.09107">
        <ele>1393.09</ele>
        <time>2024-05-11T08:27:51Z</time>
      </trkpt>
      <trkpt lat="44.30063" lon="6.09104">
        <ele>1394.05</ele>
        <time>2024-05-11T08:28:05Z</time>
      </trkpt>
      <trkpt lat="44.3006" lon="6.09101">
        <ele>1395.49</ele>
        <time>2024-05-11T08:28:18Z</time>
      </trkpt>
      <trkpt lat="44.30052" lon="6.09093">
        <ele>1397.89</ele>
        <time>2024-05-11T08:28:34Z</time>
      </trkpt>
      <trkpt lat="44.30047" lon="6.09081">
        <ele>1400.3</ele>
        <time>2024-05-11T08:28:49Z</time>
      </trkpt>
      <trkpt lat="44.30043" lon="6.09078">
        <ele>1401.26</ele>
        <time>2024-05-11T08:28:59Z</time>
      </trkpt>
      <trkpt lat="44.30032" lon="6.09071">
        <ele>1402.7</ele>
        <time>2024-05-11T08:29:15Z</time>
      </trkpt>
      <trkpt lat="44.3002" lon="6.09066">
        <ele>1403.66</ele>
        <time>2024-05-11T08:29:29Z</time>
      </trkpt>
      <trkpt lat="44.30015" lon="6.09062">
        <ele>1406.55</ele>
        <time>2024-05-11T08:29:44Z</time>
      </trkpt>
      <trkpt lat="44.30018" lon="6.0905">
        <ele>1407.03</ele>
        <time>2024-05-11T08:29:56Z</time>
      </trkpt>
      <trkpt lat="44.30024" lon="6.0904">
        <ele>1406.55</ele>
        <time>2024-05-11T08:30:09Z</time>
      </trkpt>
      <trkpt lat="44.30029" lon="6.09033">
        <ele>1407.03</ele>
        <time>2024-05-11T08:30:22Z</time>
      </trkpt>
      <trkpt lat="44.30035" lon="6.09019">
        <ele>1408.47</ele>
        <time>2024-05-11T08:30:36Z</time>
      </trkpt>
      <trkpt lat="44.3004" lon="6.09008">
        <ele>1409.91</ele>
        <time>2024-05-11T08:30:49Z</time>
      </trkpt>
      <trkpt lat="44.30042" lon="6.08994">
        <ele>1412.31</ele>
        <time>2024-05-11T08:31:04Z</time>
      </trkpt>
      <trkpt lat="44.30047" lon="6.08981">
        <ele>1414.24</ele>
        <time>2024-05-11T08:31:17Z</time>
      </trkpt>
      <trkpt lat="44.30051" lon="6.08969">
        <ele>1416.16</ele>
        <time>2024-05-11T08:31:32Z</time>
      </trkpt>
      <trkpt lat="44.30044" lon="6.08964">
        <ele>1418.56</ele>
        <time>2024-05-11T08:31:47Z</time>
      </trkpt>
      <trkpt lat="44.30036" lon="6.08959">
        <ele>1421.93</ele>
        <time>2024-05-11T08:32:03Z</time>
      </trkpt>
      <trkpt lat="44.30026" lon="6.08957">
        <ele>1424.81</ele>
        <time>2024-05-11T08:32:19Z</time>
      </trkpt>
      <trkpt lat="44.30021" lon="6.08957">
        <ele>1425.77</ele>
        <time>2024-05-11T08:32:28Z</time>
      </trkpt>
      <trkpt lat="44.3001" lon="6.08959">
        <ele>1428.66</ele>
        <time>2024-05-11T08:32:44Z</time>
      </trkpt>
      <trkpt lat="44.30001" lon="6.0897">
        <ele>1429.62</ele>
        <time>2024-05-11T08:33:01Z</time>
      </trkpt>
      <trkpt lat="44.29996" lon="6.08974">
        <ele>1430.58</ele>
        <time>2024-05-11T08:38:21Z</time>
      </trkpt>
      <trkpt lat="44.29992" lon="6.08975">
        <ele>1432.02</ele>
        <time>2024-05-11T08:38:25Z</time>
      </trkpt>
      <trkpt lat="44.29987" lon="6.08981">
        <ele>1432.98</ele>
        <time>2024-05-11T08:38:33Z</time>
      </trkpt>
      <trkpt lat="44.29978" lon="6.0899">
        <ele>1434.91</ele>
        <time>2024-05-11T08:38:48Z</time>
      </trkpt>
      <trkpt lat="44.29968" lon="6.08997">
        <ele>1437.79</ele>
        <time>2024-05-11T08:39:03Z</time>
      </trkpt>
      <trkpt lat="44.29959" lon="6.09008">
        <ele>1439.71</ele>
        <time>2024-05-11T08:39:18Z</time>
      </trkpt>
      <trkpt lat="44.29947" lon="6.09015">
        <ele>1443.56</ele>
        <time>2024-05-11T08:45:31Z</time>
      </trkpt>
      <trkpt lat="44.29937" lon="6.09014">
        <ele>1443.08</ele>
        <time>2024-05-11T08:45:42Z</time>
      </trkpt>
      <trkpt lat="44.2993" lon="6.09022">
        <ele>1444.52</ele>
        <time>2024-05-11T08:45:59Z</time>
      </trkpt>
      <trkpt lat="44.29925" lon="6.09028">
        <ele>1445</ele>
        <time>2024-05-11T08:46:13Z</time>
      </trkpt>
      <trkpt lat="44.2992" lon="6.09037">
        <ele>1447.4</ele>
        <time>2024-05-11T08:46:31Z</time>
      </trkpt>
      <trkpt lat="44.29923" lon="6.09048">
        <ele>1449.81</ele>
        <time>2024-05-11T08:46:46Z</time>
      </trkpt>
      <trkpt lat="44.29921" lon="6.09054">
        <ele>1452.21</ele>
        <time>2024-05-11T08:46:59Z</time>
      </trkpt>
      <trkpt lat="44.29921" lon="6.09061">
        <ele>1454.61</ele>
        <time>2024-05-11T08:47:40Z</time>
      </trkpt>
      <trkpt lat="44.29921" lon="6.09062">
        <ele>1454.61</ele>
        <time>2024-05-11T08:48:06Z</time>
      </trkpt>
      <trkpt lat="44.29914" lon="6.09065">
        <ele>1454.61</ele>
        <time>2024-05-11T08:48:24Z</time>
      </trkpt>
      <trkpt lat="44.29914" lon="6.09066">
        <ele>1453.17</ele>
        <time>2024-05-11T08:48:29Z</time>
      </trkpt>
      <trkpt lat="44.29913" lon="6.09064">
        <ele>1454.61</ele>
        <time>2024-05-11T08:48:32Z</time>
      </trkpt>
      <trkpt lat="44.29908" lon="6.09055">
        <ele>1456.53</ele>
        <time>2024-05-11T08:48:43Z</time>
      </trkpt>
      <trkpt lat="44.29908" lon="6.09053">
        <ele>1456.53</ele>
        <time>2024-05-11T08:48:45Z</time>
      </trkpt>
      <trkpt lat="44.299" lon="6.09046">
        <ele>1458.94</ele>
        <time>2024-05-11T08:48:57Z</time>
      </trkpt>
      <trkpt lat="44.29886" lon="6.0904">
        <ele>1459.9</ele>
        <time>2024-05-11T08:49:14Z</time>
      </trkpt>
      <trkpt lat="44.29875" lon="6.09036">
        <ele>1461.34</ele>
        <time>2024-05-11T08:49:29Z</time>
      </trkpt>
      <trkpt lat="44.29867" lon="6.09032">
        <ele>1463.26</ele>
        <time>2024-05-11T08:49:42Z</time>
      </trkpt>
      <trkpt lat="44.29859" lon="6.09029">
        <ele>1463.74</ele>
        <time>2024-05-11T08:49:58Z</time>
      </trkpt>
      <trkpt lat="44.29848" lon="6.09023">
        <ele>1465.19</ele>
        <time>2024-05-11T08:50:12Z</time>
      </trkpt>
      <trkpt lat="44.29834" lon="6.09016">
        <ele>1467.59</ele>
        <time>2024-05-11T08:50:28Z</time>
      </trkpt>
      <trkpt lat="44.29828" lon="6.09015">
        <ele>1468.07</ele>
        <time>2024-05-11T08:50:35Z</time>
      </trkpt>
      <trkpt lat="44.29811" lon="6.09014">
        <ele>1468.55</ele>
        <time>2024-05-11T08:50:52Z</time>
      </trkpt>
      <trkpt lat="44.29804" lon="6.09012">
        <ele>1469.03</ele>
        <time>2024-05-11T08:51:00Z</time>
      </trkpt>
      <trkpt lat="44.2979" lon="6.09011">
        <ele>1469.03</ele>
        <time>2024-05-11T08:51:15Z</time>
      </trkpt>
      <trkpt lat="44.29775" lon="6.09007">
        <ele>1469.51</ele>
        <time>2024-05-11T08:51:30Z</time>
      </trkpt>
      <trkpt lat="44.29759" lon="6.09011">
        <ele>1468.07</ele>
        <time>2024-05-11T08:51:46Z</time>
      </trkpt>
      <trkpt lat="44.29754" lon="6.09011">
        <ele>1467.59</ele>
        <time>2024-05-11T08:51:52Z</time>
      </trkpt>
      <trkpt lat="44.2975" lon="6.09006">
        <ele>1467.59</ele>
        <time>2024-05-11T08:51:57Z</time>
      </trkpt>
      <trkpt lat="44.29731" lon="6.08997">
        <ele>1467.59</ele>
        <time>2024-05-11T08:52:17Z</time>
      </trkpt>
      <trkpt lat="44.29711" lon="6.08997">
        <ele>1466.15</ele>
        <time>2024-05-11T08:52:35Z</time>
      </trkpt>
      <trkpt lat="44.29699" lon="6.08991">
        <ele>1467.59</ele>
        <time>2024-05-11T08:52:50Z</time>
      </trkpt>
      <trkpt lat="44.29693" lon="6.08989">
        <ele>1469.03</ele>
        <time>2024-05-11T08:52:58Z</time>
      </trkpt>
      <trkpt lat="44.2968" lon="6.08986">
        <ele>1469.03</ele>
        <time>2024-05-11T08:53:12Z</time>
      </trkpt>
      <trkpt lat="44.29665" lon="6.08986">
        <ele>1469.51</ele>
        <time>2024-05-11T08:53:28Z</time>
      </trkpt>
      <trkpt lat="44.29658" lon="6.08984">
        <ele>1470.95</ele>
        <time>2024-05-11T08:53:36Z</time>
      </trkpt>
      <trkpt lat="44.29654" lon="6.08985">
        <ele>1470.95</ele>
        <time>2024-05-11T08:53:41Z</time>
      </trkpt>
      <trkpt lat="44.29652" lon="6.08984">
        <ele>1471.44</ele>
        <time>2024-05-11T08:53:44Z</time>
      </trkpt>
      <trkpt lat="44.29649" lon="6.08981">
        <ele>1471.44</ele>
        <time>2024-05-11T08:53:48Z</time>
      </trkpt>
      <trkpt lat="44.29634" lon="6.08975">
        <ele>1472.88</ele>
        <time>2024-05-11T08:54:04Z</time>
      </trkpt>
      <trkpt lat="44.29621" lon="6.08969">
        <ele>1474.8</ele>
        <time>2024-05-11T08:54:20Z</time>
      </trkpt>
      <trkpt lat="44.29608" lon="6.08967">
        <ele>1474.8</ele>
        <time>2024-05-11T08:54:34Z</time>
      </trkpt>
      <trkpt lat="44.29594" lon="6.08961">
        <ele>1475.28</ele>
        <time>2024-05-11T08:54:50Z</time>
      </trkpt>
      <trkpt lat="44.29579" lon="6.08954">
        <ele>1476.24</ele>
        <time>2024-05-11T08:55:07Z</time>
      </trkpt>
      <trkpt lat="44.29578" lon="6.08954">
        <ele>1476.24</ele>
        <time>2024-05-11T08:55:08Z</time>
      </trkpt>
      <trkpt lat="44.2957" lon="6.08952">
        <ele>1476.72</ele>
        <time>2024-05-11T08:55:16Z</time>
      </trkpt>
      <trkpt lat="44.29562" lon="6.08944">
        <ele>1478.65</ele>
        <time>2024-05-11T08:55:28Z</time>
      </trkpt>
      <trkpt lat="44.29548" lon="6.08941">
        <ele>1480.57</ele>
        <time>2024-05-11T08:55:44Z</time>
      </trkpt>
      <trkpt lat="44.29535" lon="6.08942">
        <ele>1482.01</ele>
        <time>2024-05-11T08:55:58Z</time>
      </trkpt>
      <trkpt lat="44.2953" lon="6.0894">
        <ele>1482.49</ele>
        <time>2024-05-11T08:56:04Z</time>
      </trkpt>
      <trkpt lat="44.29517" lon="6.08934">
        <ele>1483.93</ele>
        <time>2024-05-11T08:56:19Z</time>
      </trkpt>
      <trkpt lat="44.29504" lon="6.08927">
        <ele>1484.89</ele>
        <time>2024-05-11T08:56:35Z</time>
      </trkpt>
      <trkpt lat="44.29502" lon="6.08926">
        <ele>1485.37</ele>
        <time>2024-05-11T08:56:37Z</time>
      </trkpt>
      <trkpt lat="44.29488" lon="6.08926">
        <ele>1486.34</ele>
        <time>2024-05-11T08:56:52Z</time>
      </trkpt>
      <trkpt lat="44.29478" lon="6.08924">
        <ele>1488.26</ele>
        <time>2024-05-11T08:57:05Z</time>
      </trkpt>
      <trkpt lat="44.29473" lon="6.08922">
        <ele>1489.22</ele>
        <time>2024-05-11T08:57:17Z</time>
      </trkpt>
      <trkpt lat="44.29467" lon="6.0892">
        <ele>1492.1</ele>
        <time>2024-05-11T08:59:27Z</time>
      </trkpt>
      <trkpt lat="44.29458" lon="6.08923">
        <ele>1492.58</ele>
        <time>2024-05-11T08:59:43Z</time>
      </trkpt>
      <trkpt lat="44.29452" lon="6.08923">
        <ele>1492.58</ele>
        <time>2024-05-11T08:59:56Z</time>
      </trkpt>
      <trkpt lat="44.29442" lon="6.08921">
        <ele>1494.99</ele>
        <time>2024-05-11T09:00:10Z</time>
      </trkpt>
      <trkpt lat="44.29433" lon="6.08919">
        <ele>1496.43</ele>
        <time>2024-05-11T09:00:25Z</time>
      </trkpt>
      <trkpt lat="44.29424" lon="6.08915">
        <ele>1497.87</ele>
        <time>2024-05-11T09:00:40Z</time>
      </trkpt>
      <trkpt lat="44.29414" lon="6.08916">
        <ele>1500.27</ele>
        <time>2024-05-11T09:00:56Z</time>
      </trkpt>
      <trkpt lat="44.29401" lon="6.08916">
        <ele>1502.68</ele>
        <time>2024-05-11T09:01:13Z</time>
      </trkpt>
      <trkpt lat="44.2939" lon="6.08918">
        <ele>1504.12</ele>
        <time>2024-05-11T09:01:29Z</time>
      </trkpt>
      <trkpt lat="44.29381" lon="6.08919">
        <ele>1506.04</ele>
        <time>2024-05-11T09:01:43Z</time>
      </trkpt>
      <trkpt lat="44.29372" lon="6.0892">
        <ele>1507.97</ele>
        <time>2024-05-11T09:01:57Z</time>
      </trkpt>
      <trkpt lat="44.29361" lon="6.08919">
        <ele>1510.85</ele>
        <time>2024-05-11T09:02:12Z</time>
      </trkpt>
      <trkpt lat="44.29352" lon="6.08916">
        <ele>1513.25</ele>
        <time>2024-05-11T09:02:28Z</time>
      </trkpt>
      <trkpt lat="44.2934" lon="6.08923">
        <ele>1513.73</ele>
        <time>2024-05-11T09:02:43Z</time>
      </trkpt>
      <trkpt lat="44.29335" lon="6.08925">
        <ele>1515.18</ele>
        <time>2024-05-11T09:02:49Z</time>
      </trkpt>
      <trkpt lat="44.29328" lon="6.0893">
        <ele>1515.66</ele>
        <time>2024-05-11T09:03:04Z</time>
      </trkpt>
      <trkpt lat="44.29321" lon="6.08935">
        <ele>1516.62</ele>
        <time>2024-05-11T09:03:27Z</time>
      </trkpt>
      <trkpt lat="44.29313" lon="6.08943">
        <ele>1515.18</ele>
        <time>2024-05-11T09:03:40Z</time>
      </trkpt>
      <trkpt lat="44.29312" lon="6.08944">
        <ele>1515.18</ele>
        <time>2024-05-11T09:03:41Z</time>
      </trkpt>
      <trkpt lat="44.29304" lon="6.0895">
        <ele>1516.62</ele>
        <time>2024-05-11T09:03:55Z</time>
      </trkpt>
      <trkpt lat="44.29294" lon="6.08955">
        <ele>1516.62</ele>
        <time>2024-05-11T09:04:08Z</time>
      </trkpt>
      <trkpt lat="44.29289" lon="6.08958">
        <ele>1517.1</ele>
        <time>2024-05-11T09:04:14Z</time>
      </trkpt>
      <trkpt lat="44.29283" lon="6.08966">
        <ele>1517.1</ele>
        <time>2024-05-11T09:04:23Z</time>
      </trkpt>
      <trkpt lat="44.2927" lon="6.08987">
        <ele>1514.21</ele>
        <time>2024-05-11T09:04:42Z</time>
      </trkpt>
      <trkpt lat="44.29262" lon="6.08991">
        <ele>1514.69</ele>
        <time>2024-05-11T09:04:54Z</time>
      </trkpt>
      <trkpt lat="44.29258" lon="6.08992">
        <ele>1515.66</ele>
        <time>2024-05-11T09:04:59Z</time>
      </trkpt>
      <trkpt lat="44.29247" lon="6.08996">
        <ele>1518.06</ele>
        <time>2024-05-11T09:05:14Z</time>
      </trkpt>
      <trkpt lat="44.29242" lon="6.08997">
        <ele>1519.02</ele>
        <time>2024-05-11T09:05:20Z</time>
      </trkpt>
      <trkpt lat="44.2923" lon="6.09004">
        <ele>1519.98</ele>
        <time>2024-05-11T09:05:35Z</time>
      </trkpt>
      <trkpt lat="44.29221" lon="6.09016">
        <ele>1523.35</ele>
        <time>2024-05-11T09:05:53Z</time>
      </trkpt>
      <trkpt lat="44.29215" lon="6.09024">
        <ele>1526.23</ele>
        <time>2024-05-11T09:06:09Z</time>
      </trkpt>
      <trkpt lat="44.29206" lon="6.09029">
        <ele>1528.15</ele>
        <time>2024-05-11T09:06:25Z</time>
      </trkpt>
      <trkpt lat="44.29197" lon="6.0903">
        <ele>1531.52</ele>
        <time>2024-05-11T09:06:42Z</time>
      </trkpt>
      <trkpt lat="44.29188" lon="6.09032">
        <ele>1533.92</ele>
        <time>2024-05-11T09:06:58Z</time>
      </trkpt>
      <trkpt lat="44.29184" lon="6.09032">
        <ele>1534.88</ele>
        <time>2024-05-11T09:07:03Z</time>
      </trkpt>
      <trkpt lat="44.29172" lon="6.09034">
        <ele>1537.29</ele>
        <time>2024-05-11T09:07:20Z</time>
      </trkpt>
      <trkpt lat="44.29162" lon="6.09036">
        <ele>1540.17</ele>
        <time>2024-05-11T09:07:38Z</time>
      </trkpt>
      <trkpt lat="44.29154" lon="6.09038">
        <ele>1542.57</ele>
        <time>2024-05-11T09:07:54Z</time>
      </trkpt>
      <trkpt lat="44.29148" lon="6.09035">
        <ele>1544.98</ele>
        <time>2024-05-11T09:08:08Z</time>
      </trkpt>
      <trkpt lat="44.29138" lon="6.09036">
        <ele>1547.38</ele>
        <time>2024-05-11T09:08:24Z</time>
      </trkpt>
      <trkpt lat="44.29128" lon="6.09035">
        <ele>1550.26</ele>
        <time>2024-05-11T09:08:40Z</time>
      </trkpt>
      <trkpt lat="44.29118" lon="6.09033">
        <ele>1552.67</ele>
        <time>2024-05-11T09:08:55Z</time>
      </trkpt>
      <trkpt lat="44.29106" lon="6.09034">
        <ele>1553.63</ele>
        <time>2024-05-11T09:09:09Z</time>
      </trkpt>
      <trkpt lat="44.29092" lon="6.0903">
        <ele>1554.11</ele>
        <time>2024-05-11T09:09:25Z</time>
      </trkpt>
      <trkpt lat="44.29088" lon="6.09029">
        <ele>1554.11</ele>
        <time>2024-05-11T09:09:29Z</time>
      </trkpt>
      <trkpt lat="44.29074" lon="6.09033">
        <ele>1554.59</ele>
        <time>2024-05-11T09:09:45Z</time>
      </trkpt>
      <trkpt lat="44.29064" lon="6.09035">
        <ele>1556.51</ele>
        <time>2024-05-11T09:09:59Z</time>
      </trkpt>
      <trkpt lat="44.29055" lon="6.09038">
        <ele>1557.95</ele>
        <time>2024-05-11T09:10:09Z</time>
      </trkpt>
      <trkpt lat="44.2905" lon="6.09039">
        <ele>1558.92</ele>
        <time>2024-05-11T09:10:16Z</time>
      </trkpt>
      <trkpt lat="44.29037" lon="6.09044">
        <ele>1561.32</ele>
        <time>2024-05-11T09:10:35Z</time>
      </trkpt>
      <trkpt lat="44.29026" lon="6.09045">
        <ele>1563.72</ele>
        <time>2024-05-11T09:10:51Z</time>
      </trkpt>
      <trkpt lat="44.29021" lon="6.09044">
        <ele>1566.12</ele>
        <time>2024-05-11T09:11:10Z</time>
      </trkpt>
      <trkpt lat="44.29012" lon="6.09045">
        <ele>1569.01</ele>
        <time>2024-05-11T09:11:27Z</time>
      </trkpt>
      <trkpt lat="44.29004" lon="6.09047">
        <ele>1571.41</ele>
        <time>2024-05-11T09:11:41Z</time>
      </trkpt>
      <trkpt lat="44.28997" lon="6.09049">
        <ele>1573.82</ele>
        <time>2024-05-11T09:11:57Z</time>
      </trkpt>
      <trkpt lat="44.28989" lon="6.09047">
        <ele>1576.22</ele>
        <time>2024-05-11T09:12:13Z</time>
      </trkpt>
      <trkpt lat="44.28983" lon="6.09052">
        <ele>1578.14</ele>
        <time>2024-05-11T09:12:28Z</time>
      </trkpt>
      <trkpt lat="44.28983" lon="6.09051">
        <ele>1578.14</ele>
        <time>2024-05-11T09:12:45Z</time>
      </trkpt>
      <trkpt lat="44.28978" lon="6.0905">
        <ele>1581.03</ele>
        <time>2024-05-11T09:13:02Z</time>
      </trkpt>
      <trkpt lat="44.28971" lon="6.09054">
        <ele>1584.39</ele>
        <time>2024-05-11T09:13:20Z</time>
      </trkpt>
      <trkpt lat="44.28962" lon="6.09057">
        <ele>1586.79</ele>
        <time>2024-05-11T09:13:38Z</time>
      </trkpt>
      <trkpt lat="44.28953" lon="6.09057">
        <ele>1590.16</ele>
        <time>2024-05-11T09:13:55Z</time>
      </trkpt>
      <trkpt lat="44.28942" lon="6.09061">
        <ele>1592.56</ele>
        <time>2024-05-11T09:14:10Z</time>
      </trkpt>
      <trkpt lat="44.28933" lon="6.09062">
        <ele>1594.96</ele>
        <time>2024-05-11T09:14:27Z</time>
      </trkpt>
      <trkpt lat="44.28923" lon="6.09061">
        <ele>1597.85</ele>
        <time>2024-05-11T09:14:42Z</time>
      </trkpt>
      <trkpt lat="44.28915" lon="6.09059">
        <ele>1600.73</ele>
        <time>2024-05-11T09:15:00Z</time>
      </trkpt>
      <trkpt lat="44.28909" lon="6.09058">
        <ele>1603.62</ele>
        <time>2024-05-11T09:15:16Z</time>
      </trkpt>
      <trkpt lat="44.28901" lon="6.09052">
        <ele>1606.02</ele>
        <time>2024-05-11T09:15:32Z</time>
      </trkpt>
      <trkpt lat="44.28891" lon="6.0905">
        <ele>1608.42</ele>
        <time>2024-05-11T09:15:48Z</time>
      </trkpt>
      <trkpt lat="44.28883" lon="6.09055">
        <ele>1610.35</ele>
        <time>2024-05-11T09:16:03Z</time>
      </trkpt>
      <trkpt lat="44.28875" lon="6.09056">
        <ele>1613.23</ele>
        <time>2024-05-11T09:16:20Z</time>
      </trkpt>
      <trkpt lat="44.28866" lon="6.0906">
        <ele>1615.15</ele>
        <time>2024-05-11T09:16:35Z</time>
      </trkpt>
      <trkpt lat="44.28857" lon="6.09064">
        <ele>1616.59</ele>
        <time>2024-05-11T09:16:50Z</time>
      </trkpt>
      <trkpt lat="44.28847" lon="6.09071">
        <ele>1619</ele>
        <time>2024-05-11T09:17:06Z</time>
      </trkpt>
      <trkpt lat="44.28837" lon="6.09076">
        <ele>1622.36</ele>
        <time>2024-05-11T09:17:22Z</time>
      </trkpt>
      <trkpt lat="44.28828" lon="6.09082">
        <ele>1623.8</ele>
        <time>2024-05-11T09:17:36Z</time>
      </trkpt>
      <trkpt lat="44.28817" lon="6.09084">
        <ele>1625.25</ele>
        <time>2024-05-11T09:17:53Z</time>
      </trkpt>
      <trkpt lat="44.28805" lon="6.09092">
        <ele>1626.69</ele>
        <time>2024-05-11T09:18:11Z</time>
      </trkpt>
      <trkpt lat="44.28793" lon="6.09095">
        <ele>1629.57</ele>
        <time>2024-05-11T09:18:27Z</time>
      </trkpt>
      <trkpt lat="44.28783" lon="6.09092">
        <ele>1632.94</ele>
        <time>2024-05-11T09:18:44Z</time>
      </trkpt>
      <trkpt lat="44.28779" lon="6.09092">
        <ele>1633.9</ele>
        <time>2024-05-11T09:18:52Z</time>
      </trkpt>
      <trkpt lat="44.28767" lon="6.09094">
        <ele>1637.26</ele>
        <time>2024-05-11T09:19:09Z</time>
      </trkpt>
      <trkpt lat="44.28756" lon="6.09093">
        <ele>1638.7</ele>
        <time>2024-05-11T09:19:26Z</time>
      </trkpt>
      <trkpt lat="44.28745" lon="6.09094">
        <ele>1641.11</ele>
        <time>2024-05-11T09:19:42Z</time>
      </trkpt>
      <trkpt lat="44.28741" lon="6.09092">
        <ele>1643.51</ele>
        <time>2024-05-11T09:19:48Z</time>
      </trkpt>
      <trkpt lat="44.2873" lon="6.09088">
        <ele>1644.95</ele>
        <time>2024-05-11T09:20:05Z</time>
      </trkpt>
      <trkpt lat="44.28724" lon="6.09091">
        <ele>1646.4</ele>
        <time>2024-05-11T09:20:12Z</time>
      </trkpt>
      <trkpt lat="44.28713" lon="6.09098">
        <ele>1648.8</ele>
        <time>2024-05-11T09:20:29Z</time>
      </trkpt>
      <trkpt lat="44.28702" lon="6.09104">
        <ele>1650.24</ele>
        <time>2024-05-11T09:20:45Z</time>
      </trkpt>
      <trkpt lat="44.28691" lon="6.09111">
        <ele>1652.64</ele>
        <time>2024-05-11T09:21:00Z</time>
      </trkpt>
      <trkpt lat="44.28681" lon="6.09116">
        <ele>1654.09</ele>
        <time>2024-05-11T09:21:13Z</time>
      </trkpt>
      <trkpt lat="44.28671" lon="6.09123">
        <ele>1655.53</ele>
        <time>2024-05-11T09:21:28Z</time>
      </trkpt>
      <trkpt lat="44.28664" lon="6.09128">
        <ele>1657.45</ele>
        <time>2024-05-11T09:21:42Z</time>
      </trkpt>
      <trkpt lat="44.28656" lon="6.09134">
        <ele>1660.81</ele>
        <time>2024-05-11T09:21:57Z</time>
      </trkpt>
      <trkpt lat="44.28645" lon="6.09138">
        <ele>1664.18</ele>
        <time>2024-05-11T09:22:16Z</time>
      </trkpt>
      <trkpt lat="44.28637" lon="6.09143">
        <ele>1666.1</ele>
        <time>2024-05-11T09:22:34Z</time>
      </trkpt>
      <trkpt lat="44.28628" lon="6.09145">
        <ele>1668.99</ele>
        <time>2024-05-11T09:22:51Z</time>
      </trkpt>
      <trkpt lat="44.28622" lon="6.09149">
        <ele>1671.87</ele>
        <time>2024-05-11T09:23:06Z</time>
      </trkpt>
      <trkpt lat="44.28612" lon="6.09155">
        <ele>1674.75</ele>
        <time>2024-05-11T09:23:22Z</time>
      </trkpt>
      <trkpt lat="44.28609" lon="6.09158">
        <ele>1675.72</ele>
        <time>2024-05-11T09:23:30Z</time>
      </trkpt>
      <trkpt lat="44.28601" lon="6.09164">
        <ele>1677.64</ele>
        <time>2024-05-11T09:23:45Z</time>
      </trkpt>
      <trkpt lat="44.28593" lon="6.09166">
        <ele>1680.04</ele>
        <time>2024-05-11T09:24:01Z</time>
      </trkpt>
      <trkpt lat="44.28586" lon="6.09167">
        <ele>1682.93</ele>
        <time>2024-05-11T09:24:14Z</time>
      </trkpt>
      <trkpt lat="44.28575" lon="6.0917">
        <ele>1684.37</ele>
        <time>2024-05-11T09:24:28Z</time>
      </trkpt>
      <trkpt lat="44.28566" lon="6.09174">
        <ele>1687.73</ele>
        <time>2024-05-11T09:24:44Z</time>
      </trkpt>
      <trkpt lat="44.28555" lon="6.09177">
        <ele>1689.65</ele>
        <time>2024-05-11T09:24:59Z</time>
      </trkpt>
      <trkpt lat="44.28549" lon="6.09178">
        <ele>1692.54</ele>
        <time>2024-05-11T09:25:12Z</time>
      </trkpt>
      <trkpt lat="44.2854" lon="6.09181">
        <ele>1693.98</ele>
        <time>2024-05-11T09:25:26Z</time>
      </trkpt>
      <trkpt lat="44.28539" lon="6.09181">
        <ele>1694.46</ele>
        <time>2024-05-11T09:25:28Z</time>
      </trkpt>
      <trkpt lat="44.2853" lon="6.09177">
        <ele>1695.9</ele>
        <time>2024-05-11T09:25:43Z</time>
      </trkpt>
      <trkpt lat="44.28519" lon="6.09176">
        <ele>1697.83</ele>
        <time>2024-05-11T09:25:58Z</time>
      </trkpt>
      <trkpt lat="44.28515" lon="6.09178">
        <ele>1698.31</ele>
        <time>2024-05-11T09:26:03Z</time>
      </trkpt>
      <trkpt lat="44.28506" lon="6.09181">
        <ele>1698.31</ele>
        <time>2024-05-11T09:26:14Z</time>
      </trkpt>
      <trkpt lat="44.28498" lon="6.0918">
        <ele>1700.23</ele>
        <time>2024-05-11T09:26:23Z</time>
      </trkpt>
      <trkpt lat="44.28486" lon="6.0919">
        <ele>1700.71</ele>
        <time>2024-05-11T09:26:38Z</time>
      </trkpt>
      <trkpt lat="44.28476" lon="6.09197">
        <ele>1701.19</ele>
        <time>2024-05-11T09:26:51Z</time>
      </trkpt>
      <trkpt lat="44.28467" lon="6.09207">
        <ele>1702.15</ele>
        <time>2024-05-11T09:27:05Z</time>
      </trkpt>
      <trkpt lat="44.28457" lon="6.09217">
        <ele>1705.52</ele>
        <time>2024-05-11T09:27:22Z</time>
      </trkpt>
      <trkpt lat="44.28451" lon="6.09221">
        <ele>1706</ele>
        <time>2024-05-11T09:27:36Z</time>
      </trkpt>
      <trkpt lat="44.28452" lon="6.09221">
        <ele>1706.96</ele>
        <time>2024-05-11T09:28:10Z</time>
      </trkpt>
      <trkpt lat="44.28451" lon="6.09223">
        <ele>1707.44</ele>
        <time>2024-05-11T09:28:36Z</time>
      </trkpt>
      <trkpt lat="44.28449" lon="6.09228">
        <ele>1706</ele>
        <time>2024-05-11T09:28:42Z</time>
      </trkpt>
      <trkpt lat="44.28447" lon="6.09231">
        <ele>1706</ele>
        <time>2024-05-11T09:28:48Z</time>
      </trkpt>
      <trkpt lat="44.28445" lon="6.09233">
        <ele>1707.44</ele>
        <time>2024-05-11T09:28:51Z</time>
      </trkpt>
      <trkpt lat="44.28432" lon="6.09242">
        <ele>1708.88</ele>
        <time>2024-05-11T09:29:06Z</time>
      </trkpt>
      <trkpt lat="44.28424" lon="6.09249">
        <ele>1709.84</ele>
        <time>2024-05-11T09:29:19Z</time>
      </trkpt>
      <trkpt lat="44.28417" lon="6.09255">
        <ele>1711.76</ele>
        <time>2024-05-11T09:29:32Z</time>
      </trkpt>
      <trkpt lat="44.2841" lon="6.09261">
        <ele>1712.73</ele>
        <time>2024-05-11T09:29:45Z</time>
      </trkpt>
      <trkpt lat="44.28405" lon="6.09266">
        <ele>1714.17</ele>
        <time>2024-05-11T09:29:55Z</time>
      </trkpt>
      <trkpt lat="44.28397" lon="6.09269">
        <ele>1715.13</ele>
        <time>2024-05-11T09:30:08Z</time>
      </trkpt>
      <trkpt lat="44.28395" lon="6.09272">
        <ele>1714.17</ele>
        <time>2024-05-11T09:30:12Z</time>
      </trkpt>
      <trkpt lat="44.28388" lon="6.09283">
        <ele>1714.17</ele>
        <time>2024-05-11T09:30:27Z</time>
      </trkpt>
      <trkpt lat="44.28388" lon="6.09285">
        <ele>1715.13</ele>
        <time>2024-05-11T09:30:30Z</time>
      </trkpt>
      <trkpt lat="44.28382" lon="6.09298">
        <ele>1717.53</ele>
        <time>2024-05-11T09:30:47Z</time>
      </trkpt>
      <trkpt lat="44.28379" lon="6.09305">
        <ele>1720.42</ele>
        <time>2024-05-11T09:30:59Z</time>
      </trkpt>
      <trkpt lat="44.28371" lon="6.09315">
        <ele>1720.9</ele>
        <time>2024-05-11T09:31:14Z</time>
      </trkpt>
      <trkpt lat="44.28367" lon="6.0932">
        <ele>1721.38</ele>
        <time>2024-05-11T09:31:30Z</time>
      </trkpt>
      <trkpt lat="44.28363" lon="6.09325">
        <ele>1722.34</ele>
        <time>2024-05-11T09:31:37Z</time>
      </trkpt>
      <trkpt lat="44.28354" lon="6.09334">
        <ele>1723.3</ele>
        <time>2024-05-11T09:31:52Z</time>
      </trkpt>
      <trkpt lat="44.28348" lon="6.0934">
        <ele>1724.26</ele>
        <time>2024-05-11T09:32:07Z</time>
      </trkpt>
      <trkpt lat="44.28347" lon="6.0934">
        <ele>1724.26</ele>
        <time>2024-05-11T09:32:23Z</time>
      </trkpt>
      <trkpt lat="44.28346" lon="6.09343">
        <ele>1724.74</ele>
        <time>2024-05-11T09:37:57Z</time>
      </trkpt>
      <trkpt lat="44.2834" lon="6.09353">
        <ele>1724.74</ele>
        <time>2024-05-11T09:38:10Z</time>
      </trkpt>
      <trkpt lat="44.28332" lon="6.09369">
        <ele>1725.22</ele>
        <time>2024-05-11T09:38:27Z</time>
      </trkpt>
      <trkpt lat="44.28323" lon="6.09381">
        <ele>1727.15</ele>
        <time>2024-05-11T09:38:41Z</time>
      </trkpt>
      <trkpt lat="44.28318" lon="6.09394">
        <ele>1725.7</ele>
        <time>2024-05-11T09:38:54Z</time>
      </trkpt>
      <trkpt lat="44.28309" lon="6.0941">
        <ele>1727.63</ele>
        <time>2024-05-11T09:39:08Z</time>
      </trkpt>
      <trkpt lat="44.28306" lon="6.09419">
        <ele>1726.67</ele>
        <time>2024-05-11T09:39:15Z</time>
      </trkpt>
      <trkpt lat="44.28296" lon="6.09432">
        <ele>1726.67</ele>
        <time>2024-05-11T09:39:29Z</time>
      </trkpt>
      <trkpt lat="44.28288" lon="6.09446">
        <ele>1726.67</ele>
        <time>2024-05-11T09:39:44Z</time>
      </trkpt>
      <trkpt lat="44.28286" lon="6.09449">
        <ele>1725.7</ele>
        <time>2024-05-11T09:40:02Z</time>
      </trkpt>
      <trkpt lat="44.28286" lon="6.09449">
        <ele>1726.67</ele>
        <time>2024-05-11T09:40:04Z</time>
      </trkpt>
      <trkpt lat="44.28286" lon="6.0945">
        <ele>1725.22</ele>
        <time>2024-05-11T09:40:15Z</time>
      </trkpt>
      <trkpt lat="44.28278" lon="6.09461">
        <ele>1724.74</ele>
        <time>2024-05-11T09:40:31Z</time>
      </trkpt>
      <trkpt lat="44.28269" lon="6.09474">
        <ele>1727.15</ele>
        <time>2024-05-11T09:40:43Z</time>
      </trkpt>
      <trkpt lat="44.28262" lon="6.09487">
        <ele>1728.59</ele>
        <time>2024-05-11T09:40:54Z</time>
      </trkpt>
      <trkpt lat="44.28261" lon="6.09489">
        <ele>1727.15</ele>
        <time>2024-05-11T09:40:56Z</time>
      </trkpt>
      <trkpt lat="44.2825" lon="6.09506">
        <ele>1728.11</ele>
        <time>2024-05-11T09:41:11Z</time>
      </trkpt>
      <trkpt lat="44.28248" lon="6.0951">
        <ele>1726.67</ele>
        <time>2024-05-11T09:41:14Z</time>
      </trkpt>
      <trkpt lat="44.28236" lon="6.09529">
        <ele>1728.11</ele>
        <time>2024-05-11T09:41:31Z</time>
      </trkpt>
      <trkpt lat="44.28222" lon="6.09546">
        <ele>1728.59</ele>
        <time>2024-05-11T09:41:47Z</time>
      </trkpt>
      <trkpt lat="44.28214" lon="6.09558">
        <ele>1730.03</ele>
        <time>2024-05-11T09:41:57Z</time>
      </trkpt>
      <trkpt lat="44.28202" lon="6.09571">
        <ele>1731.47</ele>
        <time>2024-05-11T09:42:11Z</time>
      </trkpt>
      <trkpt lat="44.28189" lon="6.09588">
        <ele>1731.47</ele>
        <time>2024-05-11T09:42:27Z</time>
      </trkpt>
      <trkpt lat="44.28176" lon="6.09607">
        <ele>1731.47</ele>
        <time>2024-05-11T09:42:44Z</time>
      </trkpt>
      <trkpt lat="44.28163" lon="6.09628">
        <ele>1731.47</ele>
        <time>2024-05-11T09:43:02Z</time>
      </trkpt>
      <trkpt lat="44.28151" lon="6.09652">
        <ele>1733.88</ele>
        <time>2024-05-11T09:43:20Z</time>
      </trkpt>
      <trkpt lat="44.28141" lon="6.09668">
        <ele>1735.32</ele>
        <time>2024-05-11T09:43:34Z</time>
      </trkpt>
      <trkpt lat="44.28132" lon="6.09682">
        <ele>1736.76</ele>
        <time>2024-05-11T09:43:48Z</time>
      </trkpt>
      <trkpt lat="44.28131" lon="6.09683">
        <ele>1736.76</ele>
        <time>2024-05-11T09:43:49Z</time>
      </trkpt>
      <trkpt lat="44.2813" lon="6.09685">
        <ele>1736.76</ele>
        <time>2024-05-11T09:43:51Z</time>
      </trkpt>
      <trkpt lat="44.28121" lon="6.09702">
        <ele>1738.68</ele>
        <time>2024-05-11T09:44:07Z</time>
      </trkpt>
      <trkpt lat="44.28116" lon="6.09711">
        <ele>1742.05</ele>
        <time>2024-05-11T09:44:15Z</time>
      </trkpt>
      <trkpt lat="44.28116" lon="6.09712">
        <ele>1742.05</ele>
        <time>2024-05-11T09:44:16Z</time>
      </trkpt>
      <trkpt lat="44.2811" lon="6.09721">
        <ele>1742.53</ele>
        <time>2024-05-11T09:44:28Z</time>
      </trkpt>
      <trkpt lat="44.281" lon="6.09737">
        <ele>1744.93</ele>
        <time>2024-05-11T09:44:43Z</time>
      </trkpt>
      <trkpt lat="44.28097" lon="6.09741">
        <ele>1746.37</ele>
        <time>2024-05-11T09:44:47Z</time>
      </trkpt>
      <trkpt lat="44.2809" lon="6.09756">
        <ele>1746.85</ele>
        <time>2024-05-11T09:45:00Z</time>
      </trkpt>
      <trkpt lat="44.28083" lon="6.09772">
        <ele>1747.81</ele>
        <time>2024-05-11T09:45:15Z</time>
      </trkpt>
      <trkpt lat="44.28072" lon="6.09784">
        <ele>1751.18</ele>
        <time>2024-05-11T09:45:30Z</time>
      </trkpt>
      <trkpt lat="44.28068" lon="6.09785">
        <ele>1751.66</ele>
        <time>2024-05-11T09:45:39Z</time>
      </trkpt>
      <trkpt lat="44.28063" lon="6.09788">
        <ele>1750.7</ele>
        <time>2024-05-11T09:51:35Z</time>
      </trkpt>
      <trkpt lat="44.28063" lon="6.09792">
        <ele>1750.7</ele>
        <time>2024-05-11T09:51:40Z</time>
      </trkpt>
      <trkpt lat="44.2806" lon="6.09804">
        <ele>1752.62</ele>
        <time>2024-05-11T09:51:50Z</time>
      </trkpt>
      <trkpt lat="44.28052" lon="6.09828">
        <ele>1755.02</ele>
        <time>2024-05-11T09:52:08Z</time>
      </trkpt>
      <trkpt lat="44.2804" lon="6.09849">
        <ele>1756.47</ele>
        <time>2024-05-11T09:52:24Z</time>
      </trkpt>
      <trkpt lat="44.28028" lon="6.0987">
        <ele>1758.87</ele>
        <time>2024-05-11T09:52:41Z</time>
      </trkpt>
      <trkpt lat="44.28022" lon="6.09878">
        <ele>1760.31</ele>
        <time>2024-05-11T09:52:48Z</time>
      </trkpt>
      <trkpt lat="44.28021" lon="6.0988">
        <ele>1760.31</ele>
        <time>2024-05-11T09:52:50Z</time>
      </trkpt>
      <trkpt lat="44.28013" lon="6.09895">
        <ele>1761.27</ele>
        <time>2024-05-11T09:53:03Z</time>
      </trkpt>
      <trkpt lat="44.28009" lon="6.09904">
        <ele>1762.71</ele>
        <time>2024-05-11T09:53:11Z</time>
      </trkpt>
      <trkpt lat="44.28004" lon="6.09912">
        <ele>1765.12</ele>
        <time>2024-05-11T09:53:18Z</time>
      </trkpt>
      <trkpt lat="44.28003" lon="6.09918">
        <ele>1767.04</ele>
        <time>2024-05-11T09:53:22Z</time>
      </trkpt>
      <trkpt lat="44.28002" lon="6.09921">
        <ele>1765.12</ele>
        <time>2024-05-11T09:53:24Z</time>
      </trkpt>
      <trkpt lat="44.27998" lon="6.09928">
        <ele>1767.04</ele>
        <time>2024-05-11T09:53:31Z</time>
      </trkpt>
      <trkpt lat="44.27995" lon="6.09934">
        <ele>1766.56</ele>
        <time>2024-05-11T09:53:36Z</time>
      </trkpt>
      <trkpt lat="44.27992" lon="6.09942">
        <ele>1770.41</ele>
        <time>2024-05-11T09:53:42Z</time>
      </trkpt>
      <trkpt lat="44.27992" lon="6.09943">
        <ele>1770.41</ele>
        <time>2024-05-11T09:53:43Z</time>
      </trkpt>
      <trkpt lat="44.2798" lon="6.09967">
        <ele>1772.81</ele>
        <time>2024-05-11T09:53:59Z</time>
      </trkpt>
      <trkpt lat="44.27976" lon="6.09976">
        <ele>1771.37</ele>
        <time>2024-05-11T09:54:05Z</time>
      </trkpt>
      <trkpt lat="44.2797" lon="6.09984">
        <ele>1772.81</ele>
        <time>2024-05-11T09:54:12Z</time>
      </trkpt>
      <trkpt lat="44.27969" lon="6.09986">
        <ele>1771.37</ele>
        <time>2024-05-11T09:54:14Z</time>
      </trkpt>
      <trkpt lat="44.27962" lon="6.09995">
        <ele>1772.33</ele>
        <time>2024-05-11T09:54:22Z</time>
      </trkpt>
      <trkpt lat="44.27955" lon="6.10005">
        <ele>1775.69</ele>
        <time>2024-05-11T09:54:32Z</time>
      </trkpt>
      <trkpt lat="44.27944" lon="6.10017">
        <ele>1778.1</ele>
        <time>2024-05-11T09:54:45Z</time>
      </trkpt>
      <trkpt lat="44.27942" lon="6.1002">
        <ele>1777.61</ele>
        <time>2024-05-11T09:54:48Z</time>
      </trkpt>
      <trkpt lat="44.27931" lon="6.1003">
        <ele>1779.06</ele>
        <time>2024-05-11T09:55:04Z</time>
      </trkpt>
      <trkpt lat="44.27917" lon="6.1004">
        <ele>1781.46</ele>
        <time>2024-05-11T09:55:20Z</time>
      </trkpt>
      <trkpt lat="44.27906" lon="6.1005">
        <ele>1784.34</ele>
        <time>2024-05-11T09:55:35Z</time>
      </trkpt>
      <trkpt lat="44.27893" lon="6.10066">
        <ele>1786.27</ele>
        <time>2024-05-11T09:55:50Z</time>
      </trkpt>
      <trkpt lat="44.2789" lon="6.10072">
        <ele>1787.23</ele>
        <time>2024-05-11T09:55:55Z</time>
      </trkpt>
      <trkpt lat="44.27885" lon="6.10078">
        <ele>1787.71</ele>
        <time>2024-05-11T09:56:02Z</time>
      </trkpt>
      <trkpt lat="44.2788" lon="6.10082">
        <ele>1787.71</ele>
        <time>2024-05-11T09:56:08Z</time>
      </trkpt>
      <trkpt lat="44.27874" lon="6.10091">
        <ele>1787.71</ele>
        <time>2024-05-11T09:56:15Z</time>
      </trkpt>
      <trkpt lat="44.27863" lon="6.10108">
        <ele>1788.67</ele>
        <time>2024-05-11T09:56:30Z</time>
      </trkpt>
      <trkpt lat="44.27851" lon="6.10124">
        <ele>1790.59</ele>
        <time>2024-05-11T09:56:44Z</time>
      </trkpt>
      <trkpt lat="44.27838" lon="6.1014">
        <ele>1793</ele>
        <time>2024-05-11T09:56:59Z</time>
      </trkpt>
      <trkpt lat="44.27826" lon="6.1016">
        <ele>1794.44</ele>
        <time>2024-05-11T09:57:14Z</time>
      </trkpt>
      <trkpt lat="44.27818" lon="6.10178">
        <ele>1795.4</ele>
        <time>2024-05-11T09:57:28Z</time>
      </trkpt>
      <trkpt lat="44.27809" lon="6.10198">
        <ele>1797.32</ele>
        <time>2024-05-11T09:57:43Z</time>
      </trkpt>
      <trkpt lat="44.278" lon="6.10214">
        <ele>1798.76</ele>
        <time>2024-05-11T09:57:56Z</time>
      </trkpt>
      <trkpt lat="44.27795" lon="6.10222">
        <ele>1799.73</ele>
        <time>2024-05-11T09:58:03Z</time>
      </trkpt>
      <trkpt lat="44.27785" lon="6.1024">
        <ele>1802.61</ele>
        <time>2024-05-11T09:58:17Z</time>
      </trkpt>
      <trkpt lat="44.27783" lon="6.10246">
        <ele>1804.05</ele>
        <time>2024-05-11T09:58:23Z</time>
      </trkpt>
      <trkpt lat="44.27773" lon="6.1026">
        <ele>1806.94</ele>
        <time>2024-05-11T09:58:38Z</time>
      </trkpt>
      <trkpt lat="44.27764" lon="6.10271">
        <ele>1809.34</ele>
        <time>2024-05-11T09:58:53Z</time>
      </trkpt>
      <trkpt lat="44.27755" lon="6.10286">
        <ele>1812.22</ele>
        <time>2024-05-11T09:59:09Z</time>
      </trkpt>
      <trkpt lat="44.27747" lon="6.103">
        <ele>1814.63</ele>
        <time>2024-05-11T09:59:23Z</time>
      </trkpt>
      <trkpt lat="44.2774" lon="6.10321">
        <ele>1816.07</ele>
        <time>2024-05-11T09:59:39Z</time>
      </trkpt>
      <trkpt lat="44.27738" lon="6.10327">
        <ele>1816.07</ele>
        <time>2024-05-11T09:59:44Z</time>
      </trkpt>
      <trkpt lat="44.27732" lon="6.10346">
        <ele>1817.03</ele>
        <time>2024-05-11T09:59:59Z</time>
      </trkpt>
      <trkpt lat="44.27726" lon="6.10359">
        <ele>1818.47</ele>
        <time>2024-05-11T10:00:13Z</time>
      </trkpt>
      <trkpt lat="44.27723" lon="6.10366">
        <ele>1818.95</ele>
        <time>2024-05-11T10:00:20Z</time>
      </trkpt>
      <trkpt lat="44.27718" lon="6.10384">
        <ele>1820.39</ele>
        <time>2024-05-11T10:00:35Z</time>
      </trkpt>
      <trkpt lat="44.27713" lon="6.10403">
        <ele>1820.87</ele>
        <time>2024-05-11T10:00:50Z</time>
      </trkpt>
      <trkpt lat="44.27709" lon="6.10418">
        <ele>1821.35</ele>
        <time>2024-05-11T10:01:03Z</time>
      </trkpt>
      <trkpt lat="44.27706" lon="6.10428">
        <ele>1821.84</ele>
        <time>2024-05-11T10:01:12Z</time>
      </trkpt>
      <trkpt lat="44.27703" lon="6.10435">
        <ele>1822.8</ele>
        <time>2024-05-11T10:01:19Z</time>
      </trkpt>
      <trkpt lat="44.27696" lon="6.10449">
        <ele>1824.24</ele>
        <time>2024-05-11T10:01:33Z</time>
      </trkpt>
      <trkpt lat="44.27688" lon="6.10464">
        <ele>1824.72</ele>
        <time>2024-05-11T10:01:49Z</time>
      </trkpt>
      <trkpt lat="44.27681" lon="6.10474">
        <ele>1826.16</ele>
        <time>2024-05-11T10:02:03Z</time>
      </trkpt>
      <trkpt lat="44.27678" lon="6.10478">
        <ele>1828.56</ele>
        <time>2024-05-11T10:02:10Z</time>
      </trkpt>
      <trkpt lat="44.27671" lon="6.10483">
        <ele>1830.97</ele>
        <time>2024-05-11T10:02:26Z</time>
      </trkpt>
      <trkpt lat="44.2767" lon="6.10484">
        <ele>1832.41</ele>
        <time>2024-05-11T10:02:29Z</time>
      </trkpt>
      <trkpt lat="44.27663" lon="6.10486">
        <ele>1833.85</ele>
        <time>2024-05-11T10:02:42Z</time>
      </trkpt>
      <trkpt lat="44.27658" lon="6.10485">
        <ele>1836.74</ele>
        <time>2024-05-11T10:02:52Z</time>
      </trkpt>
      <trkpt lat="44.27655" lon="6.10485">
        <ele>1840.1</ele>
        <time>2024-05-11T10:02:58Z</time>
      </trkpt>
      <trkpt lat="44.27655" lon="6.10485">
        <ele>1840.1</ele>
        <time>2024-05-11T10:02:59Z</time>
      </trkpt>
      <trkpt lat="44.27653" lon="6.10485">
        <ele>1838.66</ele>
        <time>2024-05-11T10:03:02Z</time>
      </trkpt>
      <trkpt lat="44.27647" lon="6.10487">
        <ele>1841.54</ele>
        <time>2024-05-11T10:03:16Z</time>
      </trkpt>
      <trkpt lat="44.27642" lon="6.10493">
        <ele>1842.98</ele>
        <time>2024-05-11T10:03:31Z</time>
      </trkpt>
      <trkpt lat="44.27636" lon="6.10497">
        <ele>1845.87</ele>
        <time>2024-05-11T10:03:48Z</time>
      </trkpt>
      <trkpt lat="44.2763" lon="6.10502">
        <ele>1848.27</ele>
        <time>2024-05-11T10:04:03Z</time>
      </trkpt>
      <trkpt lat="44.27621" lon="6.10502">
        <ele>1850.68</ele>
        <time>2024-05-11T10:04:18Z</time>
      </trkpt>
      <trkpt lat="44.27614" lon="6.10502">
        <ele>1853.08</ele>
        <time>2024-05-11T10:04:35Z</time>
      </trkpt>
      <trkpt lat="44.27603" lon="6.10507">
        <ele>1855.48</ele>
        <time>2024-05-11T10:04:52Z</time>
      </trkpt>
      <trkpt lat="44.27595" lon="6.10511">
        <ele>1856.92</ele>
        <time>2024-05-11T10:05:03Z</time>
      </trkpt>
      <trkpt lat="44.2758" lon="6.1051">
        <ele>1858.37</ele>
        <time>2024-05-11T10:05:20Z</time>
      </trkpt>
      <trkpt lat="44.27575" lon="6.1051">
        <ele>1859.33</ele>
        <time>2024-05-11T10:05:26Z</time>
      </trkpt>
      <trkpt lat="44.27559" lon="6.10519">
        <ele>1860.29</ele>
        <time>2024-05-11T10:05:44Z</time>
      </trkpt>
      <trkpt lat="44.27547" lon="6.10528">
        <ele>1861.73</ele>
        <time>2024-05-11T10:06:01Z</time>
      </trkpt>
      <trkpt lat="44.27537" lon="6.10534">
        <ele>1863.17</ele>
        <time>2024-05-11T10:06:14Z</time>
      </trkpt>
      <trkpt lat="44.27523" lon="6.10543">
        <ele>1864.13</ele>
        <time>2024-05-11T10:06:29Z</time>
      </trkpt>
      <trkpt lat="44.27511" lon="6.10552">
        <ele>1866.06</ele>
        <time>2024-05-11T10:06:43Z</time>
      </trkpt>
      <trkpt lat="44.27499" lon="6.10565">
        <ele>1867.5</ele>
        <time>2024-05-11T10:06:58Z</time>
      </trkpt>
      <trkpt lat="44.27489" lon="6.10575">
        <ele>1870.38</ele>
        <time>2024-05-11T10:07:13Z</time>
      </trkpt>
      <trkpt lat="44.27482" lon="6.10577">
        <ele>1873.27</ele>
        <time>2024-05-11T10:07:25Z</time>
      </trkpt>
      <trkpt lat="44.2747" lon="6.10577">
        <ele>1874.71</ele>
        <time>2024-05-11T10:07:39Z</time>
      </trkpt>
      <trkpt lat="44.27457" lon="6.10581">
        <ele>1878.07</ele>
        <time>2024-05-11T10:07:53Z</time>
      </trkpt>
      <trkpt lat="44.27446" lon="6.10585">
        <ele>1880.48</ele>
        <time>2024-05-11T10:08:10Z</time>
      </trkpt>
      <trkpt lat="44.2744" lon="6.10583">
        <ele>1881.92</ele>
        <time>2024-05-11T10:08:28Z</time>
      </trkpt>
      <trkpt lat="44.27439" lon="6.10584">
        <ele>1881.92</ele>
        <time>2024-05-11T10:14:55Z</time>
      </trkpt>
      <trkpt lat="44.27439" lon="6.10585">
        <ele>1882.88</ele>
        <time>2024-05-11T10:15:15Z</time>
      </trkpt>
      <trkpt lat="44.27442" lon="6.10589">
        <ele>1881.44</ele>
        <time>2024-05-11T10:15:25Z</time>
      </trkpt>
      <trkpt lat="44.27449" lon="6.10595">
        <ele>1880</ele>
        <time>2024-05-11T10:15:40Z</time>
      </trkpt>
      <trkpt lat="44.27452" lon="6.10596">
        <ele>1879.51</ele>
        <time>2024-05-11T10:15:44Z</time>
      </trkpt>
      <trkpt lat="44.27466" lon="6.1061">
        <ele>1874.23</ele>
        <time>2024-05-11T10:16:11Z</time>
      </trkpt>
      <trkpt lat="44.27465" lon="6.10622">
        <ele>1878.55</ele>
        <time>2024-05-11T11:24:42Z</time>
      </trkpt>
      <trkpt lat="44.27464" lon="6.10627">
        <ele>1878.55</ele>
        <time>2024-05-11T11:24:54Z</time>
      </trkpt>
      <trkpt lat="44.27462" lon="6.10647">
        <ele>1878.55</ele>
        <time>2024-05-11T11:25:09Z</time>
      </trkpt>
      <trkpt lat="44.27462" lon="6.10652">
        <ele>1877.59</ele>
        <time>2024-05-11T11:25:13Z</time>
      </trkpt>
      <trkpt lat="44.27461" lon="6.10679">
        <ele>1875.19</ele>
        <time>2024-05-11T11:25:30Z</time>
      </trkpt>
      <trkpt lat="44.27461" lon="6.10682">
        <ele>1875.19</ele>
        <time>2024-05-11T11:25:32Z</time>
      </trkpt>
      <trkpt lat="44.27465" lon="6.10708">
        <ele>1873.27</ele>
        <time>2024-05-11T11:25:49Z</time>
      </trkpt>
      <trkpt lat="44.27468" lon="6.10731">
        <ele>1872.3</ele>
        <time>2024-05-11T11:26:04Z</time>
      </trkpt>
      <trkpt lat="44.27475" lon="6.10758">
        <ele>1870.38</ele>
        <time>2024-05-11T11:26:22Z</time>
      </trkpt>
      <trkpt lat="44.27482" lon="6.10772">
        <ele>1868.94</ele>
        <time>2024-05-11T11:26:35Z</time>
      </trkpt>
      <trkpt lat="44.27483" lon="6.10777">
        <ele>1867.02</ele>
        <time>2024-05-11T11:26:39Z</time>
      </trkpt>
      <trkpt lat="44.27482" lon="6.10788">
        <ele>1865.09</ele>
        <time>2024-05-11T11:26:54Z</time>
      </trkpt>
      <trkpt lat="44.27483" lon="6.10799">
        <ele>1864.61</ele>
        <time>2024-05-11T11:27:08Z</time>
      </trkpt>
      <trkpt lat="44.27486" lon="6.10812">
        <ele>1862.69</ele>
        <time>2024-05-11T11:27:18Z</time>
      </trkpt>
      <trkpt lat="44.2749" lon="6.10828">
        <ele>1859.33</ele>
        <time>2024-05-11T11:27:32Z</time>
      </trkpt>
      <trkpt lat="44.27494" lon="6.10837">
        <ele>1857.4</ele>
        <time>2024-05-11T11:27:39Z</time>
      </trkpt>
      <trkpt lat="44.275" lon="6.10849">
        <ele>1854.04</ele>
        <time>2024-05-11T11:27:50Z</time>
      </trkpt>
      <trkpt lat="44.27504" lon="6.1086">
        <ele>1851.16</ele>
        <time>2024-05-11T11:28:02Z</time>
      </trkpt>
      <trkpt lat="44.27505" lon="6.10863">
        <ele>1850.68</ele>
        <time>2024-05-11T11:28:31Z</time>
      </trkpt>
      <trkpt lat="44.27506" lon="6.1087">
        <ele>1850.19</ele>
        <time>2024-05-11T11:28:54Z</time>
      </trkpt>
      <trkpt lat="44.27508" lon="6.10875">
        <ele>1848.27</ele>
        <time>2024-05-11T11:31:35Z</time>
      </trkpt>
      <trkpt lat="44.2751" lon="6.10888">
        <ele>1845.39</ele>
        <time>2024-05-11T11:31:48Z</time>
      </trkpt>
      <trkpt lat="44.27515" lon="6.10903">
        <ele>1842.02</ele>
        <time>2024-05-11T11:32:00Z</time>
      </trkpt>
      <trkpt lat="44.27517" lon="6.10916">
        <ele>1840.58</ele>
        <time>2024-05-11T11:32:09Z</time>
      </trkpt>
      <trkpt lat="44.27518" lon="6.1092">
        <ele>1840.1</ele>
        <time>2024-05-11T11:32:12Z</time>
      </trkpt>
      <trkpt lat="44.27521" lon="6.10941">
        <ele>1836.26</ele>
        <time>2024-05-11T11:32:29Z</time>
      </trkpt>
      <trkpt lat="44.27525" lon="6.10957">
        <ele>1832.89</ele>
        <time>2024-05-11T11:32:43Z</time>
      </trkpt>
      <trkpt lat="44.27527" lon="6.10969">
        <ele>1830.01</ele>
        <time>2024-05-11T11:32:54Z</time>
      </trkpt>
      <trkpt lat="44.2753" lon="6.10981">
        <ele>1827.12</ele>
        <time>2024-05-11T11:33:07Z</time>
      </trkpt>
      <trkpt lat="44.27532" lon="6.10993">
        <ele>1824.24</ele>
        <time>2024-05-11T11:33:22Z</time>
      </trkpt>
      <trkpt lat="44.27533" lon="6.11">
        <ele>1822.8</ele>
        <time>2024-05-11T11:33:38Z</time>
      </trkpt>
      <trkpt lat="44.27534" lon="6.11011">
        <ele>1819.43</ele>
        <time>2024-05-11T11:34:02Z</time>
      </trkpt>
      <trkpt lat="44.27534" lon="6.11024">
        <ele>1816.07</ele>
        <time>2024-05-11T11:34:16Z</time>
      </trkpt>
      <trkpt lat="44.27535" lon="6.11035">
        <ele>1813.18</ele>
        <time>2024-05-11T11:34:26Z</time>
      </trkpt>
      <trkpt lat="44.27538" lon="6.11049">
        <ele>1809.82</ele>
        <time>2024-05-11T11:34:40Z</time>
      </trkpt>
      <trkpt lat="44.27539" lon="6.11061">
        <ele>1806.94</ele>
        <time>2024-05-11T11:34:53Z</time>
      </trkpt>
      <trkpt lat="44.27541" lon="6.11072">
        <ele>1803.57</ele>
        <time>2024-05-11T11:35:07Z</time>
      </trkpt>
      <trkpt lat="44.27545" lon="6.11082">
        <ele>1800.21</ele>
        <time>2024-05-11T11:35:20Z</time>
      </trkpt>
      <trkpt lat="44.27548" lon="6.11095">
        <ele>1796.36</ele>
        <time>2024-05-11T11:35:34Z</time>
      </trkpt>
      <trkpt lat="44.27551" lon="6.11105">
        <ele>1793</ele>
        <time>2024-05-11T11:35:45Z</time>
      </trkpt>
      <trkpt lat="44.27553" lon="6.11116">
        <ele>1790.11</ele>
        <time>2024-05-11T11:35:57Z</time>
      </trkpt>
      <trkpt lat="44.27555" lon="6.11128">
        <ele>1787.23</ele>
        <time>2024-05-11T11:36:11Z</time>
      </trkpt>
      <trkpt lat="44.27559" lon="6.11137">
        <ele>1783.86</ele>
        <time>2024-05-11T11:36:23Z</time>
      </trkpt>
      <trkpt lat="44.27562" lon="6.11144">
        <ele>1782.42</ele>
        <time>2024-05-11T11:36:39Z</time>
      </trkpt>
      <trkpt lat="44.27563" lon="6.11147">
        <ele>1781.94</ele>
        <time>2024-05-11T11:37:43Z</time>
      </trkpt>
      <trkpt lat="44.27563" lon="6.11151">
        <ele>1781.94</ele>
        <time>2024-05-11T11:37:58Z</time>
      </trkpt>
      <trkpt lat="44.27563" lon="6.11156">
        <ele>1780.5</ele>
        <time>2024-05-11T11:38:02Z</time>
      </trkpt>
      <trkpt lat="44.27565" lon="6.11163">
        <ele>1777.61</ele>
        <time>2024-05-11T11:38:08Z</time>
      </trkpt>
      <trkpt lat="44.27568" lon="6.11176">
        <ele>1773.77</ele>
        <time>2024-05-11T11:38:19Z</time>
      </trkpt>
      <trkpt lat="44.2757" lon="6.11184">
        <ele>1771.37</ele>
        <time>2024-05-11T11:38:25Z</time>
      </trkpt>
      <trkpt lat="44.2757" lon="6.11189">
        <ele>1770.41</ele>
        <time>2024-05-11T11:38:29Z</time>
      </trkpt>
      <trkpt lat="44.2757" lon="6.11197">
        <ele>1768.96</ele>
        <time>2024-05-11T11:38:34Z</time>
      </trkpt>
      <trkpt lat="44.2757" lon="6.11201">
        <ele>1768</ele>
        <time>2024-05-11T11:38:37Z</time>
      </trkpt>
      <trkpt lat="44.27572" lon="6.11218">
        <ele>1764.64</ele>
        <time>2024-05-11T11:38:48Z</time>
      </trkpt>
      <trkpt lat="44.27573" lon="6.11229">
        <ele>1763.2</ele>
        <time>2024-05-11T11:38:55Z</time>
      </trkpt>
      <trkpt lat="44.27579" lon="6.11244">
        <ele>1759.83</ele>
        <time>2024-05-11T11:39:07Z</time>
      </trkpt>
      <trkpt lat="44.27581" lon="6.11259">
        <ele>1755.99</ele>
        <time>2024-05-11T11:39:17Z</time>
      </trkpt>
      <trkpt lat="44.27581" lon="6.11261">
        <ele>1755.99</ele>
        <time>2024-05-11T11:39:18Z</time>
      </trkpt>
      <trkpt lat="44.27582" lon="6.11271">
        <ele>1755.02</ele>
        <time>2024-05-11T11:39:25Z</time>
      </trkpt>
      <trkpt lat="44.27584" lon="6.1128">
        <ele>1752.14</ele>
        <time>2024-05-11T11:39:32Z</time>
      </trkpt>
      <trkpt lat="44.27589" lon="6.113">
        <ele>1749.74</ele>
        <time>2024-05-11T11:39:47Z</time>
      </trkpt>
      <trkpt lat="44.27589" lon="6.11301">
        <ele>1749.26</ele>
        <time>2024-05-11T11:39:48Z</time>
      </trkpt>
      <trkpt lat="44.27593" lon="6.11314">
        <ele>1745.89</ele>
        <time>2024-05-11T11:40:01Z</time>
      </trkpt>
      <trkpt lat="44.27594" lon="6.11321">
        <ele>1743.01</ele>
        <time>2024-05-11T11:40:09Z</time>
      </trkpt>
      <trkpt lat="44.27595" lon="6.11332">
        <ele>1739.64</ele>
        <time>2024-05-11T11:40:22Z</time>
      </trkpt>
      <trkpt lat="44.27595" lon="6.11345">
        <ele>1737.24</ele>
        <time>2024-05-11T11:40:35Z</time>
      </trkpt>
      <trkpt lat="44.27597" lon="6.11356">
        <ele>1734.36</ele>
        <time>2024-05-11T11:40:47Z</time>
      </trkpt>
      <trkpt lat="44.27597" lon="6.11369">
        <ele>1731.47</ele>
        <time>2024-05-11T11:41:02Z</time>
      </trkpt>
      <trkpt lat="44.27597" lon="6.11382">
        <ele>1728.11</ele>
        <time>2024-05-11T11:41:15Z</time>
      </trkpt>
      <trkpt lat="44.27598" lon="6.11394">
        <ele>1725.7</ele>
        <time>2024-05-11T11:41:27Z</time>
      </trkpt>
      <trkpt lat="44.27599" lon="6.11412">
        <ele>1723.3</ele>
        <time>2024-05-11T11:41:43Z</time>
      </trkpt>
      <trkpt lat="44.276" lon="6.11421">
        <ele>1719.94</ele>
        <time>2024-05-11T11:41:56Z</time>
      </trkpt>
      <trkpt lat="44.27601" lon="6.11424">
        <ele>1718.49</ele>
        <time>2024-05-11T11:44:19Z</time>
      </trkpt>
      <trkpt lat="44.276" lon="6.11443">
        <ele>1715.13</ele>
        <time>2024-05-11T11:45:02Z</time>
      </trkpt>
      <trkpt lat="44.27601" lon="6.1145">
        <ele>1712.73</ele>
        <time>2024-05-11T11:45:08Z</time>
      </trkpt>
      <trkpt lat="44.27602" lon="6.11454">
        <ele>1711.76</ele>
        <time>2024-05-11T11:45:11Z</time>
      </trkpt>
      <trkpt lat="44.27603" lon="6.11466">
        <ele>1708.88</ele>
        <time>2024-05-11T11:45:21Z</time>
      </trkpt>
      <trkpt lat="44.27604" lon="6.11469">
        <ele>1707.92</ele>
        <time>2024-05-11T11:45:24Z</time>
      </trkpt>
      <trkpt lat="44.27603" lon="6.1148">
        <ele>1706.48</ele>
        <time>2024-05-11T11:45:32Z</time>
      </trkpt>
      <trkpt lat="44.27604" lon="6.11485">
        <ele>1704.55</ele>
        <time>2024-05-11T11:45:37Z</time>
      </trkpt>
      <trkpt lat="44.27605" lon="6.11488">
        <ele>1703.59</ele>
        <time>2024-05-11T11:45:39Z</time>
      </trkpt>
      <trkpt lat="44.27606" lon="6.115">
        <ele>1700.71</ele>
        <time>2024-05-11T11:45:49Z</time>
      </trkpt>
      <trkpt lat="44.27608" lon="6.11513">
        <ele>1698.31</ele>
        <time>2024-05-11T11:46:01Z</time>
      </trkpt>
      <trkpt lat="44.27606" lon="6.11519">
        <ele>1697.34</ele>
        <time>2024-05-11T11:46:06Z</time>
      </trkpt>
      <trkpt lat="44.27608" lon="6.11528">
        <ele>1695.42</ele>
        <time>2024-05-11T11:46:14Z</time>
      </trkpt>
      <trkpt lat="44.27609" lon="6.11545">
        <ele>1692.06</ele>
        <time>2024-05-11T11:46:29Z</time>
      </trkpt>
      <trkpt lat="44.2761" lon="6.11553">
        <ele>1690.62</ele>
        <time>2024-05-11T11:46:35Z</time>
      </trkpt>
      <trkpt lat="44.27611" lon="6.11563">
        <ele>1687.73</ele>
        <time>2024-05-11T11:46:43Z</time>
      </trkpt>
      <trkpt lat="44.27614" lon="6.1158">
        <ele>1684.37</ele>
        <time>2024-05-11T11:46:56Z</time>
      </trkpt>
      <trkpt lat="44.27616" lon="6.11591">
        <ele>1681.48</ele>
        <time>2024-05-11T11:47:09Z</time>
      </trkpt>
      <trkpt lat="44.27618" lon="6.11603">
        <ele>1678.12</ele>
        <time>2024-05-11T11:47:20Z</time>
      </trkpt>
      <trkpt lat="44.2762" lon="6.11619">
        <ele>1674.27</ele>
        <time>2024-05-11T11:47:35Z</time>
      </trkpt>
      <trkpt lat="44.27618" lon="6.11637">
        <ele>1671.39</ele>
        <time>2024-05-11T11:47:51Z</time>
      </trkpt>
      <trkpt lat="44.27617" lon="6.11652">
        <ele>1668.51</ele>
        <time>2024-05-11T11:48:05Z</time>
      </trkpt>
      <trkpt lat="44.27618" lon="6.11663">
        <ele>1665.14</ele>
        <time>2024-05-11T11:48:17Z</time>
      </trkpt>
      <trkpt lat="44.27619" lon="6.11678">
        <ele>1661.78</ele>
        <time>2024-05-11T11:48:30Z</time>
      </trkpt>
      <trkpt lat="44.27619" lon="6.11679">
        <ele>1661.78</ele>
        <time>2024-05-11T11:48:31Z</time>
      </trkpt>
      <trkpt lat="44.27621" lon="6.11696">
        <ele>1657.45</ele>
        <time>2024-05-11T11:48:45Z</time>
      </trkpt>
      <trkpt lat="44.27622" lon="6.1171">
        <ele>1654.09</ele>
        <time>2024-05-11T11:48:57Z</time>
      </trkpt>
      <trkpt lat="44.27626" lon="6.11725">
        <ele>1651.2</ele>
        <time>2024-05-11T11:49:09Z</time>
      </trkpt>
      <trkpt lat="44.2763" lon="6.11736">
        <ele>1647.36</ele>
        <time>2024-05-11T11:49:21Z</time>
      </trkpt>
      <trkpt lat="44.27632" lon="6.11743">
        <ele>1645.91</ele>
        <time>2024-05-11T11:49:27Z</time>
      </trkpt>
      <trkpt lat="44.27635" lon="6.11751">
        <ele>1643.51</ele>
        <time>2024-05-11T11:49:34Z</time>
      </trkpt>
      <trkpt lat="44.27638" lon="6.11763">
        <ele>1640.15</ele>
        <time>2024-05-11T11:49:43Z</time>
      </trkpt>
      <trkpt lat="44.27642" lon="6.11772">
        <ele>1637.26</ele>
        <time>2024-05-11T11:49:52Z</time>
      </trkpt>
      <trkpt lat="44.27644" lon="6.11774">
        <ele>1636.78</ele>
        <time>2024-05-11T11:49:55Z</time>
      </trkpt>
      <trkpt lat="44.27648" lon="6.11781">
        <ele>1634.38</ele>
        <time>2024-05-11T11:50:08Z</time>
      </trkpt>
      <trkpt lat="44.2765" lon="6.11787">
        <ele>1632.94</ele>
        <time>2024-05-11T11:50:13Z</time>
      </trkpt>
      <trkpt lat="44.27655" lon="6.11802">
        <ele>1629.57</ele>
        <time>2024-05-11T11:50:26Z</time>
      </trkpt>
      <trkpt lat="44.27656" lon="6.11814">
        <ele>1626.21</ele>
        <time>2024-05-11T11:50:37Z</time>
      </trkpt>
      <trkpt lat="44.27656" lon="6.11815">
        <ele>1626.21</ele>
        <time>2024-05-11T11:50:38Z</time>
      </trkpt>
      <trkpt lat="44.27656" lon="6.11816">
        <ele>1625.25</ele>
        <time>2024-05-11T11:50:39Z</time>
      </trkpt>
      <trkpt lat="44.27661" lon="6.11831">
        <ele>1622.36</ele>
        <time>2024-05-11T11:50:53Z</time>
      </trkpt>
      <trkpt lat="44.27663" lon="6.11843">
        <ele>1619.48</ele>
        <time>2024-05-11T11:51:05Z</time>
      </trkpt>
      <trkpt lat="44.27667" lon="6.11851">
        <ele>1616.11</ele>
        <time>2024-05-11T11:51:14Z</time>
      </trkpt>
      <trkpt lat="44.27668" lon="6.11854">
        <ele>1615.15</ele>
        <time>2024-05-11T11:51:17Z</time>
      </trkpt>
      <trkpt lat="44.27674" lon="6.1187">
        <ele>1611.31</ele>
        <time>2024-05-11T11:51:30Z</time>
      </trkpt>
      <trkpt lat="44.27676" lon="6.11878">
        <ele>1610.35</ele>
        <time>2024-05-11T11:51:37Z</time>
      </trkpt>
      <trkpt lat="44.2768" lon="6.11893">
        <ele>1607.46</ele>
        <time>2024-05-11T11:51:52Z</time>
      </trkpt>
      <trkpt lat="44.27683" lon="6.11902">
        <ele>1604.58</ele>
        <time>2024-05-11T11:52:05Z</time>
      </trkpt>
      <trkpt lat="44.27683" lon="6.11911">
        <ele>1602.66</ele>
        <time>2024-05-11T11:52:21Z</time>
      </trkpt>
      <trkpt lat="44.27683" lon="6.1192">
        <ele>1601.21</ele>
        <time>2024-05-11T11:52:35Z</time>
      </trkpt>
      <trkpt lat="44.27683" lon="6.11921">
        <ele>1600.25</ele>
        <time>2024-05-11T11:52:37Z</time>
      </trkpt>
      <trkpt lat="44.27688" lon="6.11929">
        <ele>1599.29</ele>
        <time>2024-05-11T11:52:45Z</time>
      </trkpt>
      <trkpt lat="44.27689" lon="6.1194">
        <ele>1598.33</ele>
        <time>2024-05-11T11:52:52Z</time>
      </trkpt>
      <trkpt lat="44.27691" lon="6.11961">
        <ele>1596.89</ele>
        <time>2024-05-11T11:54:24Z</time>
      </trkpt>
      <trkpt lat="44.27692" lon="6.11972">
        <ele>1596.89</ele>
        <time>2024-05-11T11:54:36Z</time>
      </trkpt>
      <trkpt lat="44.27691" lon="6.11977">
        <ele>1596.89</ele>
        <time>2024-05-11T11:54:47Z</time>
      </trkpt>
      <trkpt lat="44.27692" lon="6.11991">
        <ele>1597.37</ele>
        <time>2024-05-11T11:55:03Z</time>
      </trkpt>
      <trkpt lat="44.27693" lon="6.11999">
        <ele>1597.37</ele>
        <time>2024-05-11T11:55:18Z</time>
      </trkpt>
      <trkpt lat="44.27695" lon="6.12">
        <ele>1597.85</ele>
        <time>2024-05-11T11:55:58Z</time>
      </trkpt>
      <trkpt lat="44.27695" lon="6.12014">
        <ele>1596.41</ele>
        <time>2024-05-11T11:56:12Z</time>
      </trkpt>
      <trkpt lat="44.27695" lon="6.12015">
        <ele>1596.89</ele>
        <time>2024-05-11T11:56:13Z</time>
      </trkpt>
      <trkpt lat="44.27694" lon="6.12036">
        <ele>1596.41</ele>
        <time>2024-05-11T11:56:27Z</time>
      </trkpt>
      <trkpt lat="44.27695" lon="6.1204">
        <ele>1596.41</ele>
        <time>2024-05-11T11:56:30Z</time>
      </trkpt>
      <trkpt lat="44.27688" lon="6.12068">
        <ele>1594.96</ele>
        <time>2024-05-11T11:56:47Z</time>
      </trkpt>
      <trkpt lat="44.27687" lon="6.1207">
        <ele>1594.96</ele>
        <time>2024-05-11T11:56:49Z</time>
      </trkpt>
      <trkpt lat="44.27682" lon="6.12088">
        <ele>1593.52</ele>
        <time>2024-05-11T11:57:02Z</time>
      </trkpt>
      <trkpt lat="44.27673" lon="6.12108">
        <ele>1592.08</ele>
        <time>2024-05-11T11:57:17Z</time>
      </trkpt>
      <trkpt lat="44.27667" lon="6.12122">
        <ele>1591.6</ele>
        <time>2024-05-11T11:57:33Z</time>
      </trkpt>
      <trkpt lat="44.27666" lon="6.12124">
        <ele>1591.6</ele>
        <time>2024-05-11T11:57:35Z</time>
      </trkpt>
      <trkpt lat="44.2766" lon="6.12146">
        <ele>1590.64</ele>
        <time>2024-05-11T11:57:50Z</time>
      </trkpt>
      <trkpt lat="44.27655" lon="6.12164">
        <ele>1590.64</ele>
        <time>2024-05-11T11:58:04Z</time>
      </trkpt>
      <trkpt lat="44.27655" lon="6.1217">
        <ele>1590.64</ele>
        <time>2024-05-11T11:58:08Z</time>
      </trkpt>
      <trkpt lat="44.2764" lon="6.12187">
        <ele>1589.2</ele>
        <time>2024-05-11T11:58:26Z</time>
      </trkpt>
      <trkpt lat="44.2764" lon="6.12188">
        <ele>1589.2</ele>
        <time>2024-05-11T11:58:27Z</time>
      </trkpt>
      <trkpt lat="44.27637" lon="6.12195">
        <ele>1588.72</ele>
        <time>2024-05-11T11:58:40Z</time>
      </trkpt>
      <trkpt lat="44.27638" lon="6.12206">
        <ele>1588.24</ele>
        <time>2024-05-11T11:58:51Z</time>
      </trkpt>
      <trkpt lat="44.27639" lon="6.12224">
        <ele>1588.24</ele>
        <time>2024-05-11T11:59:03Z</time>
      </trkpt>
      <trkpt lat="44.27633" lon="6.12244">
        <ele>1588.24</ele>
        <time>2024-05-11T11:59:20Z</time>
      </trkpt>
      <trkpt lat="44.27626" lon="6.12259">
        <ele>1587.75</ele>
        <time>2024-05-11T11:59:33Z</time>
      </trkpt>
      <trkpt lat="44.27615" lon="6.12278">
        <ele>1587.75</ele>
        <time>2024-05-11T11:59:49Z</time>
      </trkpt>
      <trkpt lat="44.27608" lon="6.12294">
        <ele>1587.75</ele>
        <time>2024-05-11T12:00:02Z</time>
      </trkpt>
      <trkpt lat="44.27606" lon="6.12297">
        <ele>1587.75</ele>
        <time>2024-05-11T12:00:05Z</time>
      </trkpt>
      <trkpt lat="44.27602" lon="6.12304">
        <ele>1587.75</ele>
        <time>2024-05-11T12:00:11Z</time>
      </trkpt>
      <trkpt lat="44.27603" lon="6.1231">
        <ele>1587.27</ele>
        <time>2024-05-11T12:00:15Z</time>
      </trkpt>
      <trkpt lat="44.27599" lon="6.12323">
        <ele>1587.27</ele>
        <time>2024-05-11T12:00:28Z</time>
      </trkpt>
      <trkpt lat="44.27599" lon="6.12326">
        <ele>1588.24</ele>
        <time>2024-05-11T12:00:33Z</time>
      </trkpt>
      <trkpt lat="44.27599" lon="6.12329">
        <ele>1588.72</ele>
        <time>2024-05-11T12:00:35Z</time>
      </trkpt>
      <trkpt lat="44.27592" lon="6.12351">
        <ele>1587.75</ele>
        <time>2024-05-11T12:00:50Z</time>
      </trkpt>
      <trkpt lat="44.27591" lon="6.12357">
        <ele>1589.2</ele>
        <time>2024-05-11T12:00:54Z</time>
      </trkpt>
      <trkpt lat="44.27589" lon="6.1236">
        <ele>1587.27</ele>
        <time>2024-05-11T12:00:57Z</time>
      </trkpt>
      <trkpt lat="44.27584" lon="6.12378">
        <ele>1586.79</ele>
        <time>2024-05-11T12:01:10Z</time>
      </trkpt>
      <trkpt lat="44.27572" lon="6.12401">
        <ele>1584.39</ele>
        <time>2024-05-11T12:01:29Z</time>
      </trkpt>
      <trkpt lat="44.27568" lon="6.12418">
        <ele>1581.99</ele>
        <time>2024-05-11T12:01:44Z</time>
      </trkpt>
      <trkpt lat="44.27568" lon="6.12422">
        <ele>1581.51</ele>
        <time>2024-05-11T12:01:48Z</time>
      </trkpt>
      <trkpt lat="44.27567" lon="6.12425">
        <ele>1581.03</ele>
        <time>2024-05-11T12:01:50Z</time>
      </trkpt>
      <trkpt lat="44.27563" lon="6.12447">
        <ele>1578.14</ele>
        <time>2024-05-11T12:02:08Z</time>
      </trkpt>
      <trkpt lat="44.27559" lon="6.12464">
        <ele>1575.26</ele>
        <time>2024-05-11T12:02:21Z</time>
      </trkpt>
      <trkpt lat="44.2756" lon="6.12475">
        <ele>1574.78</ele>
        <time>2024-05-11T12:02:29Z</time>
      </trkpt>
      <trkpt lat="44.2756" lon="6.12493">
        <ele>1574.3</ele>
        <time>2024-05-11T12:02:41Z</time>
      </trkpt>
      <trkpt lat="44.2756" lon="6.12503">
        <ele>1572.85</ele>
        <time>2024-05-11T12:02:56Z</time>
      </trkpt>
      <trkpt lat="44.27558" lon="6.12509">
        <ele>1572.85</ele>
        <time>2024-05-11T12:03:10Z</time>
      </trkpt>
      <trkpt lat="44.27558" lon="6.12513">
        <ele>1572.85</ele>
        <time>2024-05-11T12:03:15Z</time>
      </trkpt>
      <trkpt lat="44.27556" lon="6.12534">
        <ele>1572.85</ele>
        <time>2024-05-11T12:03:30Z</time>
      </trkpt>
      <trkpt lat="44.27555" lon="6.12533">
        <ele>1572.85</ele>
        <time>2024-05-11T12:03:44Z</time>
      </trkpt>
      <trkpt lat="44.27556" lon="6.12541">
        <ele>1572.37</ele>
        <time>2024-05-11T12:03:56Z</time>
      </trkpt>
      <trkpt lat="44.27559" lon="6.12562">
        <ele>1570.45</ele>
        <time>2024-05-11T12:04:13Z</time>
      </trkpt>
      <trkpt lat="44.27558" lon="6.12568">
        <ele>1569.97</ele>
        <time>2024-05-11T12:04:17Z</time>
      </trkpt>
      <trkpt lat="44.27556" lon="6.1258">
        <ele>1568.05</ele>
        <time>2024-05-11T12:04:25Z</time>
      </trkpt>
      <trkpt lat="44.27556" lon="6.12588">
        <ele>1567.09</ele>
        <time>2024-05-11T12:04:30Z</time>
      </trkpt>
      <trkpt lat="44.27559" lon="6.1261">
        <ele>1566.61</ele>
        <time>2024-05-11T12:04:46Z</time>
      </trkpt>
      <trkpt lat="44.27561" lon="6.12625">
        <ele>1566.12</ele>
        <time>2024-05-11T12:04:58Z</time>
      </trkpt>
      <trkpt lat="44.27559" lon="6.12633">
        <ele>1565.64</ele>
        <time>2024-05-11T12:05:03Z</time>
      </trkpt>
      <trkpt lat="44.27558" lon="6.12643">
        <ele>1565.16</ele>
        <time>2024-05-11T12:05:09Z</time>
      </trkpt>
      <trkpt lat="44.27556" lon="6.12647">
        <ele>1564.2</ele>
        <time>2024-05-11T12:05:12Z</time>
      </trkpt>
      <trkpt lat="44.27555" lon="6.12657">
        <ele>1563.72</ele>
        <time>2024-05-11T12:05:19Z</time>
      </trkpt>
      <trkpt lat="44.27558" lon="6.12682">
        <ele>1562.28</ele>
        <time>2024-05-11T12:05:36Z</time>
      </trkpt>
      <trkpt lat="44.2756" lon="6.12705">
        <ele>1561.8</ele>
        <time>2024-05-11T12:05:52Z</time>
      </trkpt>
      <trkpt lat="44.27563" lon="6.12718">
        <ele>1558.92</ele>
        <time>2024-05-11T12:06:02Z</time>
      </trkpt>
      <trkpt lat="44.27566" lon="6.12724">
        <ele>1557.95</ele>
        <time>2024-05-11T12:06:07Z</time>
      </trkpt>
      <trkpt lat="44.27567" lon="6.12731">
        <ele>1556.51</ele>
        <time>2024-05-11T12:06:12Z</time>
      </trkpt>
      <trkpt lat="44.27569" lon="6.12733">
        <ele>1556.03</ele>
        <time>2024-05-11T12:06:14Z</time>
      </trkpt>
      <trkpt lat="44.27572" lon="6.12758">
        <ele>1554.59</ele>
        <time>2024-05-11T12:06:30Z</time>
      </trkpt>
      <trkpt lat="44.27574" lon="6.12773">
        <ele>1554.11</ele>
        <time>2024-05-11T12:06:40Z</time>
      </trkpt>
      <trkpt lat="44.27573" lon="6.12777">
        <ele>1554.11</ele>
        <time>2024-05-11T12:06:43Z</time>
      </trkpt>
      <trkpt lat="44.27569" lon="6.12783">
        <ele>1555.55</ele>
        <time>2024-05-11T12:06:48Z</time>
      </trkpt>
      <trkpt lat="44.27569" lon="6.12786">
        <ele>1555.55</ele>
        <time>2024-05-11T12:06:50Z</time>
      </trkpt>
      <trkpt lat="44.27564" lon="6.12802">
        <ele>1554.59</ele>
        <time>2024-05-11T12:07:03Z</time>
      </trkpt>
      <trkpt lat="44.27563" lon="6.12816">
        <ele>1555.55</ele>
        <time>2024-05-11T12:07:16Z</time>
      </trkpt>
      <trkpt lat="44.27563" lon="6.12823">
        <ele>1554.11</ele>
        <time>2024-05-11T12:07:33Z</time>
      </trkpt>
      <trkpt lat="44.27561" lon="6.12828">
        <ele>1553.15</ele>
        <time>2024-05-11T12:10:20Z</time>
      </trkpt>
      <trkpt lat="44.2756" lon="6.12828">
        <ele>1553.15</ele>
        <time>2024-05-11T12:10:21Z</time>
      </trkpt>
      <trkpt lat="44.27555" lon="6.12846">
        <ele>1552.19</ele>
        <time>2024-05-11T12:10:33Z</time>
      </trkpt>
      <trkpt lat="44.27552" lon="6.12863">
        <ele>1550.74</ele>
        <time>2024-05-11T12:10:45Z</time>
      </trkpt>
      <trkpt lat="44.27549" lon="6.12872">
        <ele>1549.3</ele>
        <time>2024-05-11T12:10:53Z</time>
      </trkpt>
      <trkpt lat="44.27546" lon="6.12874">
        <ele>1548.34</ele>
        <time>2024-05-11T12:10:58Z</time>
      </trkpt>
      <trkpt lat="44.27547" lon="6.12889">
        <ele>1545.94</ele>
        <time>2024-05-11T12:11:11Z</time>
      </trkpt>
      <trkpt lat="44.27546" lon="6.12899">
        <ele>1544.01</ele>
        <time>2024-05-11T12:11:20Z</time>
      </trkpt>
      <trkpt lat="44.27539" lon="6.12923">
        <ele>1543.05</ele>
        <time>2024-05-11T12:11:36Z</time>
      </trkpt>
      <trkpt lat="44.27537" lon="6.1294">
        <ele>1540.17</ele>
        <time>2024-05-11T12:11:48Z</time>
      </trkpt>
      <trkpt lat="44.27533" lon="6.12962">
        <ele>1537.77</ele>
        <time>2024-05-11T12:12:03Z</time>
      </trkpt>
      <trkpt lat="44.27525" lon="6.12986">
        <ele>1535.36</ele>
        <time>2024-05-11T12:12:19Z</time>
      </trkpt>
      <trkpt lat="44.27515" lon="6.13015">
        <ele>1534.4</ele>
        <time>2024-05-11T12:12:36Z</time>
      </trkpt>
      <trkpt lat="44.27512" lon="6.13037">
        <ele>1531.52</ele>
        <time>2024-05-11T12:12:52Z</time>
      </trkpt>
      <trkpt lat="44.27511" lon="6.13039">
        <ele>1531.04</ele>
        <time>2024-05-11T12:12:53Z</time>
      </trkpt>
      <trkpt lat="44.27509" lon="6.1305">
        <ele>1530.08</ele>
        <time>2024-05-11T12:13:00Z</time>
      </trkpt>
      <trkpt lat="44.27502" lon="6.13067">
        <ele>1527.19</ele>
        <time>2024-05-11T12:13:15Z</time>
      </trkpt>
      <trkpt lat="44.27498" lon="6.13076">
        <ele>1525.75</ele>
        <time>2024-05-11T12:13:22Z</time>
      </trkpt>
      <trkpt lat="44.2749" lon="6.131">
        <ele>1522.39</ele>
        <time>2024-05-11T12:13:40Z</time>
      </trkpt>
      <trkpt lat="44.27478" lon="6.13122">
        <ele>1521.42</ele>
        <time>2024-05-11T12:13:55Z</time>
      </trkpt>
      <trkpt lat="44.27473" lon="6.13138">
        <ele>1520.46</ele>
        <time>2024-05-11T12:14:10Z</time>
      </trkpt>
      <trkpt lat="44.27471" lon="6.13152">
        <ele>1519.02</ele>
        <time>2024-05-11T12:14:22Z</time>
      </trkpt>
      <trkpt lat="44.27471" lon="6.13161">
        <ele>1517.58</ele>
        <time>2024-05-11T12:14:29Z</time>
      </trkpt>
      <trkpt lat="44.27465" lon="6.13181">
        <ele>1515.18</ele>
        <time>2024-05-11T12:14:46Z</time>
      </trkpt>
      <trkpt lat="44.27464" lon="6.13188">
        <ele>1514.21</ele>
        <time>2024-05-11T12:14:52Z</time>
      </trkpt>
      <trkpt lat="44.27455" lon="6.1321">
        <ele>1510.85</ele>
        <time>2024-05-11T12:15:08Z</time>
      </trkpt>
      <trkpt lat="44.27453" lon="6.13217">
        <ele>1509.89</ele>
        <time>2024-05-11T12:15:13Z</time>
      </trkpt>
      <trkpt lat="44.27452" lon="6.1322">
        <ele>1509.41</ele>
        <time>2024-05-11T12:15:16Z</time>
      </trkpt>
      <trkpt lat="44.27451" lon="6.13229">
        <ele>1507.97</ele>
        <time>2024-05-11T12:15:22Z</time>
      </trkpt>
      <trkpt lat="44.27447" lon="6.1325">
        <ele>1506.04</ele>
        <time>2024-05-11T12:15:37Z</time>
      </trkpt>
      <trkpt lat="44.27446" lon="6.13265">
        <ele>1503.64</ele>
        <time>2024-05-11T12:15:50Z</time>
      </trkpt>
      <trkpt lat="44.27445" lon="6.13282">
        <ele>1501.24</ele>
        <time>2024-05-11T12:16:04Z</time>
      </trkpt>
      <trkpt lat="44.27444" lon="6.13291">
        <ele>1498.83</ele>
        <time>2024-05-11T12:16:17Z</time>
      </trkpt>
      <trkpt lat="44.27447" lon="6.13291">
        <ele>1498.83</ele>
        <time>2024-05-11T12:16:20Z</time>
      </trkpt>
      <trkpt lat="44.27456" lon="6.13278">
        <ele>1498.83</ele>
        <time>2024-05-11T12:16:33Z</time>
      </trkpt>
      <trkpt lat="44.27462" lon="6.13275">
        <ele>1497.87</ele>
        <time>2024-05-11T12:16:46Z</time>
      </trkpt>
      <trkpt lat="44.27465" lon="6.13274">
        <ele>1496.43</ele>
        <time>2024-05-11T12:16:49Z</time>
      </trkpt>
      <trkpt lat="44.27469" lon="6.13275">
        <ele>1494.03</ele>
        <time>2024-05-11T12:16:59Z</time>
      </trkpt>
      <trkpt lat="44.27478" lon="6.13281">
        <ele>1490.18</ele>
        <time>2024-05-11T12:17:10Z</time>
      </trkpt>
      <trkpt lat="44.27486" lon="6.13285">
        <ele>1487.78</ele>
        <time>2024-05-11T12:17:24Z</time>
      </trkpt>
      <trkpt lat="44.27488" lon="6.13289">
        <ele>1487.3</ele>
        <time>2024-05-11T12:17:39Z</time>
      </trkpt>
      <trkpt lat="44.27488" lon="6.13289">
        <ele>1487.3</ele>
        <time>2024-05-11T12:17:40Z</time>
      </trkpt>
      <trkpt lat="44.27491" lon="6.133">
        <ele>1484.89</ele>
        <time>2024-05-11T12:17:50Z</time>
      </trkpt>
      <trkpt lat="44.27489" lon="6.13308">
        <ele>1483.45</ele>
        <time>2024-05-11T12:17:56Z</time>
      </trkpt>
      <trkpt lat="44.27488" lon="6.13324">
        <ele>1481.05</ele>
        <time>2024-05-11T12:18:11Z</time>
      </trkpt>
      <trkpt lat="44.27487" lon="6.13327">
        <ele>1480.09</ele>
        <time>2024-05-11T12:18:13Z</time>
      </trkpt>
      <trkpt lat="44.27488" lon="6.13332">
        <ele>1479.61</ele>
        <time>2024-05-11T12:18:17Z</time>
      </trkpt>
      <trkpt lat="44.27489" lon="6.13346">
        <ele>1476.72</ele>
        <time>2024-05-11T12:18:31Z</time>
      </trkpt>
      <trkpt lat="44.27488" lon="6.13347">
        <ele>1476.72</ele>
        <time>2024-05-11T12:18:32Z</time>
      </trkpt>
      <trkpt lat="44.27488" lon="6.13354">
        <ele>1475.76</ele>
        <time>2024-05-11T12:18:40Z</time>
      </trkpt>
      <trkpt lat="44.27489" lon="6.13356">
        <ele>1474.8</ele>
        <time>2024-05-11T12:18:42Z</time>
      </trkpt>
      <trkpt lat="44.27481" lon="6.13377">
        <ele>1473.36</ele>
        <time>2024-05-11T12:18:57Z</time>
      </trkpt>
      <trkpt lat="44.27481" lon="6.13378">
        <ele>1473.36</ele>
        <time>2024-05-11T12:18:58Z</time>
      </trkpt>
      <trkpt lat="44.27479" lon="6.13391">
        <ele>1471.44</ele>
        <time>2024-05-11T12:19:11Z</time>
      </trkpt>
      <trkpt lat="44.27478" lon="6.13399">
        <ele>1469.03</ele>
        <time>2024-05-11T12:19:23Z</time>
      </trkpt>
      <trkpt lat="44.27478" lon="6.13405">
        <ele>1468.07</ele>
        <time>2024-05-11T12:19:29Z</time>
      </trkpt>
      <trkpt lat="44.27478" lon="6.13413">
        <ele>1467.11</ele>
        <time>2024-05-11T12:19:35Z</time>
      </trkpt>
      <trkpt lat="44.27475" lon="6.13425">
        <ele>1464.71</ele>
        <time>2024-05-11T12:19:48Z</time>
      </trkpt>
      <trkpt lat="44.27472" lon="6.13433">
        <ele>1463.26</ele>
        <time>2024-05-11T12:20:02Z</time>
      </trkpt>
      <trkpt lat="44.27469" lon="6.1345">
        <ele>1459.9</ele>
        <time>2024-05-11T12:20:17Z</time>
      </trkpt>
      <trkpt lat="44.27468" lon="6.13453">
        <ele>1459.42</ele>
        <time>2024-05-11T12:20:20Z</time>
      </trkpt>
      <trkpt lat="44.27465" lon="6.13461">
        <ele>1457.5</ele>
        <time>2024-05-11T12:20:31Z</time>
      </trkpt>
      <trkpt lat="44.27466" lon="6.1347">
        <ele>1454.61</ele>
        <time>2024-05-11T12:20:43Z</time>
      </trkpt>
      <trkpt lat="44.27467" lon="6.13481">
        <ele>1451.25</ele>
        <time>2024-05-11T12:20:55Z</time>
      </trkpt>
      <trkpt lat="44.27465" lon="6.13491">
        <ele>1449.81</ele>
        <time>2024-05-11T12:21:08Z</time>
      </trkpt>
      <trkpt lat="44.27464" lon="6.13498">
        <ele>1448.36</ele>
        <time>2024-05-11T12:21:18Z</time>
      </trkpt>
      <trkpt lat="44.27467" lon="6.13516">
        <ele>1445</ele>
        <time>2024-05-11T12:21:35Z</time>
      </trkpt>
      <trkpt lat="44.2747" lon="6.13524">
        <ele>1442.11</ele>
        <time>2024-05-11T12:21:46Z</time>
      </trkpt>
      <trkpt lat="44.27472" lon="6.13539">
        <ele>1439.23</ele>
        <time>2024-05-11T12:22:02Z</time>
      </trkpt>
      <trkpt lat="44.27478" lon="6.1355">
        <ele>1435.87</ele>
        <time>2024-05-11T12:22:17Z</time>
      </trkpt>
      <trkpt lat="44.27479" lon="6.13555">
        <ele>1435.39</ele>
        <time>2024-05-11T12:22:21Z</time>
      </trkpt>
      <trkpt lat="44.27486" lon="6.13565">
        <ele>1432.02</ele>
        <time>2024-05-11T12:22:32Z</time>
      </trkpt>
      <trkpt lat="44.27494" lon="6.13572">
        <ele>1429.14</ele>
        <time>2024-05-11T12:22:46Z</time>
      </trkpt>
      <trkpt lat="44.27496" lon="6.13578">
        <ele>1426.73</ele>
        <time>2024-05-11T12:23:03Z</time>
      </trkpt>
      <trkpt lat="44.27497" lon="6.13578">
        <ele>1426.73</ele>
        <time>2024-05-11T12:23:04Z</time>
      </trkpt>
      <trkpt lat="44.27498" lon="6.13577">
        <ele>1426.73</ele>
        <time>2024-05-11T12:23:06Z</time>
      </trkpt>
      <trkpt lat="44.27506" lon="6.13572">
        <ele>1425.29</ele>
        <time>2024-05-11T12:23:17Z</time>
      </trkpt>
      <trkpt lat="44.27518" lon="6.13564">
        <ele>1422.41</ele>
        <time>2024-05-11T12:23:32Z</time>
      </trkpt>
      <trkpt lat="44.27523" lon="6.13566">
        <ele>1420.97</ele>
        <time>2024-05-11T12:23:45Z</time>
      </trkpt>
      <trkpt lat="44.27526" lon="6.13566">
        <ele>1420.49</ele>
        <time>2024-05-11T12:23:48Z</time>
      </trkpt>
      <trkpt lat="44.27529" lon="6.1357">
        <ele>1420.49</ele>
        <time>2024-05-11T12:23:52Z</time>
      </trkpt>
      <trkpt lat="44.27531" lon="6.13571">
        <ele>1420</ele>
        <time>2024-05-11T12:23:54Z</time>
      </trkpt>
      <trkpt lat="44.27542" lon="6.13585">
        <ele>1417.12</ele>
        <time>2024-05-11T12:24:09Z</time>
      </trkpt>
      <trkpt lat="44.27548" lon="6.13599">
        <ele>1413.76</ele>
        <time>2024-05-11T12:24:21Z</time>
      </trkpt>
      <trkpt lat="44.27562" lon="6.13615">
        <ele>1411.83</ele>
        <time>2024-05-11T12:24:37Z</time>
      </trkpt>
      <trkpt lat="44.27563" lon="6.13618">
        <ele>1411.83</ele>
        <time>2024-05-11T12:24:39Z</time>
      </trkpt>
      <trkpt lat="44.27564" lon="6.13636">
        <ele>1408.95</ele>
        <time>2024-05-11T12:24:54Z</time>
      </trkpt>
      <trkpt lat="44.27565" lon="6.13652">
        <ele>1405.58</ele>
        <time>2024-05-11T12:25:08Z</time>
      </trkpt>
      <trkpt lat="44.27565" lon="6.13662">
        <ele>1404.62</ele>
        <time>2024-05-11T12:25:17Z</time>
      </trkpt>
      <trkpt lat="44.27568" lon="6.13682">
        <ele>1401.26</ele>
        <time>2024-05-11T12:25:33Z</time>
      </trkpt>
      <trkpt lat="44.27568" lon="6.13685">
        <ele>1400.78</ele>
        <time>2024-05-11T12:25:35Z</time>
      </trkpt>
      <trkpt lat="44.27571" lon="6.13697">
        <ele>1398.86</ele>
        <time>2024-05-11T12:25:50Z</time>
      </trkpt>
      <trkpt lat="44.27573" lon="6.137">
        <ele>1397.89</ele>
        <time>2024-05-11T12:25:53Z</time>
      </trkpt>
      <trkpt lat="44.27579" lon="6.13711">
        <ele>1395.97</ele>
        <time>2024-05-11T12:26:02Z</time>
      </trkpt>
      <trkpt lat="44.27585" lon="6.13728">
        <ele>1393.09</ele>
        <time>2024-05-11T12:26:17Z</time>
      </trkpt>
      <trkpt lat="44.27588" lon="6.13731">
        <ele>1392.61</ele>
        <time>2024-05-11T12:26:21Z</time>
      </trkpt>
      <trkpt lat="44.27593" lon="6.1374">
        <ele>1390.68</ele>
        <time>2024-05-11T12:26:33Z</time>
      </trkpt>
      <trkpt lat="44.27607" lon="6.13756">
        <ele>1389.72</ele>
        <time>2024-05-11T12:26:50Z</time>
      </trkpt>
      <trkpt lat="44.2762" lon="6.13765">
        <ele>1386.84</ele>
        <time>2024-05-11T12:27:07Z</time>
      </trkpt>
      <trkpt lat="44.27621" lon="6.13766">
        <ele>1386.36</ele>
        <time>2024-05-11T12:27:43Z</time>
      </trkpt>
      <trkpt lat="44.27625" lon="6.1377">
        <ele>1384.92</ele>
        <time>2024-05-11T12:28:05Z</time>
      </trkpt>
      <trkpt lat="44.27624" lon="6.13772">
        <ele>1384.92</ele>
        <time>2024-05-11T12:28:24Z</time>
      </trkpt>
      <trkpt lat="44.27634" lon="6.13776">
        <ele>1382.03</ele>
        <time>2024-05-11T12:28:42Z</time>
      </trkpt>
      <trkpt lat="44.27642" lon="6.13782">
        <ele>1379.15</ele>
        <time>2024-05-11T12:28:51Z</time>
      </trkpt>
      <trkpt lat="44.27645" lon="6.13788">
        <ele>1377.71</ele>
        <time>2024-05-11T12:28:57Z</time>
      </trkpt>
      <trkpt lat="44.27653" lon="6.13802">
        <ele>1374.34</ele>
        <time>2024-05-11T12:29:10Z</time>
      </trkpt>
      <trkpt lat="44.27655" lon="6.13817">
        <ele>1371.94</ele>
        <time>2024-05-11T12:29:24Z</time>
      </trkpt>
      <trkpt lat="44.27655" lon="6.13823">
        <ele>1370.98</ele>
        <time>2024-05-11T12:29:29Z</time>
      </trkpt>
      <trkpt lat="44.27645" lon="6.1384">
        <ele>1367.61</ele>
        <time>2024-05-11T12:29:44Z</time>
      </trkpt>
      <trkpt lat="44.27641" lon="6.13848">
        <ele>1365.69</ele>
        <time>2024-05-11T12:29:51Z</time>
      </trkpt>
      <trkpt lat="44.27634" lon="6.13868">
        <ele>1362.33</ele>
        <time>2024-05-11T12:30:07Z</time>
      </trkpt>
      <trkpt lat="44.27634" lon="6.13884">
        <ele>1358.96</ele>
        <time>2024-05-11T12:30:21Z</time>
      </trkpt>
      <trkpt lat="44.27634" lon="6.13897">
        <ele>1355.6</ele>
        <time>2024-05-11T12:30:34Z</time>
      </trkpt>
      <trkpt lat="44.27638" lon="6.13915">
        <ele>1353.67</ele>
        <time>2024-05-11T12:30:47Z</time>
      </trkpt>
      <trkpt lat="44.27647" lon="6.13922">
        <ele>1351.27</ele>
        <time>2024-05-11T12:31:00Z</time>
      </trkpt>
      <trkpt lat="44.27656" lon="6.13917">
        <ele>1348.39</ele>
        <time>2024-05-11T12:31:11Z</time>
      </trkpt>
      <trkpt lat="44.2766" lon="6.13917">
        <ele>1346.94</ele>
        <time>2024-05-11T12:31:16Z</time>
      </trkpt>
      <trkpt lat="44.27668" lon="6.13915">
        <ele>1343.1</ele>
        <time>2024-05-11T12:31:27Z</time>
      </trkpt>
      <trkpt lat="44.27679" lon="6.13918">
        <ele>1339.73</ele>
        <time>2024-05-11T12:31:38Z</time>
      </trkpt>
      <trkpt lat="44.27687" lon="6.13921">
        <ele>1336.85</ele>
        <time>2024-05-11T12:31:49Z</time>
      </trkpt>
      <trkpt lat="44.27699" lon="6.13927">
        <ele>1333.49</ele>
        <time>2024-05-11T12:32:02Z</time>
      </trkpt>
      <trkpt lat="44.27711" lon="6.13933">
        <ele>1331.56</ele>
        <time>2024-05-11T12:32:15Z</time>
      </trkpt>
      <trkpt lat="44.27719" lon="6.13937">
        <ele>1329.64</ele>
        <time>2024-05-11T12:32:21Z</time>
      </trkpt>
      <trkpt lat="44.27733" lon="6.13944">
        <ele>1327.24</ele>
        <time>2024-05-11T12:32:35Z</time>
      </trkpt>
      <trkpt lat="44.27742" lon="6.13956">
        <ele>1325.8</ele>
        <time>2024-05-11T12:32:48Z</time>
      </trkpt>
      <trkpt lat="44.27748" lon="6.13967">
        <ele>1324.83</ele>
        <time>2024-05-11T12:32:59Z</time>
      </trkpt>
      <trkpt lat="44.27761" lon="6.13976">
        <ele>1324.35</ele>
        <time>2024-05-11T12:33:13Z</time>
      </trkpt>
      <trkpt lat="44.27776" lon="6.13981">
        <ele>1321.47</ele>
        <time>2024-05-11T12:33:27Z</time>
      </trkpt>
      <trkpt lat="44.2778" lon="6.13981">
        <ele>1320.51</ele>
        <time>2024-05-11T12:33:31Z</time>
      </trkpt>
      <trkpt lat="44.27791" lon="6.13981">
        <ele>1319.07</ele>
        <time>2024-05-11T12:33:40Z</time>
      </trkpt>
      <trkpt lat="44.27806" lon="6.13986">
        <ele>1316.18</ele>
        <time>2024-05-11T12:33:54Z</time>
      </trkpt>
      <trkpt lat="44.27816" lon="6.13996">
        <ele>1312.82</ele>
        <time>2024-05-11T12:34:07Z</time>
      </trkpt>
      <trkpt lat="44.27824" lon="6.14009">
        <ele>1310.41</ele>
        <time>2024-05-11T12:34:22Z</time>
      </trkpt>
      <trkpt lat="44.27838" lon="6.14015">
        <ele>1307.53</ele>
        <time>2024-05-11T12:34:36Z</time>
      </trkpt>
      <trkpt lat="44.27852" lon="6.14018">
        <ele>1304.17</ele>
        <time>2024-05-11T12:34:48Z</time>
      </trkpt>
      <trkpt lat="44.27864" lon="6.14021">
        <ele>1301.28</ele>
        <time>2024-05-11T12:35:01Z</time>
      </trkpt>
      <trkpt lat="44.27865" lon="6.14021">
        <ele>1301.28</ele>
        <time>2024-05-11T12:35:02Z</time>
      </trkpt>
      <trkpt lat="44.27873" lon="6.14025">
        <ele>1297.44</ele>
        <time>2024-05-11T12:35:13Z</time>
      </trkpt>
      <trkpt lat="44.27883" lon="6.14031">
        <ele>1294.07</ele>
        <time>2024-05-11T12:35:26Z</time>
      </trkpt>
      <trkpt lat="44.27899" lon="6.14038">
        <ele>1290.71</ele>
        <time>2024-05-11T12:35:42Z</time>
      </trkpt>
      <trkpt lat="44.27912" lon="6.14047">
        <ele>1287.34</ele>
        <time>2024-05-11T12:35:56Z</time>
      </trkpt>
      <trkpt lat="44.27919" lon="6.14058">
        <ele>1284.94</ele>
        <time>2024-05-11T12:36:08Z</time>
      </trkpt>
      <trkpt lat="44.27924" lon="6.14067">
        <ele>1282.06</ele>
        <time>2024-05-11T12:36:20Z</time>
      </trkpt>
      <trkpt lat="44.27928" lon="6.14067">
        <ele>1280.13</ele>
        <time>2024-05-11T12:36:25Z</time>
      </trkpt>
      <trkpt lat="44.27936" lon="6.14076">
        <ele>1276.77</ele>
        <time>2024-05-11T12:36:37Z</time>
      </trkpt>
      <trkpt lat="44.27942" lon="6.14087">
        <ele>1274.85</ele>
        <time>2024-05-11T12:36:52Z</time>
      </trkpt>
      <trkpt lat="44.27947" lon="6.14101">
        <ele>1272.92</ele>
        <time>2024-05-11T12:37:05Z</time>
      </trkpt>
      <trkpt lat="44.27951" lon="6.1412">
        <ele>1269.08</ele>
        <time>2024-05-11T12:37:20Z</time>
      </trkpt>
      <trkpt lat="44.27956" lon="6.14137">
        <ele>1266.19</ele>
        <time>2024-05-11T12:37:33Z</time>
      </trkpt>
      <trkpt lat="44.27962" lon="6.14154">
        <ele>1263.31</ele>
        <time>2024-05-11T12:37:47Z</time>
      </trkpt>
      <trkpt lat="44.2797" lon="6.14171">
        <ele>1259.94</ele>
        <time>2024-05-11T12:38:02Z</time>
      </trkpt>
      <trkpt lat="44.27977" lon="6.14179">
        <ele>1257.54</ele>
        <time>2024-05-11T12:38:14Z</time>
      </trkpt>
      <trkpt lat="44.27978" lon="6.14186">
        <ele>1256.58</ele>
        <time>2024-05-11T12:38:18Z</time>
      </trkpt>
      <trkpt lat="44.27976" lon="6.14197">
        <ele>1255.14</ele>
        <time>2024-05-11T12:38:33Z</time>
      </trkpt>
      <trkpt lat="44.27981" lon="6.14197">
        <ele>1253.7</ele>
        <time>2024-05-11T12:38:40Z</time>
      </trkpt>
      <trkpt lat="44.27993" lon="6.14191">
        <ele>1251.29</ele>
        <time>2024-05-11T12:38:56Z</time>
      </trkpt>
      <trkpt lat="44.28005" lon="6.14184">
        <ele>1248.41</ele>
        <time>2024-05-11T12:39:09Z</time>
      </trkpt>
      <trkpt lat="44.28012" lon="6.14179">
        <ele>1246.97</ele>
        <time>2024-05-11T12:39:15Z</time>
      </trkpt>
      <trkpt lat="44.28018" lon="6.14159">
        <ele>1243.6</ele>
        <time>2024-05-11T12:39:30Z</time>
      </trkpt>
      <trkpt lat="44.28019" lon="6.14156">
        <ele>1242.16</ele>
        <time>2024-05-11T12:39:33Z</time>
      </trkpt>
      <trkpt lat="44.28019" lon="6.14137">
        <ele>1238.32</ele>
        <time>2024-05-11T12:39:46Z</time>
      </trkpt>
      <trkpt lat="44.28021" lon="6.14126">
        <ele>1236.39</ele>
        <time>2024-05-11T12:39:54Z</time>
      </trkpt>
      <trkpt lat="44.28021" lon="6.14108">
        <ele>1233.03</ele>
        <time>2024-05-11T12:40:07Z</time>
      </trkpt>
      <trkpt lat="44.28023" lon="6.14094">
        <ele>1229.66</ele>
        <time>2024-05-11T12:40:18Z</time>
      </trkpt>
      <trkpt lat="44.28023" lon="6.1409">
        <ele>1229.18</ele>
        <time>2024-05-11T12:40:21Z</time>
      </trkpt>
      <trkpt lat="44.28025" lon="6.14081">
        <ele>1227.26</ele>
        <time>2024-05-11T12:40:27Z</time>
      </trkpt>
      <trkpt lat="44.28022" lon="6.14066">
        <ele>1225.82</ele>
        <time>2024-05-11T12:40:43Z</time>
      </trkpt>
      <trkpt lat="44.28022" lon="6.14066">
        <ele>1225.82</ele>
        <time>2024-05-11T12:40:44Z</time>
      </trkpt>
      <trkpt lat="44.28022" lon="6.14056">
        <ele>1224.86</ele>
        <time>2024-05-11T12:40:52Z</time>
      </trkpt>
      <trkpt lat="44.28014" lon="6.14031">
        <ele>1222.93</ele>
        <time>2024-05-11T12:41:09Z</time>
      </trkpt>
      <trkpt lat="44.28012" lon="6.14016">
        <ele>1221.97</ele>
        <time>2024-05-11T12:41:18Z</time>
      </trkpt>
      <trkpt lat="44.28013" lon="6.13997">
        <ele>1218.13</ele>
        <time>2024-05-11T12:41:31Z</time>
      </trkpt>
      <trkpt lat="44.2801" lon="6.13985">
        <ele>1216.69</ele>
        <time>2024-05-11T12:41:38Z</time>
      </trkpt>
      <trkpt lat="44.28005" lon="6.13971">
        <ele>1213.8</ele>
        <time>2024-05-11T12:41:48Z</time>
      </trkpt>
      <trkpt lat="44.28006" lon="6.13955">
        <ele>1211.4</ele>
        <time>2024-05-11T12:42:03Z</time>
      </trkpt>
      <trkpt lat="44.28008" lon="6.13951">
        <ele>1211.4</ele>
        <time>2024-05-11T12:42:09Z</time>
      </trkpt>
      <trkpt lat="44.28019" lon="6.13942">
        <ele>1210.44</ele>
        <time>2024-05-11T12:42:23Z</time>
      </trkpt>
      <trkpt lat="44.28026" lon="6.13942">
        <ele>1208.51</ele>
        <time>2024-05-11T12:42:31Z</time>
      </trkpt>
      <trkpt lat="44.28029" lon="6.13941">
        <ele>1208.51</ele>
        <time>2024-05-11T12:42:34Z</time>
      </trkpt>
      <trkpt lat="44.28042" lon="6.13934">
        <ele>1206.59</ele>
        <time>2024-05-11T12:42:50Z</time>
      </trkpt>
      <trkpt lat="44.2805" lon="6.13931">
        <ele>1206.59</ele>
        <time>2024-05-11T12:43:06Z</time>
      </trkpt>
      <trkpt lat="44.28056" lon="6.13933">
        <ele>1205.15</ele>
        <time>2024-05-11T12:43:21Z</time>
      </trkpt>
      <trkpt lat="44.28065" lon="6.13928">
        <ele>1202.75</ele>
        <time>2024-05-11T12:43:36Z</time>
      </trkpt>
      <trkpt lat="44.28081" lon="6.1392">
        <ele>1200.82</ele>
        <time>2024-05-11T12:44:56Z</time>
      </trkpt>
      <trkpt lat="44.28089" lon="6.13918">
        <ele>1199.38</ele>
        <time>2024-05-11T12:45:07Z</time>
      </trkpt>
      <trkpt lat="44.28093" lon="6.1392">
        <ele>1198.42</ele>
        <time>2024-05-11T12:45:12Z</time>
      </trkpt>
      <trkpt lat="44.28103" lon="6.13925">
        <ele>1196.5</ele>
        <time>2024-05-11T12:45:25Z</time>
      </trkpt>
      <trkpt lat="44.28115" lon="6.13927">
        <ele>1196.02</ele>
        <time>2024-05-11T12:45:38Z</time>
      </trkpt>
      <trkpt lat="44.28135" lon="6.13933">
        <ele>1194.58</ele>
        <time>2024-05-11T12:45:54Z</time>
      </trkpt>
      <trkpt lat="44.2814" lon="6.13934">
        <ele>1193.61</ele>
        <time>2024-05-11T12:46:06Z</time>
      </trkpt>
      <trkpt lat="44.28142" lon="6.13934">
        <ele>1192.65</ele>
        <time>2024-05-11T12:46:09Z</time>
      </trkpt>
      <trkpt lat="44.28155" lon="6.1393">
        <ele>1190.25</ele>
        <time>2024-05-11T12:46:25Z</time>
      </trkpt>
      <trkpt lat="44.2816" lon="6.13932">
        <ele>1188.33</ele>
        <time>2024-05-11T12:46:37Z</time>
      </trkpt>
      <trkpt lat="44.28166" lon="6.13934">
        <ele>1187.37</ele>
        <time>2024-05-11T12:46:49Z</time>
      </trkpt>
      <trkpt lat="44.28165" lon="6.13938">
        <ele>1186.4</ele>
        <time>2024-05-11T12:47:07Z</time>
      </trkpt>
      <trkpt lat="44.28167" lon="6.13942">
        <ele>1185.92</ele>
        <time>2024-05-11T12:47:11Z</time>
      </trkpt>
      <trkpt lat="44.2818" lon="6.13945">
        <ele>1184</ele>
        <time>2024-05-11T12:47:24Z</time>
      </trkpt>
      <trkpt lat="44.28194" lon="6.13941">
        <ele>1180.64</ele>
        <time>2024-05-11T12:47:37Z</time>
      </trkpt>
      <trkpt lat="44.28207" lon="6.13932">
        <ele>1177.27</ele>
        <time>2024-05-11T12:47:51Z</time>
      </trkpt>
      <trkpt lat="44.28218" lon="6.13922">
        <ele>1174.39</ele>
        <time>2024-05-11T12:48:05Z</time>
      </trkpt>
      <trkpt lat="44.28224" lon="6.13922">
        <ele>1173.43</ele>
        <time>2024-05-11T12:48:18Z</time>
      </trkpt>
      <trkpt lat="44.28227" lon="6.13937">
        <ele>1173.43</ele>
        <time>2024-05-11T12:48:32Z</time>
      </trkpt>
      <trkpt lat="44.28229" lon="6.13944">
        <ele>1171.98</ele>
        <time>2024-05-11T12:48:46Z</time>
      </trkpt>
      <trkpt lat="44.2823" lon="6.13956">
        <ele>1170.06</ele>
        <time>2024-05-11T12:49:00Z</time>
      </trkpt>
      <trkpt lat="44.28228" lon="6.13966">
        <ele>1167.66</ele>
        <time>2024-05-11T12:49:16Z</time>
      </trkpt>
      <trkpt lat="44.28227" lon="6.1397">
        <ele>1166.7</ele>
        <time>2024-05-11T12:49:19Z</time>
      </trkpt>
      <trkpt lat="44.28223" lon="6.13987">
        <ele>1165.74</ele>
        <time>2024-05-11T12:49:34Z</time>
      </trkpt>
      <trkpt lat="44.28223" lon="6.13996">
        <ele>1163.33</ele>
        <time>2024-05-11T12:49:47Z</time>
      </trkpt>
      <trkpt lat="44.28223" lon="6.14002">
        <ele>1161.89</ele>
        <time>2024-05-11T12:49:59Z</time>
      </trkpt>
      <trkpt lat="44.28221" lon="6.14003">
        <ele>1161.89</ele>
        <time>2024-05-11T12:50:03Z</time>
      </trkpt>
      <trkpt lat="44.28216" lon="6.14009">
        <ele>1161.89</ele>
        <time>2024-05-11T12:50:13Z</time>
      </trkpt>
      <trkpt lat="44.28215" lon="6.14016">
        <ele>1162.85</ele>
        <time>2024-05-11T12:50:24Z</time>
      </trkpt>
      <trkpt lat="44.28214" lon="6.14025">
        <ele>1160.93</ele>
        <time>2024-05-11T12:50:38Z</time>
      </trkpt>
      <trkpt lat="44.2822" lon="6.14034">
        <ele>1158.05</ele>
        <time>2024-05-11T12:50:52Z</time>
      </trkpt>
      <trkpt lat="44.28226" lon="6.14041">
        <ele>1154.68</ele>
        <time>2024-05-11T12:51:03Z</time>
      </trkpt>
      <trkpt lat="44.28232" lon="6.14049">
        <ele>1151.32</ele>
        <time>2024-05-11T12:51:14Z</time>
      </trkpt>
      <trkpt lat="44.28238" lon="6.14061">
        <ele>1148.43</ele>
        <time>2024-05-11T12:51:26Z</time>
      </trkpt>
      <trkpt lat="44.2824" lon="6.1407">
        <ele>1145.55</ele>
        <time>2024-05-11T12:51:36Z</time>
      </trkpt>
      <trkpt lat="44.28249" lon="6.14077">
        <ele>1143.63</ele>
        <time>2024-05-11T12:51:48Z</time>
      </trkpt>
      <trkpt lat="44.28255" lon="6.14089">
        <ele>1140.26</ele>
        <time>2024-05-11T12:52:01Z</time>
      </trkpt>
      <trkpt lat="44.28263" lon="6.141">
        <ele>1138.34</ele>
        <time>2024-05-11T12:52:15Z</time>
      </trkpt>
      <trkpt lat="44.28269" lon="6.14095">
        <ele>1137.38</ele>
        <time>2024-05-11T12:52:26Z</time>
      </trkpt>
      <trkpt lat="44.28272" lon="6.14103">
        <ele>1136.9</ele>
        <time>2024-05-11T12:52:38Z</time>
      </trkpt>
      <trkpt lat="44.28278" lon="6.14103">
        <ele>1136.42</ele>
        <time>2024-05-11T12:52:53Z</time>
      </trkpt>
      <trkpt lat="44.28283" lon="6.14105">
        <ele>1134.97</ele>
        <time>2024-05-11T12:53:03Z</time>
      </trkpt>
      <trkpt lat="44.28286" lon="6.14104">
        <ele>1134.01</ele>
        <time>2024-05-11T12:53:21Z</time>
      </trkpt>
      <trkpt lat="44.28286" lon="6.14104">
        <ele>1134.01</ele>
        <time>2024-05-11T12:53:44Z</time>
      </trkpt>
      <trkpt lat="44.28289" lon="6.14099">
        <ele>1133.53</ele>
        <time>2024-05-11T12:53:58Z</time>
      </trkpt>
      <trkpt lat="44.2829" lon="6.14089">
        <ele>1131.13</ele>
        <time>2024-05-11T12:54:11Z</time>
      </trkpt>
      <trkpt lat="44.28295" lon="6.14088">
        <ele>1129.21</ele>
        <time>2024-05-11T12:54:24Z</time>
      </trkpt>
      <trkpt lat="44.28297" lon="6.14092">
        <ele>1127.76</ele>
        <time>2024-05-11T12:54:29Z</time>
      </trkpt>
      <trkpt lat="44.28304" lon="6.14108">
        <ele>1124.4</ele>
        <time>2024-05-11T12:54:41Z</time>
      </trkpt>
      <trkpt lat="44.28305" lon="6.14112">
        <ele>1123.92</ele>
        <time>2024-05-11T12:54:44Z</time>
      </trkpt>
      <trkpt lat="44.28314" lon="6.14125">
        <ele>1120.55</ele>
        <time>2024-05-11T12:54:57Z</time>
      </trkpt>
      <trkpt lat="44.2832" lon="6.14137">
        <ele>1117.67</ele>
        <time>2024-05-11T12:55:07Z</time>
      </trkpt>
      <trkpt lat="44.28326" lon="6.14145">
        <ele>1114.79</ele>
        <time>2024-05-11T12:55:17Z</time>
      </trkpt>
      <trkpt lat="44.28334" lon="6.14146">
        <ele>1111.9</ele>
        <time>2024-05-11T12:55:28Z</time>
      </trkpt>
      <trkpt lat="44.28342" lon="6.14156">
        <ele>1109.02</ele>
        <time>2024-05-11T12:55:43Z</time>
      </trkpt>
      <trkpt lat="44.28349" lon="6.14156">
        <ele>1105.65</ele>
        <time>2024-05-11T12:55:52Z</time>
      </trkpt>
      <trkpt lat="44.28356" lon="6.14165">
        <ele>1102.77</ele>
        <time>2024-05-11T12:56:05Z</time>
      </trkpt>
      <trkpt lat="44.28363" lon="6.14168">
        <ele>1099.4</ele>
        <time>2024-05-11T12:56:16Z</time>
      </trkpt>
      <trkpt lat="44.28366" lon="6.14167">
        <ele>1097.96</ele>
        <time>2024-05-11T12:56:20Z</time>
      </trkpt>
      <trkpt lat="44.28368" lon="6.14165">
        <ele>1097.48</ele>
        <time>2024-05-11T12:56:22Z</time>
      </trkpt>
      <trkpt lat="44.28368" lon="6.14158">
        <ele>1096.04</ele>
        <time>2024-05-11T12:57:57Z</time>
      </trkpt>
      <trkpt lat="44.28368" lon="6.14152">
        <ele>1096.04</ele>
        <time>2024-05-11T12:58:08Z</time>
      </trkpt>
      <trkpt lat="44.28363" lon="6.14128">
        <ele>1098.44</ele>
        <time>2024-05-11T12:58:26Z</time>
      </trkpt>
      <trkpt lat="44.28363" lon="6.14106">
        <ele>1099.4</ele>
        <time>2024-05-11T12:58:41Z</time>
      </trkpt>
      <trkpt lat="44.28365" lon="6.14087">
        <ele>1099.4</ele>
        <time>2024-05-11T12:59:34Z</time>
      </trkpt>
      <trkpt lat="44.28365" lon="6.14076">
        <ele>1100.37</ele>
        <time>2024-05-11T12:59:46Z</time>
      </trkpt>
      <trkpt lat="44.28368" lon="6.14062">
        <ele>1100.85</ele>
        <time>2024-05-11T12:59:56Z</time>
      </trkpt>
      <trkpt lat="44.28368" lon="6.14056">
        <ele>1101.33</ele>
        <time>2024-05-11T13:00:00Z</time>
      </trkpt>
      <trkpt lat="44.28372" lon="6.14037">
        <ele>1102.29</ele>
        <time>2024-05-11T13:00:13Z</time>
      </trkpt>
      <trkpt lat="44.28376" lon="6.14017">
        <ele>1102.77</ele>
        <time>2024-05-11T13:00:27Z</time>
      </trkpt>
      <trkpt lat="44.28377" lon="6.13996">
        <ele>1104.69</ele>
        <time>2024-05-11T13:00:42Z</time>
      </trkpt>
      <trkpt lat="44.28377" lon="6.1398">
        <ele>1105.17</ele>
        <time>2024-05-11T13:00:54Z</time>
      </trkpt>
      <trkpt lat="44.28377" lon="6.13972">
        <ele>1105.17</ele>
        <time>2024-05-11T13:01:00Z</time>
      </trkpt>
      <trkpt lat="44.2838" lon="6.13953">
        <ele>1106.13</ele>
        <time>2024-05-11T13:01:11Z</time>
      </trkpt>
      <trkpt lat="44.28383" lon="6.13938">
        <ele>1106.61</ele>
        <time>2024-05-11T13:01:21Z</time>
      </trkpt>
      <trkpt lat="44.28384" lon="6.13919">
        <ele>1108.06</ele>
        <time>2024-05-11T13:01:34Z</time>
      </trkpt>
      <trkpt lat="44.28382" lon="6.13904">
        <ele>1109.5</ele>
        <time>2024-05-11T13:01:47Z</time>
      </trkpt>
      <trkpt lat="44.28382" lon="6.13901">
        <ele>1109.5</ele>
        <time>2024-05-11T13:01:49Z</time>
      </trkpt>
      <trkpt lat="44.28382" lon="6.13885">
        <ele>1110.46</ele>
        <time>2024-05-11T13:02:01Z</time>
      </trkpt>
      <trkpt lat="44.28382" lon="6.13884">
        <ele>1110.46</ele>
        <time>2024-05-11T13:02:02Z</time>
      </trkpt>
      <trkpt lat="44.28389" lon="6.13865">
        <ele>1110.94</ele>
        <time>2024-05-11T13:02:17Z</time>
      </trkpt>
      <trkpt lat="44.28389" lon="6.13862">
        <ele>1110.94</ele>
        <time>2024-05-11T13:02:19Z</time>
      </trkpt>
      <trkpt lat="44.28397" lon="6.1384">
        <ele>1110.46</ele>
        <time>2024-05-11T13:02:36Z</time>
      </trkpt>
      <trkpt lat="44.28401" lon="6.13824">
        <ele>1111.42</ele>
        <time>2024-05-11T13:02:50Z</time>
      </trkpt>
      <trkpt lat="44.28404" lon="6.13818">
        <ele>1110.94</ele>
        <time>2024-05-11T13:03:01Z</time>
      </trkpt>
      <trkpt lat="44.2841" lon="6.13812">
        <ele>1111.42</ele>
        <time>2024-05-11T13:03:09Z</time>
      </trkpt>
      <trkpt lat="44.28413" lon="6.13808">
        <ele>1112.38</ele>
        <time>2024-05-11T13:03:14Z</time>
      </trkpt>
      <trkpt lat="44.28416" lon="6.13804">
        <ele>1112.86</ele>
        <time>2024-05-11T13:03:18Z</time>
      </trkpt>
      <trkpt lat="44.28423" lon="6.13793">
        <ele>1114.31</ele>
        <time>2024-05-11T13:03:32Z</time>
      </trkpt>
      <trkpt lat="44.28429" lon="6.13775">
        <ele>1115.75</ele>
        <time>2024-05-11T13:03:47Z</time>
      </trkpt>
      <trkpt lat="44.28434" lon="6.13756">
        <ele>1117.19</ele>
        <time>2024-05-11T13:04:03Z</time>
      </trkpt>
      <trkpt lat="44.28437" lon="6.13735">
        <ele>1118.15</ele>
        <time>2024-05-11T13:04:17Z</time>
      </trkpt>
      <trkpt lat="44.28441" lon="6.13713">
        <ele>1118.63</ele>
        <time>2024-05-11T13:04:31Z</time>
      </trkpt>
      <trkpt lat="44.2844" lon="6.13689">
        <ele>1119.11</ele>
        <time>2024-05-11T13:04:46Z</time>
      </trkpt>
      <trkpt lat="44.28442" lon="6.13668">
        <ele>1120.07</ele>
        <time>2024-05-11T13:05:02Z</time>
      </trkpt>
      <trkpt lat="44.28447" lon="6.13658">
        <ele>1121.52</ele>
        <time>2024-05-11T13:05:11Z</time>
      </trkpt>
      <trkpt lat="44.28458" lon="6.13637">
        <ele>1123.44</ele>
        <time>2024-05-11T13:05:28Z</time>
      </trkpt>
      <trkpt lat="44.28461" lon="6.13625">
        <ele>1124.4</ele>
        <time>2024-05-11T13:05:37Z</time>
      </trkpt>
      <trkpt lat="44.28461" lon="6.13612">
        <ele>1125.36</ele>
        <time>2024-05-11T13:05:46Z</time>
      </trkpt>
      <trkpt lat="44.28463" lon="6.13589">
        <ele>1126.32</ele>
        <time>2024-05-11T13:06:01Z</time>
      </trkpt>
      <trkpt lat="44.28464" lon="6.13587">
        <ele>1126.32</ele>
        <time>2024-05-11T13:06:03Z</time>
      </trkpt>
      <trkpt lat="44.28473" lon="6.1357">
        <ele>1128.24</ele>
        <time>2024-05-11T13:06:17Z</time>
      </trkpt>
      <trkpt lat="44.28478" lon="6.1355">
        <ele>1128.73</ele>
        <time>2024-05-11T13:06:31Z</time>
      </trkpt>
      <trkpt lat="44.28479" lon="6.13546">
        <ele>1129.21</ele>
        <time>2024-05-11T13:06:34Z</time>
      </trkpt>
      <trkpt lat="44.2848" lon="6.13541">
        <ele>1129.69</ele>
        <time>2024-05-11T13:06:38Z</time>
      </trkpt>
      <trkpt lat="44.2848" lon="6.13537">
        <ele>1129.69</ele>
        <time>2024-05-11T13:06:40Z</time>
      </trkpt>
      <trkpt lat="44.28481" lon="6.1353">
        <ele>1130.17</ele>
        <time>2024-05-11T13:06:45Z</time>
      </trkpt>
      <trkpt lat="44.28481" lon="6.13527">
        <ele>1130.65</ele>
        <time>2024-05-11T13:06:47Z</time>
      </trkpt>
      <trkpt lat="44.28481" lon="6.13524">
        <ele>1130.65</ele>
        <time>2024-05-11T13:06:49Z</time>
      </trkpt>
      <trkpt lat="44.28481" lon="6.13504">
        <ele>1130.65</ele>
        <time>2024-05-11T13:07:02Z</time>
      </trkpt>
      <trkpt lat="44.28483" lon="6.13497">
        <ele>1131.13</ele>
        <time>2024-05-11T13:07:07Z</time>
      </trkpt>
      <trkpt lat="44.28489" lon="6.13482">
        <ele>1132.57</ele>
        <time>2024-05-11T13:07:19Z</time>
      </trkpt>
      <trkpt lat="44.28492" lon="6.13465">
        <ele>1133.53</ele>
        <time>2024-05-11T13:07:30Z</time>
      </trkpt>
      <trkpt lat="44.28493" lon="6.13449">
        <ele>1133.53</ele>
        <time>2024-05-11T13:07:41Z</time>
      </trkpt>
      <trkpt lat="44.28492" lon="6.13435">
        <ele>1133.05</ele>
        <time>2024-05-11T13:07:54Z</time>
      </trkpt>
      <trkpt lat="44.28497" lon="6.13418">
        <ele>1134.49</ele>
        <time>2024-05-11T13:08:09Z</time>
      </trkpt>
      <trkpt lat="44.28502" lon="6.13396">
        <ele>1134.97</ele>
        <time>2024-05-11T13:08:23Z</time>
      </trkpt>
      <trkpt lat="44.28505" lon="6.13376">
        <ele>1136.42</ele>
        <time>2024-05-11T13:08:37Z</time>
      </trkpt>
      <trkpt lat="44.28507" lon="6.13356">
        <ele>1137.38</ele>
        <time>2024-05-11T13:08:50Z</time>
      </trkpt>
      <trkpt lat="44.28508" lon="6.13336">
        <ele>1138.82</ele>
        <time>2024-05-11T13:09:04Z</time>
      </trkpt>
      <trkpt lat="44.28513" lon="6.13313">
        <ele>1139.78</ele>
        <time>2024-05-11T13:09:20Z</time>
      </trkpt>
      <trkpt lat="44.2852" lon="6.13297">
        <ele>1140.74</ele>
        <time>2024-05-11T13:09:32Z</time>
      </trkpt>
      <trkpt lat="44.28522" lon="6.13294">
        <ele>1140.74</ele>
        <time>2024-05-11T13:09:34Z</time>
      </trkpt>
      <trkpt lat="44.28527" lon="6.13282">
        <ele>1141.7</ele>
        <time>2024-05-11T13:09:46Z</time>
      </trkpt>
      <trkpt lat="44.28531" lon="6.13273">
        <ele>1142.66</ele>
        <time>2024-05-11T13:09:53Z</time>
      </trkpt>
      <trkpt lat="44.28533" lon="6.1327">
        <ele>1143.14</ele>
        <time>2024-05-11T13:09:55Z</time>
      </trkpt>
      <trkpt lat="44.28538" lon="6.13251">
        <ele>1144.11</ele>
        <time>2024-05-11T13:10:09Z</time>
      </trkpt>
      <trkpt lat="44.2854" lon="6.1323">
        <ele>1145.55</ele>
        <time>2024-05-11T13:10:24Z</time>
      </trkpt>
      <trkpt lat="44.28547" lon="6.13214">
        <ele>1147.47</ele>
        <time>2024-05-11T13:10:38Z</time>
      </trkpt>
      <trkpt lat="44.28554" lon="6.13196">
        <ele>1148.43</ele>
        <time>2024-05-11T13:10:51Z</time>
      </trkpt>
      <trkpt lat="44.2855" lon="6.1318">
        <ele>1148.43</ele>
        <time>2024-05-11T13:11:02Z</time>
      </trkpt>
      <trkpt lat="44.28542" lon="6.13161">
        <ele>1149.39</ele>
        <time>2024-05-11T13:11:16Z</time>
      </trkpt>
      <trkpt lat="44.28538" lon="6.13139">
        <ele>1149.87</ele>
        <time>2024-05-11T13:11:32Z</time>
      </trkpt>
      <trkpt lat="44.28538" lon="6.13132">
        <ele>1150.35</ele>
        <time>2024-05-11T13:11:37Z</time>
      </trkpt>
      <trkpt lat="44.28539" lon="6.13126">
        <ele>1150.84</ele>
        <time>2024-05-11T13:11:41Z</time>
      </trkpt>
      <trkpt lat="44.28543" lon="6.13118">
        <ele>1151.8</ele>
        <time>2024-05-11T13:11:48Z</time>
      </trkpt>
      <trkpt lat="44.28552" lon="6.13102">
        <ele>1154.2</ele>
        <time>2024-05-11T13:12:03Z</time>
      </trkpt>
      <trkpt lat="44.28559" lon="6.13088">
        <ele>1156.12</ele>
        <time>2024-05-11T13:12:16Z</time>
      </trkpt>
      <trkpt lat="44.2856" lon="6.13086">
        <ele>1156.12</ele>
        <time>2024-05-11T13:12:18Z</time>
      </trkpt>
      <trkpt lat="44.28568" lon="6.13065">
        <ele>1157.08</ele>
        <time>2024-05-11T13:12:34Z</time>
      </trkpt>
      <trkpt lat="44.28571" lon="6.1306">
        <ele>1157.56</ele>
        <time>2024-05-11T13:12:39Z</time>
      </trkpt>
      <trkpt lat="44.28584" lon="6.13041">
        <ele>1158.53</ele>
        <time>2024-05-11T13:12:57Z</time>
      </trkpt>
      <trkpt lat="44.28594" lon="6.13026">
        <ele>1159.97</ele>
        <time>2024-05-11T13:13:11Z</time>
      </trkpt>
      <trkpt lat="44.28603" lon="6.13014">
        <ele>1161.89</ele>
        <time>2024-05-11T13:13:25Z</time>
      </trkpt>
      <trkpt lat="44.28606" lon="6.13005">
        <ele>1162.85</ele>
        <time>2024-05-11T13:13:33Z</time>
      </trkpt>
      <trkpt lat="44.28607" lon="6.13">
        <ele>1162.85</ele>
        <time>2024-05-11T13:13:36Z</time>
      </trkpt>
      <trkpt lat="44.28606" lon="6.12998">
        <ele>1162.85</ele>
        <time>2024-05-11T13:13:38Z</time>
      </trkpt>
      <trkpt lat="44.28607" lon="6.12993">
        <ele>1162.85</ele>
        <time>2024-05-11T13:13:42Z</time>
      </trkpt>
      <trkpt lat="44.28606" lon="6.12969">
        <ele>1163.81</ele>
        <time>2024-05-11T13:13:58Z</time>
      </trkpt>
      <trkpt lat="44.2861" lon="6.12949">
        <ele>1165.26</ele>
        <time>2024-05-11T13:14:13Z</time>
      </trkpt>
      <trkpt lat="44.2861" lon="6.12943">
        <ele>1165.74</ele>
        <time>2024-05-11T13:14:17Z</time>
      </trkpt>
      <trkpt lat="44.28609" lon="6.1294">
        <ele>1165.74</ele>
        <time>2024-05-11T13:14:19Z</time>
      </trkpt>
      <trkpt lat="44.28605" lon="6.12926">
        <ele>1166.7</ele>
        <time>2024-05-11T13:14:29Z</time>
      </trkpt>
      <trkpt lat="44.28608" lon="6.12904">
        <ele>1169.1</ele>
        <time>2024-05-11T13:14:44Z</time>
      </trkpt>
      <trkpt lat="44.28607" lon="6.1289">
        <ele>1169.58</ele>
        <time>2024-05-11T13:14:54Z</time>
      </trkpt>
      <trkpt lat="44.28605" lon="6.12867">
        <ele>1170.54</ele>
        <time>2024-05-11T13:15:09Z</time>
      </trkpt>
      <trkpt lat="44.28601" lon="6.12847">
        <ele>1171.02</ele>
        <time>2024-05-11T13:15:23Z</time>
      </trkpt>
      <trkpt lat="44.28599" lon="6.12828">
        <ele>1172.47</ele>
        <time>2024-05-11T13:15:37Z</time>
      </trkpt>
      <trkpt lat="44.286" lon="6.12824">
        <ele>1172.47</ele>
        <time>2024-05-11T13:15:40Z</time>
      </trkpt>
      <trkpt lat="44.28603" lon="6.12802">
        <ele>1173.91</ele>
        <time>2024-05-11T13:15:55Z</time>
      </trkpt>
      <trkpt lat="44.28604" lon="6.12781">
        <ele>1175.83</ele>
        <time>2024-05-11T13:16:09Z</time>
      </trkpt>
      <trkpt lat="44.28604" lon="6.12773">
        <ele>1176.31</ele>
        <time>2024-05-11T13:16:14Z</time>
      </trkpt>
      <trkpt lat="44.28605" lon="6.12762">
        <ele>1176.31</ele>
        <time>2024-05-11T13:16:21Z</time>
      </trkpt>
      <trkpt lat="44.28607" lon="6.12756">
        <ele>1176.79</ele>
        <time>2024-05-11T13:16:25Z</time>
      </trkpt>
      <trkpt lat="44.28607" lon="6.12753">
        <ele>1177.27</ele>
        <time>2024-05-11T13:16:27Z</time>
      </trkpt>
      <trkpt lat="44.28607" lon="6.12733">
        <ele>1178.71</ele>
        <time>2024-05-11T13:16:41Z</time>
      </trkpt>
      <trkpt lat="44.28606" lon="6.12712">
        <ele>1178.71</ele>
        <time>2024-05-11T13:16:55Z</time>
      </trkpt>
      <trkpt lat="44.28607" lon="6.12693">
        <ele>1180.16</ele>
        <time>2024-05-11T13:17:08Z</time>
      </trkpt>
      <trkpt lat="44.2861" lon="6.12677">
        <ele>1181.12</ele>
        <time>2024-05-11T13:17:19Z</time>
      </trkpt>
      <trkpt lat="44.28612" lon="6.12672">
        <ele>1181.6</ele>
        <time>2024-05-11T13:17:23Z</time>
      </trkpt>
      <trkpt lat="44.2861" lon="6.12652">
        <ele>1182.56</ele>
        <time>2024-05-11T13:17:37Z</time>
      </trkpt>
      <trkpt lat="44.28609" lon="6.12632">
        <ele>1183.52</ele>
        <time>2024-05-11T13:17:51Z</time>
      </trkpt>
      <trkpt lat="44.2861" lon="6.12619">
        <ele>1184.48</ele>
        <time>2024-05-11T13:18:01Z</time>
      </trkpt>
      <trkpt lat="44.28611" lon="6.1261">
        <ele>1185.44</ele>
        <time>2024-05-11T13:18:08Z</time>
      </trkpt>
      <trkpt lat="44.28613" lon="6.12602">
        <ele>1185.92</ele>
        <time>2024-05-11T13:18:14Z</time>
      </trkpt>
      <trkpt lat="44.28615" lon="6.12599">
        <ele>1185.92</ele>
        <time>2024-05-11T13:18:16Z</time>
      </trkpt>
      <trkpt lat="44.28621" lon="6.12582">
        <ele>1186.4</ele>
        <time>2024-05-11T13:18:28Z</time>
      </trkpt>
      <trkpt lat="44.28625" lon="6.12575">
        <ele>1187.37</ele>
        <time>2024-05-11T13:18:35Z</time>
      </trkpt>
      <trkpt lat="44.28632" lon="6.12564">
        <ele>1189.29</ele>
        <time>2024-05-11T13:18:47Z</time>
      </trkpt>
      <trkpt lat="44.28637" lon="6.12549">
        <ele>1191.21</ele>
        <time>2024-05-11T13:19:00Z</time>
      </trkpt>
      <trkpt lat="44.28639" lon="6.12531">
        <ele>1193.13</ele>
        <time>2024-05-11T13:19:13Z</time>
      </trkpt>
      <trkpt lat="44.28639" lon="6.12519">
        <ele>1194.09</ele>
        <time>2024-05-11T13:19:21Z</time>
      </trkpt>
      <trkpt lat="44.28643" lon="6.12498">
        <ele>1194.58</ele>
        <time>2024-05-11T13:19:36Z</time>
      </trkpt>
      <trkpt lat="44.28648" lon="6.12483">
        <ele>1194.09</ele>
        <time>2024-05-11T13:19:48Z</time>
      </trkpt>
      <trkpt lat="44.28651" lon="6.12459">
        <ele>1195.54</ele>
        <time>2024-05-11T13:20:03Z</time>
      </trkpt>
      <trkpt lat="44.28657" lon="6.12445">
        <ele>1196.5</ele>
        <time>2024-05-11T13:20:16Z</time>
      </trkpt>
      <trkpt lat="44.28663" lon="6.12427">
        <ele>1197.46</ele>
        <time>2024-05-11T13:20:30Z</time>
      </trkpt>
      <trkpt lat="44.28663" lon="6.12426">
        <ele>1197.94</ele>
        <time>2024-05-11T13:20:31Z</time>
      </trkpt>
      <trkpt lat="44.28664" lon="6.12424">
        <ele>1197.94</ele>
        <time>2024-05-11T13:20:32Z</time>
      </trkpt>
      <trkpt lat="44.28665" lon="6.12407">
        <ele>1198.9</ele>
        <time>2024-05-11T13:20:43Z</time>
      </trkpt>
      <trkpt lat="44.28668" lon="6.12398">
        <ele>1199.86</ele>
        <time>2024-05-11T13:20:50Z</time>
      </trkpt>
      <trkpt lat="44.28672" lon="6.12377">
        <ele>1202.27</ele>
        <time>2024-05-11T13:21:05Z</time>
      </trkpt>
      <trkpt lat="44.28675" lon="6.12371">
        <ele>1203.23</ele>
        <time>2024-05-11T13:21:11Z</time>
      </trkpt>
      <trkpt lat="44.28686" lon="6.12361">
        <ele>1205.15</ele>
        <time>2024-05-11T13:21:25Z</time>
      </trkpt>
      <trkpt lat="44.28694" lon="6.12349">
        <ele>1207.55</ele>
        <time>2024-05-11T13:21:40Z</time>
      </trkpt>
      <trkpt lat="44.28702" lon="6.1234">
        <ele>1209.96</ele>
        <time>2024-05-11T13:21:53Z</time>
      </trkpt>
      <trkpt lat="44.28705" lon="6.12335">
        <ele>1210.44</ele>
        <time>2024-05-11T13:21:58Z</time>
      </trkpt>
      <trkpt lat="44.28709" lon="6.12325">
        <ele>1211.88</ele>
        <time>2024-05-11T13:22:06Z</time>
      </trkpt>
      <trkpt lat="44.28709" lon="6.1232">
        <ele>1211.88</ele>
        <time>2024-05-11T13:22:10Z</time>
      </trkpt>
      <trkpt lat="44.28715" lon="6.12306">
        <ele>1212.84</ele>
        <time>2024-05-11T13:22:23Z</time>
      </trkpt>
      <trkpt lat="44.28716" lon="6.12302">
        <ele>1213.8</ele>
        <time>2024-05-11T13:22:26Z</time>
      </trkpt>
      <trkpt lat="44.28718" lon="6.12292">
        <ele>1214.28</ele>
        <time>2024-05-11T13:22:35Z</time>
      </trkpt>
      <trkpt lat="44.28719" lon="6.12283">
        <ele>1215.24</ele>
        <time>2024-05-11T13:22:49Z</time>
      </trkpt>
      <trkpt lat="44.28716" lon="6.12278">
        <ele>1215.24</ele>
        <time>2024-05-11T13:23:17Z</time>
      </trkpt>
      <trkpt lat="44.28718" lon="6.12274">
        <ele>1216.21</ele>
        <time>2024-05-11T13:23:33Z</time>
      </trkpt>
      <trkpt lat="44.28725" lon="6.12261">
        <ele>1218.61</ele>
        <time>2024-05-11T13:23:48Z</time>
      </trkpt>
      <trkpt lat="44.28732" lon="6.12253">
        <ele>1221.01</ele>
        <time>2024-05-11T13:24:00Z</time>
      </trkpt>
      <trkpt lat="44.28741" lon="6.12246">
        <ele>1223.42</ele>
        <time>2024-05-11T13:24:12Z</time>
      </trkpt>
      <trkpt lat="44.28743" lon="6.12244">
        <ele>1223.9</ele>
        <time>2024-05-11T13:24:15Z</time>
      </trkpt>
      <trkpt lat="44.28752" lon="6.1224">
        <ele>1225.34</ele>
        <time>2024-05-11T13:24:25Z</time>
      </trkpt>
      <trkpt lat="44.28756" lon="6.12236">
        <ele>1225.82</ele>
        <time>2024-05-11T13:24:31Z</time>
      </trkpt>
      <trkpt lat="44.28766" lon="6.12228">
        <ele>1228.22</ele>
        <time>2024-05-11T13:24:45Z</time>
      </trkpt>
      <trkpt lat="44.28775" lon="6.12223">
        <ele>1230.62</ele>
        <time>2024-05-11T13:24:57Z</time>
      </trkpt>
      <trkpt lat="44.28778" lon="6.12218">
        <ele>1232.07</ele>
        <time>2024-05-11T13:25:11Z</time>
      </trkpt>
      <trkpt lat="44.28784" lon="6.12211">
        <ele>1233.51</ele>
        <time>2024-05-11T13:25:27Z</time>
      </trkpt>
      <trkpt lat="44.2879" lon="6.12197">
        <ele>1234.95</ele>
        <time>2024-05-11T13:30:42Z</time>
      </trkpt>
      <trkpt lat="44.28799" lon="6.12188">
        <ele>1235.43</ele>
        <time>2024-05-11T13:30:59Z</time>
      </trkpt>
      <trkpt lat="44.28801" lon="6.12185">
        <ele>1235.43</ele>
        <time>2024-05-11T13:31:02Z</time>
      </trkpt>
      <trkpt lat="44.28809" lon="6.12167">
        <ele>1235.43</ele>
        <time>2024-05-11T13:31:17Z</time>
      </trkpt>
      <trkpt lat="44.28812" lon="6.12149">
        <ele>1234.47</ele>
        <time>2024-05-11T13:31:32Z</time>
      </trkpt>
      <trkpt lat="44.28809" lon="6.12144">
        <ele>1233.51</ele>
        <time>2024-05-11T13:33:01Z</time>
      </trkpt>
      <trkpt lat="44.28807" lon="6.12138">
        <ele>1231.59</ele>
        <time>2024-05-11T13:33:15Z</time>
      </trkpt>
      <trkpt lat="44.28802" lon="6.12133">
        <ele>1230.62</ele>
        <time>2024-05-11T13:33:31Z</time>
      </trkpt>
      <trkpt lat="44.28797" lon="6.1212">
        <ele>1227.26</ele>
        <time>2024-05-11T13:33:47Z</time>
      </trkpt>
      <trkpt lat="44.28792" lon="6.1211">
        <ele>1225.82</ele>
        <time>2024-05-11T13:33:59Z</time>
      </trkpt>
      <trkpt lat="44.28793" lon="6.12097">
        <ele>1224.38</ele>
        <time>2024-05-11T13:34:19Z</time>
      </trkpt>
      <trkpt lat="44.28791" lon="6.12078">
        <ele>1222.45</ele>
        <time>2024-05-11T13:34:33Z</time>
      </trkpt>
      <trkpt lat="44.28791" lon="6.12056">
        <ele>1220.05</ele>
        <time>2024-05-11T13:34:47Z</time>
      </trkpt>
      <trkpt lat="44.28797" lon="6.12039">
        <ele>1218.61</ele>
        <time>2024-05-11T13:35:02Z</time>
      </trkpt>
      <trkpt lat="44.288" lon="6.12018">
        <ele>1216.21</ele>
        <time>2024-05-11T13:35:16Z</time>
      </trkpt>
      <trkpt lat="44.28805" lon="6.12017">
        <ele>1213.32</ele>
        <time>2024-05-11T13:35:28Z</time>
      </trkpt>
      <trkpt lat="44.28813" lon="6.12019">
        <ele>1212.36</ele>
        <time>2024-05-11T13:35:42Z</time>
      </trkpt>
      <trkpt lat="44.28827" lon="6.12027">
        <ele>1211.4</ele>
        <time>2024-05-11T13:35:57Z</time>
      </trkpt>
      <trkpt lat="44.2883" lon="6.1203">
        <ele>1208.03</ele>
        <time>2024-05-11T13:36:11Z</time>
      </trkpt>
      <trkpt lat="44.28835" lon="6.12033">
        <ele>1207.07</ele>
        <time>2024-05-11T13:36:23Z</time>
      </trkpt>
      <trkpt lat="44.28841" lon="6.12042">
        <ele>1203.71</ele>
        <time>2024-05-11T13:36:34Z</time>
      </trkpt>
      <trkpt lat="44.28844" lon="6.12052">
        <ele>1201.3</ele>
        <time>2024-05-11T13:36:46Z</time>
      </trkpt>
      <trkpt lat="44.28855" lon="6.12058">
        <ele>1198.42</ele>
        <time>2024-05-11T13:37:00Z</time>
      </trkpt>
      <trkpt lat="44.28864" lon="6.12063">
        <ele>1195.54</ele>
        <time>2024-05-11T13:37:14Z</time>
      </trkpt>
      <trkpt lat="44.28871" lon="6.12069">
        <ele>1193.13</ele>
        <time>2024-05-11T13:37:26Z</time>
      </trkpt>
      <trkpt lat="44.28875" lon="6.12069">
        <ele>1190.73</ele>
        <time>2024-05-11T13:37:37Z</time>
      </trkpt>
      <trkpt lat="44.28885" lon="6.12066">
        <ele>1187.37</ele>
        <time>2024-05-11T13:37:49Z</time>
      </trkpt>
      <trkpt lat="44.28894" lon="6.12059">
        <ele>1185.44</ele>
        <time>2024-05-11T13:38:02Z</time>
      </trkpt>
      <trkpt lat="44.28906" lon="6.12049">
        <ele>1183.52</ele>
        <time>2024-05-11T13:38:15Z</time>
      </trkpt>
      <trkpt lat="44.28916" lon="6.12043">
        <ele>1180.64</ele>
        <time>2024-05-11T13:38:27Z</time>
      </trkpt>
      <trkpt lat="44.28932" lon="6.12036">
        <ele>1178.23</ele>
        <time>2024-05-11T13:38:40Z</time>
      </trkpt>
      <trkpt lat="44.28953" lon="6.12026">
        <ele>1174.87</ele>
        <time>2024-05-11T13:38:55Z</time>
      </trkpt>
      <trkpt lat="44.28965" lon="6.12018">
        <ele>1171.5</ele>
        <time>2024-05-11T13:39:10Z</time>
      </trkpt>
      <trkpt lat="44.28971" lon="6.12015">
        <ele>1171.02</ele>
        <time>2024-05-11T13:39:15Z</time>
      </trkpt>
      <trkpt lat="44.28992" lon="6.12001">
        <ele>1168.14</ele>
        <time>2024-05-11T13:39:31Z</time>
      </trkpt>
      <trkpt lat="44.29001" lon="6.11993">
        <ele>1166.7</ele>
        <time>2024-05-11T13:39:39Z</time>
      </trkpt>
      <trkpt lat="44.2901" lon="6.11986">
        <ele>1164.77</ele>
        <time>2024-05-11T13:39:47Z</time>
      </trkpt>
      <trkpt lat="44.29014" lon="6.11982">
        <ele>1164.29</ele>
        <time>2024-05-11T13:39:51Z</time>
      </trkpt>
      <trkpt lat="44.29016" lon="6.1198">
        <ele>1163.81</ele>
        <time>2024-05-11T13:39:53Z</time>
      </trkpt>
      <trkpt lat="44.29034" lon="6.11968">
        <ele>1161.41</ele>
        <time>2024-05-11T13:40:09Z</time>
      </trkpt>
      <trkpt lat="44.29044" lon="6.11958">
        <ele>1158.53</ele>
        <time>2024-05-11T13:40:22Z</time>
      </trkpt>
      <trkpt lat="44.29043" lon="6.1194">
        <ele>1155.64</ele>
        <time>2024-05-11T13:40:37Z</time>
      </trkpt>
      <trkpt lat="44.29043" lon="6.11929">
        <ele>1153.72</ele>
        <time>2024-05-11T13:40:46Z</time>
      </trkpt>
      <trkpt lat="44.29035" lon="6.11911">
        <ele>1151.32</ele>
        <time>2024-05-11T13:41:02Z</time>
      </trkpt>
      <trkpt lat="44.29039" lon="6.11906">
        <ele>1151.32</ele>
        <time>2024-05-11T13:41:14Z</time>
      </trkpt>
      <trkpt lat="44.2905" lon="6.11908">
        <ele>1149.87</ele>
        <time>2024-05-11T13:41:27Z</time>
      </trkpt>
      <trkpt lat="44.29062" lon="6.11912">
        <ele>1146.99</ele>
        <time>2024-05-11T13:41:41Z</time>
      </trkpt>
      <trkpt lat="44.29074" lon="6.11916">
        <ele>1143.63</ele>
        <time>2024-05-11T13:41:54Z</time>
      </trkpt>
      <trkpt lat="44.29089" lon="6.11913">
        <ele>1140.74</ele>
        <time>2024-05-11T13:42:10Z</time>
      </trkpt>
      <trkpt lat="44.29101" lon="6.11913">
        <ele>1139.3</ele>
        <time>2024-05-11T13:42:21Z</time>
      </trkpt>
      <trkpt lat="44.29108" lon="6.11914">
        <ele>1137.86</ele>
        <time>2024-05-11T13:42:28Z</time>
      </trkpt>
      <trkpt lat="44.29123" lon="6.11912">
        <ele>1134.97</ele>
        <time>2024-05-11T13:42:38Z</time>
      </trkpt>
      <trkpt lat="44.29141" lon="6.11913">
        <ele>1132.09</ele>
        <time>2024-05-11T13:42:52Z</time>
      </trkpt>
      <trkpt lat="44.29148" lon="6.11914">
        <ele>1131.13</ele>
        <time>2024-05-11T13:42:58Z</time>
      </trkpt>
      <trkpt lat="44.29163" lon="6.11904">
        <ele>1131.13</ele>
        <time>2024-05-11T13:43:14Z</time>
      </trkpt>
      <trkpt lat="44.29178" lon="6.11889">
        <ele>1128.24</ele>
        <time>2024-05-11T13:43:29Z</time>
      </trkpt>
      <trkpt lat="44.29193" lon="6.1188">
        <ele>1124.88</ele>
        <time>2024-05-11T13:43:44Z</time>
      </trkpt>
      <trkpt lat="44.29198" lon="6.11875">
        <ele>1123.44</ele>
        <time>2024-05-11T13:43:55Z</time>
      </trkpt>
      <trkpt lat="44.292" lon="6.11872">
        <ele>1122.96</ele>
        <time>2024-05-11T13:43:57Z</time>
      </trkpt>
      <trkpt lat="44.29221" lon="6.11861">
        <ele>1120.55</ele>
        <time>2024-05-11T13:44:12Z</time>
      </trkpt>
      <trkpt lat="44.29234" lon="6.11852">
        <ele>1118.63</ele>
        <time>2024-05-11T13:44:27Z</time>
      </trkpt>
      <trkpt lat="44.29249" lon="6.11835">
        <ele>1114.79</ele>
        <time>2024-05-11T13:44:43Z</time>
      </trkpt>
      <trkpt lat="44.2926" lon="6.11823">
        <ele>1114.31</ele>
        <time>2024-05-11T13:44:53Z</time>
      </trkpt>
      <trkpt lat="44.29272" lon="6.11801">
        <ele>1114.31</ele>
        <time>2024-05-11T13:45:07Z</time>
      </trkpt>
      <trkpt lat="44.29276" lon="6.11795">
        <ele>1115.27</ele>
        <time>2024-05-11T13:45:11Z</time>
      </trkpt>
      <trkpt lat="44.29283" lon="6.11788">
        <ele>1113.82</ele>
        <time>2024-05-11T13:45:17Z</time>
      </trkpt>
      <trkpt lat="44.29294" lon="6.11776">
        <ele>1111.9</ele>
        <time>2024-05-11T13:45:31Z</time>
      </trkpt>
      <trkpt lat="44.29293" lon="6.11758">
        <ele>1110.94</ele>
        <time>2024-05-11T13:45:47Z</time>
      </trkpt>
      <trkpt lat="44.29292" lon="6.11747">
        <ele>1110.94</ele>
        <time>2024-05-11T13:45:57Z</time>
      </trkpt>
      <trkpt lat="44.29297" lon="6.11732">
        <ele>1110.46</ele>
        <time>2024-05-11T13:46:09Z</time>
      </trkpt>
      <trkpt lat="44.29297" lon="6.1172">
        <ele>1109.98</ele>
        <time>2024-05-11T13:46:17Z</time>
      </trkpt>
      <trkpt lat="44.29299" lon="6.11696">
        <ele>1108.54</ele>
        <time>2024-05-11T13:46:34Z</time>
      </trkpt>
      <trkpt lat="44.29303" lon="6.11683">
        <ele>1108.54</ele>
        <time>2024-05-11T13:46:43Z</time>
      </trkpt>
      <trkpt lat="44.293" lon="6.11659">
        <ele>1107.58</ele>
        <time>2024-05-11T13:46:56Z</time>
      </trkpt>
      <trkpt lat="44.293" lon="6.11641">
        <ele>1106.61</ele>
        <time>2024-05-11T13:47:07Z</time>
      </trkpt>
      <trkpt lat="44.29301" lon="6.11627">
        <ele>1106.13</ele>
        <time>2024-05-11T13:47:18Z</time>
      </trkpt>
      <trkpt lat="44.29303" lon="6.11601">
        <ele>1102.77</ele>
        <time>2024-05-11T13:47:33Z</time>
      </trkpt>
      <trkpt lat="44.29305" lon="6.11594">
        <ele>1102.29</ele>
        <time>2024-05-11T13:47:37Z</time>
      </trkpt>
      <trkpt lat="44.29309" lon="6.11583">
        <ele>1102.29</ele>
        <time>2024-05-11T13:47:43Z</time>
      </trkpt>
      <trkpt lat="44.29324" lon="6.11558">
        <ele>1100.85</ele>
        <time>2024-05-11T13:48:00Z</time>
      </trkpt>
      <trkpt lat="44.29324" lon="6.1155">
        <ele>1100.37</ele>
        <time>2024-05-11T13:48:06Z</time>
      </trkpt>
      <trkpt lat="44.29325" lon="6.11539">
        <ele>1098.92</ele>
        <time>2024-05-11T13:48:22Z</time>
      </trkpt>
      <trkpt lat="44.29331" lon="6.11533">
        <ele>1097.96</ele>
        <time>2024-05-11T13:48:38Z</time>
      </trkpt>
      <trkpt lat="44.29332" lon="6.11533">
        <ele>1097.96</ele>
        <time>2024-05-11T13:48:39Z</time>
      </trkpt>
      <trkpt lat="44.29344" lon="6.11533">
        <ele>1095.08</ele>
        <time>2024-05-11T13:48:54Z</time>
      </trkpt>
      <trkpt lat="44.29344" lon="6.11532">
        <ele>1094.6</ele>
        <time>2024-05-11T13:48:55Z</time>
      </trkpt>
      <trkpt lat="44.29352" lon="6.11527">
        <ele>1092.68</ele>
        <time>2024-05-11T13:49:01Z</time>
      </trkpt>
      <trkpt lat="44.29354" lon="6.11523">
        <ele>1091.71</ele>
        <time>2024-05-11T13:49:04Z</time>
      </trkpt>
      <trkpt lat="44.29354" lon="6.11506">
        <ele>1088.35</ele>
        <time>2024-05-11T13:49:16Z</time>
      </trkpt>
      <trkpt lat="44.29354" lon="6.11494">
        <ele>1087.39</ele>
        <time>2024-05-11T13:49:23Z</time>
      </trkpt>
      <trkpt lat="44.29351" lon="6.11477">
        <ele>1085.47</ele>
        <time>2024-05-11T13:49:34Z</time>
      </trkpt>
      <trkpt lat="44.29351" lon="6.11472">
        <ele>1084.99</ele>
        <time>2024-05-11T13:49:37Z</time>
      </trkpt>
      <trkpt lat="44.29349" lon="6.11458">
        <ele>1084.02</ele>
        <time>2024-05-11T13:49:46Z</time>
      </trkpt>
      <trkpt lat="44.29351" lon="6.11431">
        <ele>1080.66</ele>
        <time>2024-05-11T13:50:01Z</time>
      </trkpt>
      <trkpt lat="44.29351" lon="6.11415">
        <ele>1077.78</ele>
        <time>2024-05-11T13:50:12Z</time>
      </trkpt>
      <trkpt lat="44.29352" lon="6.11401">
        <ele>1076.33</ele>
        <time>2024-05-11T13:50:20Z</time>
      </trkpt>
      <trkpt lat="44.29361" lon="6.11388">
        <ele>1075.85</ele>
        <time>2024-05-11T13:50:30Z</time>
      </trkpt>
      <trkpt lat="44.29366" lon="6.11376">
        <ele>1077.29</ele>
        <time>2024-05-11T13:50:38Z</time>
      </trkpt>
      <trkpt lat="44.29368" lon="6.11355">
        <ele>1078.74</ele>
        <time>2024-05-11T13:50:51Z</time>
      </trkpt>
      <trkpt lat="44.29363" lon="6.11335">
        <ele>1080.18</ele>
        <time>2024-05-11T13:51:06Z</time>
      </trkpt>
      <trkpt lat="44.29361" lon="6.1133">
        <ele>1080.18</ele>
        <time>2024-05-11T13:51:10Z</time>
      </trkpt>
      <trkpt lat="44.29359" lon="6.11326">
        <ele>1080.18</ele>
        <time>2024-05-11T13:51:14Z</time>
      </trkpt>
      <trkpt lat="44.29356" lon="6.11315">
        <ele>1080.18</ele>
        <time>2024-05-11T13:51:23Z</time>
      </trkpt>
      <trkpt lat="44.29363" lon="6.11313">
        <ele>1081.62</ele>
        <time>2024-05-11T13:51:30Z</time>
      </trkpt>
      <trkpt lat="44.29379" lon="6.11315">
        <ele>1082.1</ele>
        <time>2024-05-11T13:51:45Z</time>
      </trkpt>
      <trkpt lat="44.29387" lon="6.1131">
        <ele>1081.62</ele>
        <time>2024-05-11T13:51:58Z</time>
      </trkpt>
      <trkpt lat="44.29388" lon="6.1131">
        <ele>1081.62</ele>
        <time>2024-05-11T13:51:59Z</time>
      </trkpt>
      <trkpt lat="44.29411" lon="6.11294">
        <ele>1080.18</ele>
        <time>2024-05-11T13:52:19Z</time>
      </trkpt>
      <trkpt lat="44.29427" lon="6.11285">
        <ele>1076.81</ele>
        <time>2024-05-11T13:52:32Z</time>
      </trkpt>
      <trkpt lat="44.29441" lon="6.11279">
        <ele>1074.41</ele>
        <time>2024-05-11T13:52:43Z</time>
      </trkpt>
      <trkpt lat="44.29451" lon="6.1128">
        <ele>1072.49</ele>
        <time>2024-05-11T13:52:50Z</time>
      </trkpt>
      <trkpt lat="44.29464" lon="6.11277">
        <ele>1069.12</ele>
        <time>2024-05-11T13:53:02Z</time>
      </trkpt>
      <trkpt lat="44.29469" lon="6.11275">
        <ele>1067.68</ele>
        <time>2024-05-11T13:53:07Z</time>
      </trkpt>
      <trkpt lat="44.29484" lon="6.11265">
        <ele>1064.32</ele>
        <time>2024-05-11T13:53:21Z</time>
      </trkpt>
      <trkpt lat="44.29491" lon="6.11249">
        <ele>1060.95</ele>
        <time>2024-05-11T13:53:34Z</time>
      </trkpt>
      <trkpt lat="44.29492" lon="6.11247">
        <ele>1060.95</ele>
        <time>2024-05-11T13:53:36Z</time>
      </trkpt>
      <trkpt lat="44.29497" lon="6.1123">
        <ele>1057.11</ele>
        <time>2024-05-11T13:53:48Z</time>
      </trkpt>
      <trkpt lat="44.29504" lon="6.11223">
        <ele>1056.15</ele>
        <time>2024-05-11T13:54:01Z</time>
      </trkpt>
      <trkpt lat="44.29506" lon="6.11224">
        <ele>1056.15</ele>
        <time>2024-05-11T13:54:04Z</time>
      </trkpt>
      <trkpt lat="44.29524" lon="6.11234">
        <ele>1053.26</ele>
        <time>2024-05-11T13:54:21Z</time>
      </trkpt>
      <trkpt lat="44.29529" lon="6.11237">
        <ele>1052.3</ele>
        <time>2024-05-11T13:54:25Z</time>
      </trkpt>
      <trkpt lat="44.29547" lon="6.11243">
        <ele>1051.82</ele>
        <time>2024-05-11T13:54:42Z</time>
      </trkpt>
      <trkpt lat="44.29564" lon="6.11243">
        <ele>1049.9</ele>
        <time>2024-05-11T13:54:57Z</time>
      </trkpt>
      <trkpt lat="44.29567" lon="6.1124">
        <ele>1049.42</ele>
        <time>2024-05-11T13:55:01Z</time>
      </trkpt>
      <trkpt lat="44.29575" lon="6.11226">
        <ele>1048.45</ele>
        <time>2024-05-11T13:55:12Z</time>
      </trkpt>
      <trkpt lat="44.29571" lon="6.11206">
        <ele>1048.45</ele>
        <time>2024-05-11T13:55:26Z</time>
      </trkpt>
      <trkpt lat="44.29572" lon="6.11201">
        <ele>1048.45</ele>
        <time>2024-05-11T13:55:30Z</time>
      </trkpt>
      <trkpt lat="44.29586" lon="6.11205">
        <ele>1048.45</ele>
        <time>2024-05-11T13:55:44Z</time>
      </trkpt>
      <trkpt lat="44.29599" lon="6.11213">
        <ele>1047.97</ele>
        <time>2024-05-11T13:55:58Z</time>
      </trkpt>
      <trkpt lat="44.29608" lon="6.11235">
        <ele>1046.53</ele>
        <time>2024-05-11T13:56:14Z</time>
      </trkpt>
      <trkpt lat="44.29614" lon="6.11261">
        <ele>1046.05</ele>
        <time>2024-05-11T13:56:31Z</time>
      </trkpt>
      <trkpt lat="44.29619" lon="6.11278">
        <ele>1047.49</ele>
        <time>2024-05-11T13:56:42Z</time>
      </trkpt>
      <trkpt lat="44.29631" lon="6.1129">
        <ele>1046.05</ele>
        <time>2024-05-11T13:56:55Z</time>
      </trkpt>
      <trkpt lat="44.29641" lon="6.11294">
        <ele>1045.57</ele>
        <time>2024-05-11T13:57:11Z</time>
      </trkpt>
      <trkpt lat="44.29655" lon="6.11298">
        <ele>1044.61</ele>
        <time>2024-05-11T13:57:25Z</time>
      </trkpt>
      <trkpt lat="44.2968" lon="6.11302">
        <ele>1043.17</ele>
        <time>2024-05-11T13:57:43Z</time>
      </trkpt>
      <trkpt lat="44.29702" lon="6.11306">
        <ele>1041.73</ele>
        <time>2024-05-11T13:57:59Z</time>
      </trkpt>
      <trkpt lat="44.29725" lon="6.11313">
        <ele>1040.28</ele>
        <time>2024-05-11T13:58:17Z</time>
      </trkpt>
      <trkpt lat="44.29738" lon="6.11317">
        <ele>1039.32</ele>
        <time>2024-05-11T13:58:29Z</time>
      </trkpt>
      <trkpt lat="44.2975" lon="6.11323">
        <ele>1036.44</ele>
        <time>2024-05-11T13:58:40Z</time>
      </trkpt>
      <trkpt lat="44.29773" lon="6.11329">
        <ele>1035</ele>
        <time>2024-05-11T13:58:59Z</time>
      </trkpt>
      <trkpt lat="44.29786" lon="6.11326">
        <ele>1032.11</ele>
        <time>2024-05-11T13:59:13Z</time>
      </trkpt>
      <trkpt lat="44.29801" lon="6.1132">
        <ele>1029.71</ele>
        <time>2024-05-11T13:59:27Z</time>
      </trkpt>
      <trkpt lat="44.29824" lon="6.11321">
        <ele>1028.75</ele>
        <time>2024-05-11T13:59:44Z</time>
      </trkpt>
      <trkpt lat="44.29842" lon="6.11331">
        <ele>1029.71</ele>
        <time>2024-05-11T13:59:59Z</time>
      </trkpt>
      <trkpt lat="44.29856" lon="6.11341">
        <ele>1027.79</ele>
        <time>2024-05-11T14:00:14Z</time>
      </trkpt>
      <trkpt lat="44.29865" lon="6.11344">
        <ele>1026.34</ele>
        <time>2024-05-11T14:00:27Z</time>
      </trkpt>
      <trkpt lat="44.29866" lon="6.11343">
        <ele>1026.34</ele>
        <time>2024-05-11T14:01:18Z</time>
      </trkpt>
      <trkpt lat="44.29868" lon="6.11342">
        <ele>1026.34</ele>
        <time>2024-05-11T14:01:25Z</time>
      </trkpt>
      <trkpt lat="44.29888" lon="6.11344">
        <ele>1022.98</ele>
        <time>2024-05-11T14:01:43Z</time>
      </trkpt>
      <trkpt lat="44.29905" lon="6.11353">
        <ele>1019.62</ele>
        <time>2024-05-11T14:01:57Z</time>
      </trkpt>
      <trkpt lat="44.29907" lon="6.11352">
        <ele>1019.62</ele>
        <time>2024-05-11T14:01:59Z</time>
      </trkpt>
      <trkpt lat="44.29916" lon="6.11365">
        <ele>1015.77</ele>
        <time>2024-05-11T14:02:14Z</time>
      </trkpt>
      <trkpt lat="44.2992" lon="6.1137">
        <ele>1014.33</ele>
        <time>2024-05-11T14:02:19Z</time>
      </trkpt>
      <trkpt lat="44.29923" lon="6.11373">
        <ele>1013.85</ele>
        <time>2024-05-11T14:02:22Z</time>
      </trkpt>
      <trkpt lat="44.29932" lon="6.11385">
        <ele>1009.52</ele>
        <time>2024-05-11T14:02:33Z</time>
      </trkpt>
      <trkpt lat="44.29939" lon="6.11389">
        <ele>1007.6</ele>
        <time>2024-05-11T14:02:41Z</time>
      </trkpt>
      <trkpt lat="44.29951" lon="6.11388">
        <ele>1004.72</ele>
        <time>2024-05-11T14:02:53Z</time>
      </trkpt>
      <trkpt lat="44.29965" lon="6.11398">
        <ele>1001.35</ele>
        <time>2024-05-11T14:03:06Z</time>
      </trkpt>
      <trkpt lat="44.29974" lon="6.1141">
        <ele>997.51</ele>
        <time>2024-05-11T14:03:17Z</time>
      </trkpt>
      <trkpt lat="44.2998" lon="6.11422">
        <ele>994.14</ele>
        <time>2024-05-11T14:03:28Z</time>
      </trkpt>
      <trkpt lat="44.29986" lon="6.1143">
        <ele>991.74</ele>
        <time>2024-05-11T14:03:43Z</time>
      </trkpt>
      <trkpt lat="44.29987" lon="6.11428">
        <ele>990.78</ele>
        <time>2024-05-11T14:04:00Z</time>
      </trkpt>
      <trkpt lat="44.29991" lon="6.11427">
        <ele>989.33</ele>
        <time>2024-05-11T14:04:16Z</time>
      </trkpt>
      <trkpt lat="44.29995" lon="6.11424">
        <ele>988.37</ele>
        <time>2024-05-11T14:04:29Z</time>
      </trkpt>
      <trkpt lat="44.29995" lon="6.11421">
        <ele>988.37</ele>
        <time>2024-05-11T14:04:50Z</time>
      </trkpt>
      <trkpt lat="44.29997" lon="6.11421">
        <ele>988.37</ele>
        <time>2024-05-11T14:05:24Z</time>
      </trkpt>
      <trkpt lat="44.30003" lon="6.11422">
        <ele>986.93</ele>
        <time>2024-05-11T14:05:49Z</time>
      </trkpt>
      <trkpt lat="44.3001" lon="6.11424">
        <ele>984.05</ele>
        <time>2024-05-11T14:05:59Z</time>
      </trkpt>
      <trkpt lat="44.30012" lon="6.11422">
        <ele>982.6</ele>
        <time>2024-05-11T14:06:03Z</time>
      </trkpt>
      <trkpt lat="44.30022" lon="6.11425">
        <ele>979.24</ele>
        <time>2024-05-11T14:06:14Z</time>
      </trkpt>
      <trkpt lat="44.30023" lon="6.11427">
        <ele>978.76</ele>
        <time>2024-05-11T14:06:16Z</time>
      </trkpt>
      <trkpt lat="44.30035" lon="6.11435">
        <ele>974.91</ele>
        <time>2024-05-11T14:06:29Z</time>
      </trkpt>
      <trkpt lat="44.30042" lon="6.11442">
        <ele>972.51</ele>
        <time>2024-05-11T14:06:41Z</time>
      </trkpt>
      <trkpt lat="44.30051" lon="6.11449">
        <ele>969.15</ele>
        <time>2024-05-11T14:06:52Z</time>
      </trkpt>
      <trkpt lat="44.30055" lon="6.11452">
        <ele>967.7</ele>
        <time>2024-05-11T14:06:56Z</time>
      </trkpt>
      <trkpt lat="44.30063" lon="6.1146">
        <ele>964.82</ele>
        <time>2024-05-11T14:07:06Z</time>
      </trkpt>
      <trkpt lat="44.30064" lon="6.1146">
        <ele>964.34</ele>
        <time>2024-05-11T14:07:09Z</time>
      </trkpt>
      <trkpt lat="44.30071" lon="6.11461">
        <ele>962.9</ele>
        <time>2024-05-11T14:07:16Z</time>
      </trkpt>
      <trkpt lat="44.30075" lon="6.11454">
        <ele>961.94</ele>
        <time>2024-05-11T14:07:22Z</time>
      </trkpt>
      <trkpt lat="44.30074" lon="6.11435">
        <ele>959.53</ele>
        <time>2024-05-11T14:07:34Z</time>
      </trkpt>
      <trkpt lat="44.30076" lon="6.11423">
        <ele>958.09</ele>
        <time>2024-05-11T14:07:42Z</time>
      </trkpt>
      <trkpt lat="44.30075" lon="6.1142">
        <ele>957.61</ele>
        <time>2024-05-11T14:07:44Z</time>
      </trkpt>
      <trkpt lat="44.30076" lon="6.11402">
        <ele>956.65</ele>
        <time>2024-05-11T14:07:54Z</time>
      </trkpt>
      <trkpt lat="44.3008" lon="6.11394">
        <ele>955.21</ele>
        <time>2024-05-11T14:07:59Z</time>
      </trkpt>
      <trkpt lat="44.30084" lon="6.11388">
        <ele>954.73</ele>
        <time>2024-05-11T14:08:04Z</time>
      </trkpt>
      <trkpt lat="44.30088" lon="6.11382">
        <ele>953.77</ele>
        <time>2024-05-11T14:08:09Z</time>
      </trkpt>
      <trkpt lat="44.3009" lon="6.11377">
        <ele>953.28</ele>
        <time>2024-05-11T14:08:13Z</time>
      </trkpt>
      <trkpt lat="44.30094" lon="6.11371">
        <ele>952.32</ele>
        <time>2024-05-11T14:08:29Z</time>
      </trkpt>
      <trkpt lat="44.30098" lon="6.11363">
        <ele>951.36</ele>
        <time>2024-05-11T14:08:53Z</time>
      </trkpt>
      <trkpt lat="44.30098" lon="6.11362">
        <ele>950.88</ele>
        <time>2024-05-11T14:08:54Z</time>
      </trkpt>
      <trkpt lat="44.30101" lon="6.11354">
        <ele>949.92</ele>
        <time>2024-05-11T14:09:00Z</time>
      </trkpt>
      <trkpt lat="44.30102" lon="6.11348">
        <ele>948.48</ele>
        <time>2024-05-11T14:09:04Z</time>
      </trkpt>
      <trkpt lat="44.30103" lon="6.11344">
        <ele>948</ele>
        <time>2024-05-11T14:09:06Z</time>
      </trkpt>
      <trkpt lat="44.30105" lon="6.11337">
        <ele>947.52</ele>
        <time>2024-05-11T14:09:10Z</time>
      </trkpt>
      <trkpt lat="44.30112" lon="6.11326">
        <ele>945.11</ele>
        <time>2024-05-11T14:09:18Z</time>
      </trkpt>
      <trkpt lat="44.30119" lon="6.11315">
        <ele>943.19</ele>
        <time>2024-05-11T14:09:27Z</time>
      </trkpt>
      <trkpt lat="44.30124" lon="6.113">
        <ele>941.75</ele>
        <time>2024-05-11T14:09:39Z</time>
      </trkpt>
      <trkpt lat="44.30124" lon="6.11298">
        <ele>941.75</ele>
        <time>2024-05-11T14:09:41Z</time>
      </trkpt>
      <trkpt lat="44.30134" lon="6.1131">
        <ele>941.75</ele>
        <time>2024-05-11T14:09:57Z</time>
      </trkpt>
      <trkpt lat="44.30136" lon="6.11316">
        <ele>942.71</ele>
        <time>2024-05-11T14:10:02Z</time>
      </trkpt>
      <trkpt lat="44.30141" lon="6.11325">
        <ele>942.71</ele>
        <time>2024-05-11T14:10:09Z</time>
      </trkpt>
      <trkpt lat="44.30143" lon="6.11327">
        <ele>941.27</ele>
        <time>2024-05-11T14:10:11Z</time>
      </trkpt>
      <trkpt lat="44.30152" lon="6.11339">
        <ele>940.31</ele>
        <time>2024-05-11T14:10:22Z</time>
      </trkpt>
      <trkpt lat="44.30161" lon="6.11353">
        <ele>939.83</ele>
        <time>2024-05-11T14:10:36Z</time>
      </trkpt>
      <trkpt lat="44.30166" lon="6.1136">
        <ele>939.83</ele>
        <time>2024-05-11T14:10:48Z</time>
      </trkpt>
      <trkpt lat="44.30174" lon="6.11366">
        <ele>941.27</ele>
        <time>2024-05-11T14:10:58Z</time>
      </trkpt>
      <trkpt lat="44.30191" lon="6.11368">
        <ele>939.83</ele>
        <time>2024-05-11T14:11:12Z</time>
      </trkpt>
      <trkpt lat="44.30203" lon="6.11373">
        <ele>936.94</ele>
        <time>2024-05-11T14:11:26Z</time>
      </trkpt>
      <trkpt lat="44.30213" lon="6.11373">
        <ele>934.54</ele>
        <time>2024-05-11T14:11:42Z</time>
      </trkpt>
      <trkpt lat="44.30224" lon="6.11372">
        <ele>931.17</ele>
        <time>2024-05-11T14:11:55Z</time>
      </trkpt>
      <trkpt lat="44.30237" lon="6.11371">
        <ele>929.25</ele>
        <time>2024-05-11T14:12:08Z</time>
      </trkpt>
      <trkpt lat="44.30252" lon="6.1137">
        <ele>926.85</ele>
        <time>2024-05-11T14:12:21Z</time>
      </trkpt>
      <trkpt lat="44.30259" lon="6.1137">
        <ele>926.37</ele>
        <time>2024-05-11T14:12:26Z</time>
      </trkpt>
      <trkpt lat="44.30274" lon="6.11363">
        <ele>926.37</ele>
        <time>2024-05-11T14:12:39Z</time>
      </trkpt>
      <trkpt lat="44.30288" lon="6.11351">
        <ele>925.89</ele>
        <time>2024-05-11T14:12:54Z</time>
      </trkpt>
      <trkpt lat="44.30296" lon="6.11351">
        <ele>924.93</ele>
        <time>2024-05-11T14:13:05Z</time>
      </trkpt>
      <trkpt lat="44.303" lon="6.11343">
        <ele>924.93</ele>
        <time>2024-05-11T14:13:14Z</time>
      </trkpt>
      <trkpt lat="44.30316" lon="6.11355">
        <ele>926.37</ele>
        <time>2024-05-11T14:13:29Z</time>
      </trkpt>
      <trkpt lat="44.3033" lon="6.11362">
        <ele>927.33</ele>
        <time>2024-05-11T14:13:44Z</time>
      </trkpt>
      <trkpt lat="44.30336" lon="6.11363">
        <ele>927.33</ele>
        <time>2024-05-11T14:13:53Z</time>
      </trkpt>
      <trkpt lat="44.30341" lon="6.11355">
        <ele>925.41</ele>
        <time>2024-05-11T14:14:01Z</time>
      </trkpt>
      <trkpt lat="44.30341" lon="6.1135">
        <ele>924.93</ele>
        <time>2024-05-11T14:14:04Z</time>
      </trkpt>
      <trkpt lat="44.30347" lon="6.11321">
        <ele>923.48</ele>
        <time>2024-05-11T14:14:22Z</time>
      </trkpt>
      <trkpt lat="44.30352" lon="6.11309">
        <ele>923</ele>
        <time>2024-05-11T14:14:38Z</time>
      </trkpt>
    </trkseg>
  </trk>
</gpx>